Provisional Data: Little Pine Creek near Waterville, PA


Please select a monitoring station.
Please select start date.
Please select start date.

Toggle Unit: C/F Toggle Unit: C/F
Sample Time Temperature (C) Temperature (F) Specific Conductivity (mS/cm) pH   Turbidity (NTU+) DO (mg/L)
5/17/2022 12:00:00 AM 13.44 56.192 0.077 6.58 6.69 10.02
5/17/2022 12:15:00 AM 13.41 56.138 0.077 6.6 6.64 10.02
5/17/2022 12:30:00 AM 13.39 56.102 0.077 6.6 6.76 10.03
5/17/2022 12:45:00 AM 13.37 56.066 0.077 6.58 6.61 10.03
5/17/2022 1:00:00 AM 13.37 56.066 0.077 6.57 6.73 10.03
5/17/2022 1:15:00 AM 13.36 56.048 0.077 6.58 6.7 10.03
5/17/2022 1:30:00 AM 13.35 56.03 0.077 6.59 6.52 10.03
5/17/2022 1:45:00 AM 13.33 55.994 0.073 6.58 7.4 10.04
5/17/2022 2:00:00 AM 13.3 55.94 0.077 6.58 6.41 10.04
5/17/2022 2:15:00 AM 13.28 55.904 0.077 6.57 6.37 10.04
5/17/2022 2:30:00 AM 13.25 55.85 0.077 6.59 6.57 10.04
5/17/2022 2:45:00 AM 13.22 55.796 0.077 6.57 6.41 10.04
5/17/2022 3:00:00 AM 13.2 55.76 0.077 6.55 6.32 10.05
5/17/2022 3:15:00 AM 13.17 55.706 0.077 6.57 6.48 10.05
5/17/2022 3:30:00 AM 13.15 55.67 0.077 6.58 6.35 10.06
5/17/2022 3:45:00 AM 13.13 55.634 0.077 6.57 6.38 10.06
5/17/2022 4:00:00 AM 13.12 55.616 0.077 6.59 6.29 10.06
5/17/2022 4:15:00 AM 13.1 55.58 0.077 6.57 6.28 10.06
5/17/2022 4:30:00 AM 13.07 55.526 0.077 6.58 6.37 10.07
5/17/2022 4:45:00 AM 13.04 55.472 0.077 6.56 6.31 10.07
5/17/2022 5:00:00 AM 13.01 55.418 0.078 6.57 6.28 10.07
5/17/2022 5:15:00 AM 12.98 55.364 0.078 6.57 6.24 10.08
5/17/2022 5:30:00 AM 12.96 55.328 0.078 6.57 6.3 10.08
5/17/2022 5:45:00 AM 12.93 55.274 0.078 6.57 6.14 10.1
5/17/2022 6:00:00 AM 12.91 55.238 0.078 6.56 5.97 10.1
5/17/2022 6:15:00 AM 12.88 55.184 0.078 6.57 5.95 10.11
5/17/2022 6:30:00 AM 12.85 55.13 0.078 6.58 6.05 10.13
5/17/2022 6:45:00 AM 12.83 55.094 0.078 6.57 5.81 10.14
5/17/2022 7:00:00 AM 12.81 55.058 0.078 6.58 5.85 10.17
5/17/2022 7:15:00 AM 12.8 55.04 0.078 6.59 5.74 10.22
5/17/2022 7:30:00 AM 12.79 55.022 0.078 6.6 5.68 10.26
5/17/2022 7:45:00 AM 12.78 55.004 0.078 6.61 5.64 10.32
5/17/2022 8:00:00 AM 12.78 55.004 0.078 6.62 5.5 10.37
5/17/2022 8:15:00 AM 12.78 55.004 0.078 6.64 5.54 10.41
5/17/2022 8:30:00 AM 12.77 54.986 0.078 6.66 5.56 10.45
5/17/2022 8:45:00 AM 12.78 55.004 0.078 6.68 5.47 10.5
5/17/2022 9:00:00 AM 12.77 54.986 0.078 6.69 5.39 10.52
5/17/2022 9:15:00 AM 12.79 55.022 0.078 6.7 5.25 10.55
5/17/2022 9:30:00 AM 12.8 55.04 0.077 6.7 5.4 10.59
5/17/2022 9:45:00 AM 12.83 55.094 0.077 6.72 5.28 10.61
5/17/2022 10:00:00 AM 12.86 55.148 0.077 6.74 5.15 10.65
5/17/2022 10:15:00 AM 12.91 55.238 0.077 6.76 5.12 10.67
5/17/2022 10:30:00 AM 12.97 55.346 0.077 6.76 5.13 10.7
5/17/2022 10:45:00 AM 13.04 55.472 0.077 6.8 4.94 10.73
5/17/2022 11:00:00 AM 13.13 55.634 0.077 6.82 5.03 10.77
5/17/2022 11:15:00 AM 13.22 55.796 0.077 6.84 5.01 10.8
5/17/2022 11:30:00 AM 13.31 55.958 0.073 6.85 6.27 10.82
5/17/2022 11:45:00 AM 13.36 56.048 0.076 6.86 5.03 10.82
5/17/2022 12:00:00 PM 13.44 56.192 0.076 6.89 4.88 10.83
5/17/2022 12:15:00 PM 13.43 56.174 0.076 6.88 5 10.79
5/17/2022 12:30:00 PM 13.49 56.282 0.076 6.89 4.83 10.81
5/17/2022 12:45:00 PM 13.56 56.408 0.076 6.92 4.96 10.81
5/17/2022 1:00:00 PM 13.68 56.624 0.076 6.93 4.8 10.84
5/17/2022 1:15:00 PM 13.79 56.822 0.076 6.96 4.87 10.87
5/17/2022 1:30:00 PM 13.78 56.804 0.076 6.94 4.71 10.86
5/17/2022 1:45:00 PM 13.81 56.858 0.076 6.96 4.64 10.9
5/17/2022 2:00:00 PM 13.91 57.038 0.075 7 4.75 10.96
5/17/2022 2:15:00 PM 14.01 57.218 0.075 7.02 4.56 10.96
5/17/2022 2:30:00 PM 14.14 57.452 0.075 7.03 4.61 10.96
5/17/2022 2:45:00 PM 14.22 57.596 0.075 7.03 4.59 10.96
5/17/2022 3:00:00 PM 14.23 57.614 0.075 7.08 4.67 10.95
5/17/2022 3:15:00 PM 14.16 57.488 0.075 7.08 4.66 10.94
5/17/2022 3:30:00 PM 14.11 57.398 0.075 7.08 4.63 10.92
5/17/2022 3:45:00 PM 14.15 57.47 0.075 7.05 4.57 10.87
5/17/2022 4:00:00 PM 14.3 57.74 0.076 7.04 4.68 10.8
5/17/2022 4:15:00 PM 14.42 57.956 0.076 7.04 4.61 10.72
5/17/2022 4:30:00 PM 14.51 58.118 0.076 7.01 4.65 10.66
5/17/2022 4:45:00 PM 14.59 58.262 0.077 6.99 4.76 10.58
5/17/2022 5:00:00 PM 14.66 58.388 0.073 6.97 5.69 10.49
5/17/2022 5:15:00 PM 14.68 58.424 0.077 6.96 4.74 10.4
5/17/2022 5:30:00 PM 14.63 58.334 0.077 6.9 4.7 10.29
5/17/2022 5:45:00 PM 14.6 58.28 0.077 6.86 4.74 10.23
5/17/2022 6:00:00 PM 14.55 58.19 0.077 6.83 4.77 10.19
5/17/2022 6:15:00 PM 14.47 58.046 0.077 6.78 4.59 10.15
5/17/2022 6:30:00 PM 14.37 57.866 0.077 6.76 4.59 10.13
5/17/2022 6:45:00 PM 14.29 57.722 0.077 6.76 4.58 10.09
5/17/2022 7:00:00 PM 14.24 57.632 0.077 6.76 4.57 10.06
5/17/2022 7:15:00 PM 14.18 57.524 0.077 6.73 4.63 10.02
5/17/2022 7:30:00 PM 14.09 57.362 0.076 6.7 4.59 10.01
5/17/2022 7:45:00 PM 13.98 57.164 0.076 6.67 4.47 9.99
5/17/2022 8:00:00 PM 13.87 56.966 0.076 6.68 4.36 9.99
5/17/2022 8:15:00 PM 13.78 56.804 0.075 6.65 4.28 9.98
5/17/2022 8:30:00 PM 13.7 56.66 0.071 6.62 5.44 9.97
5/17/2022 8:45:00 PM 13.64 56.552 0.075 6.61 4.24 9.96
5/17/2022 9:00:00 PM 13.59 56.462 0.075 6.6 4.36 9.95
5/17/2022 9:15:00 PM 13.56 56.408 0.075 6.6 4.39 9.94
5/17/2022 9:30:00 PM 13.53 56.354 0.074 6.58 4.27 9.94
5/17/2022 9:45:00 PM 13.5 56.3 0.074 6.58 4.32 9.94
5/17/2022 10:00:00 PM 13.46 56.228 0.074 6.58 4.38 9.94
5/17/2022 10:15:00 PM 13.41 56.138 0.074 6.57 4.28 9.95
5/17/2022 10:30:00 PM 13.36 56.048 0.074 6.58 4.36 9.95
5/17/2022 10:45:00 PM 13.31 55.958 0.074 6.57 4.22 9.97
5/17/2022 11:00:00 PM 13.27 55.886 0.07 6.56 5.58 9.97
5/17/2022 11:15:00 PM 13.23 55.814 0.074 6.57 4.2 9.98
5/17/2022 11:30:00 PM 13.19 55.742 0.074 6.58 4.28 9.99
5/17/2022 11:45:00 PM 13.15 55.67 0.074 6.57 4.23 9.99
5/18/2022 12:00:00 AM 13.11 55.598 0.074 6.57 4.1 10
5/18/2022 12:15:00 AM 13.08 55.544 0.07 6.57 5.23 10.01
5/18/2022 12:30:00 AM 13.04 55.472 0.074 6.57 4.01 10.02
5/18/2022 12:45:00 AM 13 55.4 0.074 6.58 3.98 10.02
5/18/2022 1:00:00 AM 12.97 55.346 0.074 6.57 4.1 10.03
5/18/2022 1:15:00 AM 12.94 55.292 0.074 6.57 3.97 10.03
5/18/2022 1:30:00 AM 12.92 55.256 0.074 6.57 3.92 10.05
5/18/2022 1:45:00 AM 12.9 55.22 0.074 6.59 3.96 10.04
5/18/2022 2:00:00 AM 12.87 55.166 0.074 6.58 4.01 10.06
5/18/2022 2:15:00 AM 12.85 55.13 0.074 6.58 3.96 10.05
5/18/2022 2:30:00 AM 12.83 55.094 0.074 6.58 4.04 10.06
5/18/2022 2:45:00 AM 12.81 55.058 0.074 6.59 3.95 10.07
5/18/2022 3:00:00 AM 12.78 55.004 0.073 6.58 3.88 10.06
5/18/2022 3:15:00 AM 12.77 54.986 0.073 6.58 3.81 10.07
5/18/2022 3:30:00 AM 12.74 54.932 0.073 6.58 3.94 10.08
5/18/2022 3:45:00 AM 12.72 54.896 0.073 6.59 3.94 10.07
5/18/2022 4:00:00 AM 12.69 54.842 0.073 6.59 3.91 10.09
5/18/2022 4:15:00 AM 12.67 54.806 0.073 6.59 4.03 10.09
5/18/2022 4:30:00 AM 12.64 54.752 0.074 6.58 3.97 10.1
5/18/2022 4:45:00 AM 12.61 54.698 0.074 6.58 3.94 10.09
5/18/2022 5:00:00 AM 12.58 54.644 0.074 6.58 3.91 10.1
5/18/2022 5:15:00 AM 12.55 54.59 0.074 6.56 3.96 10.1
5/18/2022 5:30:00 AM 12.52 54.536 0.074 6.57 4 10.11
5/18/2022 5:45:00 AM 12.49 54.482 0.074 6.58 3.92 10.12
5/18/2022 6:00:00 AM 12.46 54.428 0.074 6.58 3.91 10.14
5/18/2022 6:15:00 AM 12.43 54.374 0.074 6.57 3.86 10.16
5/18/2022 6:30:00 AM 12.4 54.32 0.074 6.58 3.77 10.18
5/18/2022 6:45:00 AM 12.38 54.284 0.074 6.58 3.57 10.21
5/18/2022 7:00:00 AM 12.35 54.23 0.073 6.59 3.65 10.25
5/18/2022 7:15:00 AM 12.33 54.194 0.073 6.61 3.6 10.29
5/18/2022 7:30:00 AM 12.31 54.158 0.073 6.6 3.6 10.33
5/18/2022 7:45:00 AM 12.32 54.176 0.073 6.63 3.36 10.41
5/18/2022 8:00:00 AM 12.32 54.176 0.073 6.65 3.36 10.48
5/18/2022 8:15:00 AM 12.33 54.194 0.073 6.68 3.38 10.56
5/18/2022 8:30:00 AM 12.33 54.194 0.073 6.68 3.28 10.61
5/18/2022 8:45:00 AM 12.36 54.248 0.073 6.72 3.41 10.68
5/18/2022 9:00:00 AM 12.39 54.302 0.073 6.73 3.3 10.74
5/18/2022 9:15:00 AM 12.44 54.392 0.073 6.76 3.35 10.79
5/18/2022 9:30:00 AM 12.49 54.482 0.073 6.78 3.33 10.83
5/18/2022 9:45:00 AM 12.53 54.554 0.073 6.81 3.22 10.87
5/18/2022 10:00:00 AM 12.57 54.626 0.073 6.82 3.4 10.9
5/18/2022 10:15:00 AM 12.63 54.734 0.073 6.84 3.28 10.95
5/18/2022 10:30:00 AM 12.69 54.842 0.073 6.88 3.29 10.99
5/18/2022 10:45:00 AM 12.77 54.986 0.073 6.91 3.35 11.01
5/18/2022 11:00:00 AM 12.86 55.148 0.073 6.94 3.28 11.06
5/18/2022 11:15:00 AM 12.95 55.31 0.073 6.96 3.37 11.08
5/18/2022 11:30:00 AM 13.04 55.472 0.073 6.98 3.28 11.1
5/18/2022 11:45:00 AM 13.14 55.652 0.073 7 3.25 11.12
5/18/2022 12:00:00 PM 13.25 55.85 0.073 7.03 3.3 11.14
5/18/2022 12:15:00 PM 13.32 55.976 0.073 7.06 3.28 11.16
5/18/2022 12:30:00 PM 13.44 56.192 0.073 7.06 3.2 11.18
5/18/2022 12:45:00 PM 13.56 56.408 0.073 7.11 3.26 11.2
5/18/2022 1:00:00 PM 13.57 56.426 0.073 7.14 3.2 11.21
5/18/2022 1:15:00 PM 13.49 56.282 0.073 7.12 3.18 11.2
5/18/2022 1:30:00 PM 13.47 56.246 0.073 7.14 3.3 11.21
5/18/2022 1:45:00 PM 13.5 56.3 0.073 7.13 3.08 11.23
5/18/2022 2:00:00 PM 13.53 56.354 0.073 7.16 3.1 11.24
5/18/2022 2:15:00 PM 13.54 56.372 0.073 7.16 3.18 11.25
5/18/2022 2:30:00 PM 13.58 56.444 0.073 7.14 3.11 11.25
5/18/2022 2:45:00 PM 13.63 56.534 0.073 7.15 3.14 11.24
5/18/2022 3:00:00 PM 13.55 56.39 0.073 7.15 3.32 11.21
5/18/2022 3:15:00 PM 13.59 56.462 0.073 7.13 3.11 11.21
5/18/2022 3:30:00 PM 13.54 56.372 0.073 7.17 3.07 11.19
5/18/2022 3:45:00 PM 13.44 56.192 0.073 7.12 3.12 11.17
5/18/2022 4:00:00 PM 13.29 55.922 0.069 7.08 4.44 11.11
5/18/2022 4:15:00 PM 13.15 55.67 0.073 7.02 3.06 11.05
5/18/2022 4:30:00 PM 13.09 55.562 0.073 6.98 3.06 11
5/18/2022 4:45:00 PM 13.08 55.544 0.073 6.96 2.93 10.87
5/18/2022 5:00:00 PM 13.12 55.616 0.073 6.86 3 10.71
5/18/2022 5:15:00 PM 13.22 55.796 0.074 6.85 3.03 10.54
5/18/2022 5:30:00 PM 13.36 56.048 0.07 6.81 4.29 10.41
5/18/2022 5:45:00 PM 13.5 56.3 0.074 6.8 3.07 10.31
5/18/2022 6:00:00 PM 13.61 56.498 0.074 6.8 2.98 10.23
5/18/2022 6:15:00 PM 13.68 56.624 0.074 6.79 3.06 10.16
5/18/2022 6:30:00 PM 13.71 56.678 0.074 6.8 3.15 10.12
5/18/2022 6:45:00 PM 13.69 56.642 0.07 6.75 4.18 10.08
5/18/2022 7:00:00 PM 13.65 56.57 0.074 6.75 3.09 10.08
5/18/2022 7:15:00 PM 13.57 56.426 0.074 6.72 3.07 10.06
5/18/2022 7:30:00 PM 13.48 56.264 0.074 6.69 3.14 10.03
5/18/2022 7:45:00 PM 13.4 56.12 0.074 6.67 3.17 10.02
5/18/2022 8:00:00 PM 13.32 55.976 0.074 6.67 3.17 10.01
5/18/2022 8:15:00 PM 13.24 55.832 0.074 6.65 3.15 10.01
5/18/2022 8:30:00 PM 13.17 55.706 0.074 6.64 3.1 10
5/18/2022 8:45:00 PM 13.09 55.562 0.074 6.63 3.05 10
5/18/2022 9:00:00 PM 13 55.4 0.074 6.61 3.25 10
5/18/2022 9:15:00 PM 12.92 55.256 0.074 6.58 3.12 10.01
5/18/2022 9:30:00 PM 12.84 55.112 0.074 6.59 3.24 10.01
5/18/2022 9:45:00 PM 12.78 55.004 0.074 6.58 3.25 10.03
5/18/2022 10:00:00 PM 12.72 54.896 0.074 6.56 3.22 10.04
5/18/2022 10:15:00 PM 12.68 54.824 0.074 6.57 3.16 10.05
5/18/2022 10:30:00 PM 12.66 54.788 0.074 6.56 3.16 10.05
5/18/2022 10:45:00 PM 12.65 54.77 0.074 6.57 3.08 10.05
5/18/2022 11:00:00 PM 12.66 54.788 0.074 6.57 2.97 10.04
5/18/2022 11:15:00 PM 12.67 54.806 0.074 6.58 3.04 10.05
5/18/2022 11:30:00 PM 12.68 54.824 0.074 6.56 3.03 10.04
5/18/2022 11:45:00 PM 12.7 54.86 0.074 6.59 2.99 10.04
5/19/2022 12:00:00 AM 12.71 54.878 0.074 6.6 2.92 10.03
5/19/2022 12:15:00 AM 12.72 54.896 0.074 6.59 3.01 10.03
5/19/2022 12:30:00 AM 12.72 54.896 0.074 6.6 2.98 10.03
5/19/2022 12:45:00 AM 12.72 54.896 0.074 6.59 2.91 10.02
5/19/2022 1:00:00 AM 12.7 54.86 0.074 6.63 2.95 10.03
5/19/2022 1:15:00 AM 12.68 54.824 0.074 6.61 3.01 10.02
5/19/2022 1:30:00 AM 12.66 54.788 0.074 6.6 2.92 10.03
5/19/2022 1:45:00 AM 12.64 54.752 0.074 6.6 2.97 10.04
5/19/2022 2:00:00 AM 12.62 54.716 0.074 6.6 2.85 10.04
5/19/2022 2:15:00 AM 12.6 54.68 0.074 6.58 2.78 10.04
5/19/2022 2:30:00 AM 12.59 54.662 0.074 6.59 2.87 10.05
5/19/2022 2:45:00 AM 12.58 54.644 0.074 6.6 2.91 10.04
5/19/2022 3:00:00 AM 12.56 54.608 0.074 6.59 2.91 10.05
5/19/2022 3:15:00 AM 12.56 54.608 0.074 6.62 2.9 10.04
5/19/2022 3:30:00 AM 12.54 54.572 0.074 6.6 2.9 10.04
5/19/2022 3:45:00 AM 12.53 54.554 0.074 6.6 2.82 10.05
5/19/2022 4:00:00 AM 12.52 54.536 0.074 6.58 2.9 10.05
5/19/2022 4:15:00 AM 12.51 54.518 0.075 6.57 2.75 10.04
5/19/2022 4:30:00 AM 12.49 54.482 0.075 6.59 2.82 10.04
5/19/2022 4:45:00 AM 12.48 54.464 0.075 6.6 2.81 10.05
5/19/2022 5:00:00 AM 12.47 54.446 0.075 6.6 2.85 10.05
5/19/2022 5:15:00 AM 12.46 54.428 0.075 6.59 2.72 10.04
5/19/2022 5:30:00 AM 12.45 54.41 0.075 6.6 2.73 10.05
5/19/2022 5:45:00 AM 12.45 54.41 0.075 6.6 2.77 10.05
5/19/2022 6:00:00 AM 12.44 54.392 0.075 6.57 2.72 10.05
5/19/2022 6:15:00 AM 12.43 54.374 0.075 6.6 2.69 10.06
5/19/2022 6:30:00 AM 12.42 54.356 0.076 6.6 2.59 10.06
5/19/2022 6:45:00 AM 12.41 54.338 0.076 6.61 2.62 10.08
5/19/2022 7:00:00 AM 12.4 54.32 0.076 6.62 2.63 10.11
5/19/2022 7:15:00 AM 12.39 54.302 0.076 6.6 2.65 10.13
5/19/2022 7:30:00 AM 12.38 54.284 0.076 6.6 2.61 10.16
5/19/2022 7:45:00 AM 12.39 54.302 0.076 6.62 2.6 10.26
5/19/2022 8:00:00 AM 12.39 54.302 0.076 6.65 2.52 10.25
5/19/2022 8:15:00 AM 12.38 54.284 0.076 6.66 2.49 10.28
5/19/2022 8:30:00 AM 12.39 54.302 0.076 6.66 2.55 10.36
5/19/2022 8:45:00 AM 12.39 54.302 0.076 6.68 2.58 10.39
5/19/2022 9:00:00 AM 12.38 54.284 0.076 6.68 2.52 10.41
5/19/2022 9:15:00 AM 12.38 54.284 0.076 6.68 2.46 10.44
5/19/2022 9:30:00 AM 12.37 54.266 0.076 6.69 2.48 10.48
5/19/2022 9:45:00 AM 12.38 54.284 0.076 6.72 2.61 10.56
5/19/2022 10:00:00 AM 12.39 54.302 0.076 6.74 2.59 10.64
5/19/2022 10:15:00 AM 12.41 54.338 0.075 6.77 2.59 10.68
5/19/2022 10:30:00 AM 12.43 54.374 0.075 6.76 2.59 10.74
5/19/2022 10:45:00 AM 12.47 54.446 0.075 6.82 2.55 10.82
5/19/2022 11:00:00 AM 12.48 54.464 0.076 6.84 2.49 10.84
5/19/2022 11:15:00 AM 12.5 54.5 0.076 6.85 2.48 10.87
5/19/2022 11:30:00 AM 12.51 54.518 0.076 6.88 2.46 10.89
5/19/2022 11:45:00 AM 12.53 54.554 0.076 6.86 2.53 10.9
5/19/2022 12:00:00 PM 12.53 54.554 0.076 6.85 2.55 10.87
5/19/2022 12:15:00 PM 12.53 54.554 0.076 6.84 2.67 10.84
5/19/2022 12:30:00 PM 12.56 54.608 0.076 6.86 2.56 10.88
5/19/2022 12:45:00 PM 12.64 54.752 0.076 6.91 2.46 10.95
5/19/2022 1:00:00 PM 12.69 54.842 0.076 6.95 2.48 10.97
5/19/2022 1:15:00 PM 12.79 55.022 0.076 6.98 2.52 11.03
5/19/2022 1:30:00 PM 12.9 55.22 0.076 7.01 2.52 11.07
5/19/2022 1:45:00 PM 13.02 55.436 0.076 7.04 2.56 11.08
5/19/2022 2:00:00 PM 13.21 55.778 0.077 7.1 2.45 11.1
5/19/2022 2:15:00 PM 13.3 55.94 0.077 7.09 2.54 11.11
5/19/2022 2:30:00 PM 13.39 56.102 0.077 7.1 2.51 11.1
5/19/2022 2:45:00 PM 13.48 56.264 0.077 7.11 2.6 11.08
5/19/2022 3:00:00 PM 13.65 56.57 0.077 7.14 2.55 11.1
5/19/2022 3:15:00 PM 13.78 56.804 0.077 7.16 2.47 11.07
5/19/2022 3:30:00 PM 13.84 56.912 0.077 7.17 2.61 11.04
5/19/2022 3:45:00 PM 13.83 56.894 0.077 7.13 2.51 10.99
5/19/2022 4:00:00 PM 13.85 56.93 0.077 7.13 2.55 10.98
5/19/2022 4:15:00 PM 13.9 57.02 0.077 7.13 2.5 10.97
5/19/2022 4:30:00 PM 13.88 56.984 0.077 7.12 2.49 10.94
5/19/2022 4:45:00 PM 13.83 56.894 0.078 7.12 2.49 10.91
5/19/2022 5:00:00 PM 13.75 56.75 0.078 7.09 2.52 10.88
5/19/2022 5:15:00 PM 13.65 56.57 0.078 7.08 2.62 10.82
5/19/2022 5:30:00 PM 13.5 56.3 0.078 7 2.52 10.71
5/19/2022 5:45:00 PM 13.4 56.12 0.078 6.96 2.54 10.66
5/19/2022 6:00:00 PM 13.31 55.958 0.078 6.96 2.58 10.61
5/19/2022 6:15:00 PM 13.24 55.832 0.078 6.93 2.56 10.58
5/19/2022 6:30:00 PM 13.16 55.688 0.078 6.87 2.63 10.54
5/19/2022 6:45:00 PM 13.1 55.58 0.078 6.85 2.66 10.52
5/19/2022 7:00:00 PM 13.07 55.526 0.074 6.85 3.72 10.47
5/19/2022 7:15:00 PM 13.07 55.526 0.074 6.85 3.6 10.41
5/19/2022 7:30:00 PM 13.11 55.598 0.078 6.76 2.55 10.33
5/19/2022 7:45:00 PM 13.19 55.742 0.078 6.77 2.59 10.24
5/19/2022 8:00:00 PM 13.26 55.868 0.078 6.73 2.51 10.15
5/19/2022 8:15:00 PM 13.33 55.994 0.078 6.7 2.48 10.07
5/19/2022 8:30:00 PM 13.42 56.156 0.077 6.7 2.57 9.98
5/19/2022 8:45:00 PM 13.52 56.336 0.077 6.68 2.63 9.91
5/19/2022 9:00:00 PM 13.58 56.444 0.078 6.66 2.52 9.86
5/19/2022 9:15:00 PM 13.59 56.462 0.078 6.67 2.67 9.82
5/19/2022 9:30:00 PM 13.58 56.444 0.078 6.65 2.69 9.81
5/19/2022 9:45:00 PM 13.54 56.372 0.078 6.64 2.79 9.8
5/19/2022 10:00:00 PM 13.49 56.282 0.078 6.67 2.72 9.8
5/19/2022 10:15:00 PM 13.45 56.21 0.078 6.61 2.73 9.8
5/19/2022 10:30:00 PM 13.39 56.102 0.078 6.61 2.76 9.81
5/19/2022 10:45:00 PM 13.34 56.012 0.074 6.61 3.8 9.82
5/19/2022 11:00:00 PM 13.31 55.958 0.075 6.58 3.86 9.83
5/19/2022 11:15:00 PM 13.29 55.922 0.078 6.6 2.71 9.83
5/19/2022 11:30:00 PM 13.26 55.868 0.078 6.58 2.64 9.84
5/19/2022 11:45:00 PM 13.24 55.832 0.078 6.59 2.67 9.85
5/20/2022 12:00:00 AM 13.22 55.796 0.079 6.6 2.71 9.85
5/20/2022 12:15:00 AM 13.22 55.796 0.079 6.61 2.59 9.85
5/20/2022 12:30:00 AM 13.22 55.796 0.079 6.61 2.53 9.85
5/20/2022 12:45:00 AM 13.2 55.76 0.079 6.58 2.55 9.86
5/20/2022 1:00:00 AM 13.17 55.706 0.079 6.57 2.73 9.87
5/20/2022 1:15:00 AM 13.13 55.634 0.079 6.58 2.54 9.88
5/20/2022 1:30:00 AM 13.09 55.562 0.079 6.6 2.68 9.89
5/20/2022 1:45:00 AM 13.05 55.49 0.075 6.55 3.85 9.89
5/20/2022 2:00:00 AM 13.01 55.418 0.079 6.57 2.67 9.9
5/20/2022 2:15:00 AM 12.98 55.364 0.079 6.56 2.7 9.9
5/20/2022 2:30:00 AM 12.96 55.328 0.079 6.58 2.69 9.9
5/20/2022 2:45:00 AM 12.94 55.292 0.079 6.58 2.65 9.91
5/20/2022 3:00:00 AM 12.92 55.256 0.079 6.56 2.74 9.9
5/20/2022 3:15:00 AM 12.91 55.238 0.079 6.57 2.71 9.91
5/20/2022 3:30:00 AM 12.9 55.22 0.079 6.57 2.76 9.91
5/20/2022 3:45:00 AM 12.88 55.184 0.079 6.58 2.66 9.9
5/20/2022 4:00:00 AM 12.87 55.166 0.079 6.56 2.85 9.92
5/20/2022 4:15:00 AM 12.85 55.13 0.079 6.58 2.7 9.92
5/20/2022 4:30:00 AM 12.83 55.094 0.079 6.56 2.73 9.91
5/20/2022 4:45:00 AM 12.82 55.076 0.079 6.56 2.73 9.92
5/20/2022 5:00:00 AM 12.8 55.04 0.079 6.57 2.7 9.92
5/20/2022 5:15:00 AM 12.78 55.004 0.079 6.58 2.57 9.92
5/20/2022 5:30:00 AM 12.76 54.968 0.079 6.57 2.76 9.94
5/20/2022 5:45:00 AM 12.75 54.95 0.079 6.59 2.55 9.94
5/20/2022 6:00:00 AM 12.74 54.932 0.079 6.58 2.61 9.96
5/20/2022 6:15:00 AM 12.74 54.932 0.079 6.57 2.51 10
5/20/2022 6:30:00 AM 12.73 54.914 0.075 6.6 3.64 10.01
5/20/2022 6:45:00 AM 12.73 54.914 0.079 6.6 2.45 10.04
5/20/2022 7:00:00 AM 12.74 54.932 0.079 6.61 2.53 10.06
5/20/2022 7:15:00 AM 12.75 54.95 0.079 6.61 2.39 10.12
5/20/2022 7:30:00 AM 12.77 54.986 0.079 6.64 2.49 10.25
5/20/2022 7:45:00 AM 12.79 55.022 0.079 6.68 2.38 10.3
5/20/2022 8:00:00 AM 12.79 55.022 0.079 6.68 2.52 10.32
5/20/2022 8:15:00 AM 12.8 55.04 0.079 6.68 2.32 10.34
5/20/2022 8:30:00 AM 12.82 55.076 0.079 6.71 2.28 10.39
5/20/2022 8:45:00 AM 12.85 55.13 0.079 6.72 2.28 10.5
5/20/2022 9:00:00 AM 12.89 55.202 0.079 6.78 2.39 10.62
5/20/2022 9:15:00 AM 12.93 55.274 0.079 6.8 2.29 10.71
5/20/2022 9:30:00 AM 12.97 55.346 0.079 6.85 2.3 10.79
5/20/2022 9:45:00 AM 12.99 55.382 0.079 6.86 2.35 10.79
5/20/2022 10:00:00 AM 13.03 55.454 0.079 6.87 2.36 10.85
5/20/2022 10:15:00 AM 13.09 55.562 0.079 6.9 2.42 10.9
5/20/2022 10:30:00 AM 13.14 55.652 0.079 6.93 2.38 10.94
5/20/2022 10:45:00 AM 13.2 55.76 0.079 6.96 2.58 10.99
5/20/2022 11:00:00 AM 13.27 55.886 0.079 6.97 2.34 11.01
5/20/2022 11:15:00 AM 13.35 56.03 0.075 7.04 3.54 11.04
5/20/2022 11:30:00 AM 13.49 56.282 0.079 7.07 2.41 11.07
5/20/2022 11:45:00 AM 13.62 56.516 0.079 7.09 2.51 11.09
5/20/2022 12:00:00 PM 13.77 56.786 0.079 7.14 2.39 11.11
5/20/2022 12:15:00 PM 13.85 56.93 0.079 7.15 2.4 11.09
5/20/2022 12:30:00 PM 13.85 56.93 0.079 7.17 2.47 11.07
5/20/2022 12:45:00 PM 13.86 56.948 0.079 7.13 2.41 11.03
5/20/2022 1:00:00 PM 13.88 56.984 0.079 7.14 2.51 11
5/20/2022 1:15:00 PM 14.04 57.272 0.08 7.19 2.38 11.07
5/20/2022 1:30:00 PM 14.03 57.254 0.08 7.19 2.47 11.04
5/20/2022 1:45:00 PM 13.98 57.164 0.076 7.19 3.6 11.03
5/20/2022 2:00:00 PM 13.89 57.002 0.08 7.14 2.43 10.93
5/20/2022 2:15:00 PM 13.83 56.894 0.08 7.13 2.53 10.96
5/20/2022 2:30:00 PM 13.82 56.876 0.081 7.13 2.56 11
5/20/2022 2:45:00 PM 13.9 57.02 0.081 7.17 2.59 11.05
5/20/2022 3:00:00 PM 13.83 56.894 0.081 7.18 2.5 11.02
5/20/2022 3:15:00 PM 13.75 56.75 0.081 7.17 2.46 11.02
5/20/2022 3:30:00 PM 13.65 56.57 0.081 7.11 2.46 10.95
5/20/2022 3:45:00 PM 13.51 56.318 0.081 7.01 2.49 10.81
5/20/2022 4:00:00 PM 13.41 56.138 0.082 7 2.57 10.82
5/20/2022 4:15:00 PM 13.33 55.994 0.082 6.99 2.54 10.82
5/20/2022 4:30:00 PM 13.29 55.922 0.082 6.99 2.82 10.85
5/20/2022 4:45:00 PM 13.3 55.94 0.078 7.01 3.77 10.91
5/20/2022 5:00:00 PM 13.29 55.922 0.078 7.04 3.92 10.93
5/20/2022 5:15:00 PM 13.28 55.904 0.082 7.05 2.49 10.94
5/20/2022 5:30:00 PM 13.21 55.778 0.082 6.99 2.47 10.84
5/20/2022 5:45:00 PM 13.16 55.688 0.082 6.94 2.51 10.79
5/20/2022 6:00:00 PM 13.12 55.616 0.082 6.93 2.48 10.76
5/20/2022 6:15:00 PM 13.09 55.562 0.078 6.88 3.77 10.71
5/20/2022 6:30:00 PM 13.1 55.58 0.082 6.93 2.38 10.72
5/20/2022 6:45:00 PM 13.14 55.652 0.082 6.91 2.38 10.69
5/20/2022 7:00:00 PM 13.2 55.76 0.082 6.9 2.31 10.62
5/20/2022 7:15:00 PM 13.28 55.904 0.082 6.87 2.31 10.53
5/20/2022 7:30:00 PM 13.33 55.994 0.082 6.87 2.32 10.43
5/20/2022 7:45:00 PM 13.37 56.066 0.082 6.85 2.39 10.33
5/20/2022 8:00:00 PM 13.39 56.102 0.082 6.81 2.29 10.25
5/20/2022 8:15:00 PM 13.41 56.138 0.082 6.79 2.35 10.15
5/20/2022 8:30:00 PM 13.43 56.174 0.082 6.75 2.4 10.06
5/20/2022 8:45:00 PM 13.45 56.21 0.082 6.75 2.5 9.99
5/20/2022 9:00:00 PM 13.46 56.228 0.082 6.7 2.53 9.93
5/20/2022 9:15:00 PM 13.47 56.246 0.082 6.71 2.47 9.88
5/20/2022 9:30:00 PM 13.47 56.246 0.082 6.7 2.65 9.85
5/20/2022 9:45:00 PM 13.48 56.264 0.082 6.64 2.62 9.82
5/20/2022 10:00:00 PM 13.48 56.264 0.082 6.64 2.56 9.8
5/20/2022 10:15:00 PM 13.47 56.246 0.082 6.66 2.59 9.78
5/20/2022 10:30:00 PM 13.46 56.228 0.082 6.64 2.57 9.77
5/20/2022 10:45:00 PM 13.46 56.228 0.082 6.63 2.59 9.76
5/20/2022 11:00:00 PM 13.45 56.21 0.083 6.62 2.5 9.75
5/20/2022 11:15:00 PM 13.45 56.21 0.083 6.62 2.64 9.75
5/20/2022 11:30:00 PM 13.46 56.228 0.083 6.62 2.65 9.75
5/20/2022 11:45:00 PM 13.47 56.246 0.082 6.59 2.62 9.75
5/21/2022 12:00:00 AM 13.48 56.264 0.082 6.6 2.52 9.74
5/21/2022 12:15:00 AM 13.49 56.282 0.082 6.59 2.59 9.74
5/21/2022 12:30:00 AM 13.5 56.3 0.082 6.58 2.53 9.74
5/21/2022 12:45:00 AM 13.5 56.3 0.082 6.6 2.43 9.74
5/21/2022 1:00:00 AM 13.5 56.3 0.082 6.59 2.56 9.74
5/21/2022 1:15:00 AM 13.5 56.3 0.082 6.56 2.59 9.74
5/21/2022 1:30:00 AM 13.51 56.318 0.082 6.57 2.55 9.75
5/21/2022 1:45:00 AM 13.51 56.318 0.082 6.58 2.6 9.74
5/21/2022 2:00:00 AM 13.52 56.336 0.083 6.57 2.68 9.74
5/21/2022 2:15:00 AM 13.53 56.354 0.083 6.57 2.54 9.74
5/21/2022 2:30:00 AM 13.54 56.372 0.083 6.59 2.58 9.73
5/21/2022 2:45:00 AM 13.56 56.408 0.083 6.55 2.89 9.73
5/21/2022 3:00:00 AM 13.58 56.444 0.083 6.6 2.67 9.73
5/21/2022 3:15:00 AM 13.6 56.48 0.083 6.57 2.59 9.72
5/21/2022 3:30:00 AM 13.61 56.498 0.083 6.58 2.61 9.72
5/21/2022 3:45:00 AM 13.62 56.516 0.083 6.55 2.62 9.72
5/21/2022 4:00:00 AM 13.63 56.534 0.083 6.57 2.66 9.71
5/21/2022 4:15:00 AM 13.64 56.552 0.083 6.57 2.53 9.71
5/21/2022 4:30:00 AM 13.65 56.57 0.083 6.58 2.52 9.71
5/21/2022 4:45:00 AM 13.65 56.57 0.083 6.57 2.69 9.71
5/21/2022 5:00:00 AM 13.66 56.588 0.083 6.57 2.48 9.7
5/21/2022 5:15:00 AM 13.67 56.606 0.083 6.57 2.59 9.71
5/21/2022 5:30:00 AM 13.67 56.606 0.083 6.57 2.61 9.7
5/21/2022 5:45:00 AM 13.68 56.624 0.083 6.58 2.46 9.71
5/21/2022 6:00:00 AM 13.69 56.642 0.083 6.58 2.53 9.71
5/21/2022 6:15:00 AM 13.69 56.642 0.083 6.59 2.49 9.73
5/21/2022 6:30:00 AM 13.69 56.642 0.083 6.61 2.46 9.76
5/21/2022 6:45:00 AM 13.69 56.642 0.079 6.58 3.54 9.8
5/21/2022 7:00:00 AM 13.7 56.66 0.083 6.6 2.41 9.86
5/21/2022 7:15:00 AM 13.71 56.678 0.079 6.61 3.6 9.93
5/21/2022 7:30:00 AM 13.71 56.678 0.083 6.64 2.34 10.02
5/21/2022 7:45:00 AM 13.72 56.696 0.083 6.66 2.24 10.11
5/21/2022 8:00:00 AM 13.74 56.732 0.083 6.71 2.22 10.21
5/21/2022 8:15:00 AM 13.75 56.75 0.083 6.71 2.28 10.31
5/21/2022 8:30:00 AM 13.78 56.804 0.083 6.75 2.28 10.41
5/21/2022 8:45:00 AM 13.83 56.894 0.083 6.79 2.25 10.52
5/21/2022 9:00:00 AM 13.89 57.002 0.083 6.8 2.2 10.58
5/21/2022 9:15:00 AM 13.93 57.074 0.083 6.83 2.28 10.61
5/21/2022 9:30:00 AM 13.97 57.146 0.083 6.85 2.16 10.62
5/21/2022 9:45:00 AM 14.01 57.218 0.083 6.88 2.27 10.63
5/21/2022 10:00:00 AM 14.06 57.308 0.083 6.9 2.18 10.67
5/21/2022 10:15:00 AM 14.13 57.434 0.083 6.9 2.25 10.7
5/21/2022 10:30:00 AM 14.22 57.596 0.083 6.96 2.23 10.73
5/21/2022 10:45:00 AM 14.33 57.794 0.083 6.98 2.22 10.76
5/21/2022 11:00:00 AM 14.49 58.082 0.083 7.03 2.26 10.79
5/21/2022 11:15:00 AM 14.65 58.37 0.083 7.06 2.26 10.81
5/21/2022 11:30:00 AM 14.85 58.73 0.084 7.11 2.34 10.83
5/21/2022 11:45:00 AM 15.02 59.036 0.084 7.11 2.53 10.84
5/21/2022 12:00:00 PM 15.27 59.486 0.084 7.2 2.3 10.84
5/21/2022 12:15:00 PM 15.33 59.594 0.084 7.21 2.34 10.82
5/21/2022 12:30:00 PM 15.42 59.756 0.084 7.22 2.28 10.81
5/21/2022 12:45:00 PM 15.67 60.206 0.084 7.27 2.23 10.83
5/21/2022 1:00:00 PM 15.91 60.638 0.084 7.29 2.24 10.83
5/21/2022 1:15:00 PM 16.07 60.926 0.084 7.31 2.29 10.8
5/21/2022 1:30:00 PM 16.3 61.34 0.084 7.38 2.27 10.82
5/21/2022 1:45:00 PM 16.55 61.79 0.084 7.42 2.24 10.81
5/21/2022 2:00:00 PM 16.65 61.97 0.084 7.42 2.33 10.78
5/21/2022 2:15:00 PM 16.74 62.132 0.084 7.43 2.24 10.77
5/21/2022 2:30:00 PM 16.83 62.294 0.084 7.43 2.69 10.77
5/21/2022 2:45:00 PM 16.81 62.258 0.084 7.44 2.33 10.74
5/21/2022 3:00:00 PM 16.63 61.934 0.085 7.4 2.88 10.7
5/21/2022 3:15:00 PM 16.54 61.772 0.085 7.36 2.38 10.68
5/21/2022 3:30:00 PM 16.5 61.7 0.085 7.36 2.43 10.69
5/21/2022 3:45:00 PM 16.5 61.7 0.085 7.35 2.29 10.69
5/21/2022 4:00:00 PM 16.54 61.772 0.085 7.38 2.49 10.69
5/21/2022 4:15:00 PM 16.48 61.664 0.085 7.35 2.26 10.67
5/21/2022 4:30:00 PM 16.28 61.304 0.085 7.29 2.24 10.63
5/21/2022 4:45:00 PM 16.21 61.178 0.085 7.3 2.31 10.64
5/21/2022 5:00:00 PM 16.14 61.052 0.085 7.28 2.27 10.64
5/21/2022 5:15:00 PM 15.98 60.764 0.085 7.26 2.32 10.59
5/21/2022 5:30:00 PM 15.79 60.422 0.085 7.18 2.26 10.51
5/21/2022 5:45:00 PM 15.65 60.17 0.085 7.12 2.38 10.45
5/21/2022 6:00:00 PM 15.49 59.882 0.086 7.07 2.22 10.38
5/21/2022 6:15:00 PM 15.37 59.666 0.086 7.01 2.3 10.33
5/21/2022 6:30:00 PM 15.24 59.432 0.086 6.94 2.24 10.26
5/21/2022 6:45:00 PM 15.16 59.288 0.086 6.89 2.25 10.21
5/21/2022 7:00:00 PM 15.12 59.216 0.086 6.86 2.23 10.13
5/21/2022 7:15:00 PM 15.09 59.162 0.086 6.83 2.23 10.05
5/21/2022 7:30:00 PM 15.05 59.09 0.087 6.8 2.22 9.96
5/21/2022 7:45:00 PM 15.01 59.018 0.087 6.77 2.21 9.85
5/21/2022 8:00:00 PM 14.98 58.964 0.087 6.74 2.36 9.77
5/21/2022 8:15:00 PM 14.94 58.892 0.087 6.73 2.28 9.7
5/21/2022 8:30:00 PM 14.9 58.82 0.087 6.7 2.23 9.64
5/21/2022 8:45:00 PM 14.88 58.784 0.087 6.69 2.49 9.58
5/21/2022 9:00:00 PM 14.86 58.748 0.087 6.67 2.39 9.53
5/21/2022 9:15:00 PM 14.86 58.748 0.086 6.65 2.41 9.49
5/21/2022 9:30:00 PM 14.86 58.748 0.086 6.65 2.5 9.46
5/21/2022 9:45:00 PM 14.87 58.766 0.086 6.67 2.55 9.43
5/21/2022 10:00:00 PM 14.9 58.82 0.086 6.66 2.54 9.4
5/21/2022 10:15:00 PM 14.96 58.928 0.086 6.66 2.55 9.37
5/21/2022 10:30:00 PM 15.04 59.072 0.086 6.64 2.53 9.33
5/21/2022 10:45:00 PM 15.13 59.234 0.086 6.66 2.65 9.31
5/21/2022 11:00:00 PM 15.23 59.414 0.086 6.67 2.45 9.28
5/21/2022 11:15:00 PM 15.34 59.612 0.086 6.68 2.57 9.24
5/21/2022 11:30:00 PM 15.45 59.81 0.086 6.68 2.55 9.21
5/21/2022 11:45:00 PM 15.56 60.008 0.086 6.69 2.42 9.18
5/22/2022 12:00:00 AM 15.67 60.206 0.086 6.68 2.62 9.15
5/22/2022 12:15:00 AM 15.77 60.386 0.086 6.69 2.64 9.13
5/22/2022 12:30:00 AM 15.86 60.548 0.086 6.68 2.43 9.1
5/22/2022 12:45:00 AM 15.95 60.71 0.086 6.69 2.46 9.08
5/22/2022 1:00:00 AM 16.03 60.854 0.086 6.65 2.4 9.06
5/22/2022 1:15:00 AM 16.1 60.98 0.087 6.69 2.55 9.04
5/22/2022 1:30:00 AM 16.15 61.07 0.087 6.66 2.43 9.03
5/22/2022 1:45:00 AM 16.19 61.142 0.087 6.68 2.53 9.02
5/22/2022 2:00:00 AM 16.22 61.196 0.087 6.66 2.47 9.01
5/22/2022 2:15:00 AM 16.24 61.232 0.087 6.65 2.51 9.01
5/22/2022 2:30:00 AM 16.25 61.25 0.087 6.66 2.43 9
5/22/2022 2:45:00 AM 16.25 61.25 0.087 6.65 2.5 9
5/22/2022 3:00:00 AM 16.25 61.25 0.087 6.65 2.64 9
5/22/2022 3:15:00 AM 16.25 61.25 0.087 6.64 2.52 9
5/22/2022 3:30:00 AM 16.26 61.268 0.087 6.64 2.5 8.99
5/22/2022 3:45:00 AM 16.27 61.286 0.087 6.63 2.5 8.99
5/22/2022 4:00:00 AM 16.28 61.304 0.087 6.63 2.64 8.98
5/22/2022 4:15:00 AM 16.28 61.304 0.087 6.63 2.6 8.98
5/22/2022 4:30:00 AM 16.29 61.322 0.087 6.63 2.53 8.98
5/22/2022 4:45:00 AM 16.29 61.322 0.087 6.64 2.58 8.97
5/22/2022 5:00:00 AM 16.29 61.322 0.087 6.62 2.67 8.97
5/22/2022 5:15:00 AM 16.27 61.286 0.087 6.63 2.6 8.98
5/22/2022 5:30:00 AM 16.26 61.268 0.087 6.62 2.69 8.98
5/22/2022 5:45:00 AM 16.23 61.214 0.087 6.63 2.5 8.99
5/22/2022 6:00:00 AM 16.21 61.178 0.087 6.62 2.61 9.02
5/22/2022 6:15:00 AM 16.19 61.142 0.087 6.63 2.46 9.06
5/22/2022 6:30:00 AM 16.19 61.142 0.087 6.64 2.49 9.11
5/22/2022 6:45:00 AM 16.18 61.124 0.087 6.65 2.28 9.16
5/22/2022 7:00:00 AM 16.18 61.124 0.087 6.67 2.36 9.24
5/22/2022 7:15:00 AM 16.18 61.124 0.086 6.68 2.28 9.34
5/22/2022 7:30:00 AM 16.15 61.07 0.086 6.68 2.46 9.37
5/22/2022 7:45:00 AM 16.12 61.016 0.086 6.69 2.24 9.42
5/22/2022 8:00:00 AM 16.11 60.998 0.086 6.71 2.39 9.5
5/22/2022 8:15:00 AM 16.12 61.016 0.086 6.74 2.21 9.6
5/22/2022 8:30:00 AM 16.13 61.034 0.086 6.77 2.16 9.69
5/22/2022 8:45:00 AM 16.15 61.07 0.086 6.79 2.18 9.76
5/22/2022 9:00:00 AM 16.13 61.034 0.086 6.81 2.16 9.85
5/22/2022 9:15:00 AM 16.15 61.07 0.086 6.84 2.26 9.95
5/22/2022 9:30:00 AM 16.16 61.088 0.086 6.87 2.34 10.02
5/22/2022 9:45:00 AM 16.17 61.106 0.086 6.89 2.37 10.07
5/22/2022 10:00:00 AM 16.29 61.322 0.086 6.94 2.36 10.2
5/22/2022 10:15:00 AM 16.37 61.466 0.086 6.98 2.29 10.27
5/22/2022 10:30:00 AM 16.47 61.646 0.086 7.03 2.26 10.32
5/22/2022 10:45:00 AM 16.62 61.916 0.086 7.07 2.25 10.37
5/22/2022 11:00:00 AM 16.72 62.096 0.086 7.13 2.32 10.4
5/22/2022 11:15:00 AM 16.78 62.204 0.087 7.15 2.18 10.4
5/22/2022 11:30:00 AM 16.92 62.456 0.087 7.17 2.16 10.39
5/22/2022 11:45:00 AM 17.12 62.816 0.087 7.22 2.17 10.41
5/22/2022 12:00:00 PM 17.31 63.158 0.087 7.26 2.21 10.42
5/22/2022 12:15:00 PM 17.52 63.536 0.087 7.31 2.37 10.42
5/22/2022 12:30:00 PM 17.71 63.878 0.087 7.35 2.32 10.43
5/22/2022 12:45:00 PM 17.86 64.148 0.087 7.36 2.18 10.42
5/22/2022 1:00:00 PM 17.99 64.382 0.087 7.41 2.42 10.42
5/22/2022 1:15:00 PM 17.98 64.364 0.087 7.42 2.27 10.37
5/22/2022 1:30:00 PM 18.08 64.544 0.087 7.42 2.22 10.38
5/22/2022 1:45:00 PM 18.04 64.472 0.088 7.37 2.25 10.24
5/22/2022 2:00:00 PM 18 64.4 0.088 7.37 2.28 10.24
5/22/2022 2:15:00 PM 18.09 64.562 0.088 7.39 2.36 10.28
5/22/2022 2:30:00 PM 18.24 64.832 0.088 7.42 2.26 10.29
5/22/2022 2:45:00 PM 18.28 64.904 0.089 7.42 2.4 10.31
5/22/2022 3:00:00 PM 18.24 64.832 0.089 7.42 2.34 10.33
5/22/2022 3:15:00 PM 18.31 64.958 0.089 7.44 2.2 10.34
5/22/2022 3:30:00 PM 18.31 64.958 0.089 7.47 2.3 10.36
5/22/2022 3:45:00 PM 18.27 64.886 0.09 7.48 2.27 10.38
5/22/2022 4:00:00 PM 18.14 64.652 0.09 7.45 2.21 10.34
5/22/2022 4:15:00 PM 18.03 64.454 0.09 7.44 2.27 10.33
5/22/2022 4:30:00 PM 17.86 64.148 0.09 7.38 2.3 10.3
5/22/2022 4:45:00 PM 17.62 63.716 0.09 7.35 2.23 10.23
5/22/2022 5:00:00 PM 17.46 63.428 0.091 7.22 2.22 10.08
5/22/2022 5:15:00 PM 17.35 63.23 0.091 7.14 2.27 9.96
5/22/2022 5:30:00 PM 17.29 63.122 0.091 7.09 2.17 9.9
5/22/2022 5:45:00 PM 17.25 63.05 0.09 7.1 2.22 9.93
5/22/2022 6:00:00 PM 17.24 63.032 0.09 7.13 2.19 9.97
5/22/2022 6:15:00 PM 17.21 62.978 0.09 7.09 2.22 9.91
5/22/2022 6:30:00 PM 17.24 63.032 0.09 7.04 2.16 9.76
5/22/2022 6:45:00 PM 17.3 63.14 0.09 6.99 2.11 9.56
5/22/2022 7:00:00 PM 17.39 63.302 0.09 6.95 2.22 9.42
5/22/2022 7:15:00 PM 17.46 63.428 0.09 6.9 2.1 9.28
5/22/2022 7:30:00 PM 17.55 63.59 0.09 6.9 2.08 9.17
5/22/2022 7:45:00 PM 17.63 63.734 0.09 6.87 2.14 9.07
5/22/2022 8:00:00 PM 17.69 63.842 0.09 6.85 2.21 9
5/22/2022 8:15:00 PM 17.73 63.914 0.09 6.84 2.25 8.94
5/22/2022 8:30:00 PM 17.76 63.968 0.09 6.81 2.28 8.87
5/22/2022 8:45:00 PM 17.78 64.004 0.09 6.8 2.17 8.8
5/22/2022 9:00:00 PM 17.8 64.04 0.09 6.8 2.35 8.76
5/22/2022 9:15:00 PM 17.81 64.058 0.09 6.75 2.5 8.71
5/22/2022 9:30:00 PM 17.81 64.058 0.09 6.74 2.47 8.69
5/22/2022 9:45:00 PM 17.79 64.022 0.09 6.75 2.58 8.67
5/22/2022 10:00:00 PM 17.74 63.932 0.09 6.73 2.67 8.67
5/22/2022 10:15:00 PM 17.66 63.788 0.09 6.73 2.52 8.68
5/22/2022 10:30:00 PM 17.56 63.608 0.09 6.71 2.56 8.69
5/22/2022 10:45:00 PM 17.45 63.41 0.09 6.7 2.56 8.71
5/22/2022 11:00:00 PM 17.34 63.212 0.09 6.71 2.67 8.73
5/22/2022 11:15:00 PM 17.25 63.05 0.09 6.7 2.59 8.75
5/22/2022 11:30:00 PM 17.16 62.888 0.09 6.68 2.55 8.76
5/22/2022 11:45:00 PM 17.08 62.744 0.09 6.68 2.69 8.78
5/23/2022 12:00:00 AM 17.01 62.618 0.09 6.65 2.6 8.79
5/23/2022 12:15:00 AM 16.95 62.51 0.09 6.65 2.56 8.8
5/23/2022 12:30:00 AM 16.9 62.42 0.09 6.64 2.57 8.81
5/23/2022 12:45:00 AM 16.87 62.366 0.09 6.63 2.57 8.82
5/23/2022 1:00:00 AM 16.84 62.312 0.09 6.64 2.63 8.83
5/23/2022 1:15:00 AM 16.83 62.294 0.09 6.65 2.58 8.82
5/23/2022 1:30:00 AM 16.83 62.294 0.09 6.65 2.52 8.82
5/23/2022 1:45:00 AM 16.83 62.294 0.09 6.65 2.45 8.82
5/23/2022 2:00:00 AM 16.83 62.294 0.09 6.64 2.48 8.82
5/23/2022 2:15:00 AM 16.83 62.294 0.09 6.65 2.45 8.82
5/23/2022 2:30:00 AM 16.8 62.24 0.09 6.65 2.53 8.82
5/23/2022 2:45:00 AM 16.78 62.204 0.09 6.66 2.57 8.83
5/23/2022 3:00:00 AM 16.76 62.168 0.09 6.65 2.59 8.84
5/23/2022 3:15:00 AM 16.72 62.096 0.091 6.64 2.51 8.85
5/23/2022 3:30:00 AM 16.67 62.006 0.091 6.64 2.54 8.86
5/23/2022 3:45:00 AM 16.63 61.934 0.091 6.65 2.55 8.86
5/23/2022 4:00:00 AM 16.57 61.826 0.091 6.64 2.56 8.89
5/23/2022 4:15:00 AM 16.51 61.718 0.091 6.64 2.59 8.9
5/23/2022 4:30:00 AM 16.43 61.574 0.091 6.64 2.66 8.92
5/23/2022 4:45:00 AM 16.33 61.394 0.091 6.64 2.68 8.95
5/23/2022 5:00:00 AM 16.23 61.214 0.091 6.63 2.67 8.97
5/23/2022 5:15:00 AM 16.14 61.052 0.091 6.62 2.66 8.99
5/23/2022 5:30:00 AM 16.07 60.926 0.091 6.63 2.63 9.01
5/23/2022 5:45:00 AM 16.01 60.818 0.091 6.61 2.55 9.04
5/23/2022 6:00:00 AM 15.95 60.71 0.091 6.61 2.57 9.05
5/23/2022 6:15:00 AM 15.9 60.62 0.091 6.61 2.52 9.09
5/23/2022 6:30:00 AM 15.86 60.548 0.091 6.61 2.46 9.13
5/23/2022 6:45:00 AM 15.84 60.512 0.091 6.64 2.4 9.2
5/23/2022 7:00:00 AM 15.81 60.458 0.091 6.66 2.45 9.25
5/23/2022 7:15:00 AM 15.79 60.422 0.091 6.67 2.45 9.3
5/23/2022 7:30:00 AM 15.79 60.422 0.091 6.7 2.35 9.37
5/23/2022 7:45:00 AM 15.81 60.458 0.091 6.72 2.32 9.47
5/23/2022 8:00:00 AM 15.83 60.494 0.091 6.75 2.28 9.55
5/23/2022 8:15:00 AM 15.84 60.512 0.091 6.77 2.3 9.61
5/23/2022 8:30:00 AM 15.86 60.548 0.091 6.79 2.27 9.71
5/23/2022 8:45:00 AM 15.88 60.584 0.091 6.82 2.22 9.78
5/23/2022 9:00:00 AM 15.89 60.602 0.091 6.85 2.28 9.85
5/23/2022 9:15:00 AM 15.89 60.602 0.091 6.88 2.26 9.9
5/23/2022 9:30:00 AM 15.89 60.602 0.091 6.89 2.29 9.96
5/23/2022 9:45:00 AM 15.91 60.638 0.091 6.92 2.34 10.04
5/23/2022 10:00:00 AM 15.9 60.62 0.091 6.95 2.26 10.1
5/23/2022 10:15:00 AM 15.9 60.62 0.091 6.96 2.28 10.17
5/23/2022 10:30:00 AM 15.93 60.674 0.091 7.01 2.26 10.25
5/23/2022 10:45:00 AM 15.98 60.764 0.091 7.05 2.28 10.32
5/23/2022 11:00:00 AM 16.04 60.872 0.091 7.09 2.19 10.38
5/23/2022 11:15:00 AM 16.15 61.07 0.091 7.13 2.25 10.45
5/23/2022 11:30:00 AM 16.27 61.286 0.091 7.18 2.27 10.48
5/23/2022 11:45:00 AM 16.39 61.502 0.091 7.23 2.27 10.51
5/23/2022 12:00:00 PM 16.52 61.736 0.091 7.28 2.15 10.52
5/23/2022 12:15:00 PM 16.64 61.952 0.091 7.32 2.2 10.53
5/23/2022 12:30:00 PM 16.82 62.276 0.091 7.35 2.16 10.52
5/23/2022 12:45:00 PM 17.01 62.618 0.091 7.38 2.18 10.51
5/23/2022 1:00:00 PM 17.19 62.942 0.09 7.45 2.18 10.49
5/23/2022 1:15:00 PM 17.39 63.302 0.09 7.47 2.18 10.48
5/23/2022 1:30:00 PM 17.58 63.644 0.09 7.48 2.09 10.46
5/23/2022 1:45:00 PM 17.8 64.04 0.09 7.52 2.19 10.44
5/23/2022 2:00:00 PM 17.96 64.328 0.09 7.55 2.18 10.41
5/23/2022 2:15:00 PM 18.1 64.58 0.09 7.57 2.08 10.39
5/23/2022 2:30:00 PM 18.18 64.724 0.09 7.57 2.11 10.37
5/23/2022 2:45:00 PM 18.23 64.814 0.09 7.61 2.12 10.35
5/23/2022 3:00:00 PM 18.24 64.832 0.09 7.6 2.18 10.32
5/23/2022 3:15:00 PM 18.19 64.742 0.091 7.59 2.05 10.3
5/23/2022 3:30:00 PM 18.13 64.634 0.091 7.56 2.12 10.28
5/23/2022 3:45:00 PM 18.06 64.508 0.091 7.55 2.15 10.25
5/23/2022 4:00:00 PM 17.98 64.364 0.091 7.55 2.15 10.24
5/23/2022 4:15:00 PM 17.91 64.238 0.091 7.52 2.1 10.22
5/23/2022 4:30:00 PM 17.83 64.094 0.091 7.49 2.08 10.19
5/23/2022 4:45:00 PM 17.77 63.986 0.091 7.46 2.09 10.16
5/23/2022 5:00:00 PM 17.72 63.896 0.091 7.43 2.04 10.13
5/23/2022 5:15:00 PM 17.68 63.824 0.091 7.4 2.09 10.09
5/23/2022 5:30:00 PM 17.63 63.734 0.091 7.36 2.16 10.04
5/23/2022 5:45:00 PM 17.58 63.644 0.092 7.32 2.13 9.98
5/23/2022 6:00:00 PM 17.52 63.536 0.092 7.26 2.02 9.9
5/23/2022 6:15:00 PM 17.47 63.446 0.092 7.19 2.09 9.81
5/23/2022 6:30:00 PM 17.41 63.338 0.092 7.13 2 9.71
5/23/2022 6:45:00 PM 17.34 63.212 0.092 7.08 2 9.6
5/23/2022 7:00:00 PM 17.25 63.05 0.092 7.02 2.06 9.51
5/23/2022 7:15:00 PM 17.14 62.852 0.093 6.98 2.07 9.44
5/23/2022 7:30:00 PM 17.01 62.618 0.093 6.93 2.09 9.39
5/23/2022 7:45:00 PM 16.88 62.384 0.093 6.89 2.1 9.35
5/23/2022 8:00:00 PM 16.75 62.15 0.093 6.86 2.13 9.3
5/23/2022 8:15:00 PM 16.63 61.934 0.094 6.81 2.07 9.24
5/23/2022 8:30:00 PM 16.51 61.718 0.094 6.77 2.25 9.18
5/23/2022 8:45:00 PM 16.4 61.52 0.094 6.74 2.21 9.15
5/23/2022 9:00:00 PM 16.31 61.358 0.094 6.72 2.32 9.12
5/23/2022 9:15:00 PM 16.22 61.196 0.094 6.7 2.41 9.1
5/23/2022 9:30:00 PM 16.13 61.034 0.095 6.7 2.42 9.09
5/23/2022 9:45:00 PM 16.04 60.872 0.095 6.69 2.43 9.09
5/23/2022 10:00:00 PM 15.96 60.728 0.095 6.68 2.47 9.08
5/23/2022 10:15:00 PM 15.89 60.602 0.095 6.66 2.57 9.09
5/23/2022 10:30:00 PM 15.82 60.476 0.095 6.68 2.5 9.09
5/23/2022 10:45:00 PM 15.76 60.368 0.095 6.68 2.52 9.1
5/23/2022 11:00:00 PM 15.69 60.242 0.095 6.68 2.52 9.1
5/23/2022 11:15:00 PM 15.64 60.152 0.095 6.68 2.49 9.11
5/23/2022 11:30:00 PM 15.6 60.08 0.095 6.69 2.41 9.12
5/23/2022 11:45:00 PM 15.57 60.026 0.096 6.68 2.48 9.12
5/24/2022 12:00:00 AM 15.54 59.972 0.096 6.68 2.48 9.12
5/24/2022 12:15:00 AM 15.51 59.918 0.096 6.68 2.47 9.13
5/24/2022 12:30:00 AM 15.49 59.882 0.096 6.68 2.48 9.14
5/24/2022 12:45:00 AM 15.47 59.846 0.096 6.68 2.41 9.14
5/24/2022 1:00:00 AM 15.45 59.81 0.096 6.69 2.33 9.15
5/24/2022 1:15:00 AM 15.43 59.774 0.096 6.69 2.43 9.16
5/24/2022 1:30:00 AM 15.41 59.738 0.096 6.69 2.39 9.16
5/24/2022 1:45:00 AM 15.4 59.72 0.096 6.7 2.41 9.17
5/24/2022 2:00:00 AM 15.38 59.684 0.096 6.69 2.44 9.16
5/24/2022 2:15:00 AM 15.37 59.666 0.096 6.69 2.36 9.16
5/24/2022 2:30:00 AM 15.36 59.648 0.096 6.69 2.43 9.16
5/24/2022 2:45:00 AM 15.34 59.612 0.096 6.7 2.43 9.17
5/24/2022 3:00:00 AM 15.31 59.558 0.096 6.68 2.4 9.17
5/24/2022 3:15:00 AM 15.28 59.504 0.096 6.67 2.41 9.18
5/24/2022 3:30:00 AM 15.24 59.432 0.096 6.67 2.47 9.17
5/24/2022 3:45:00 AM 15.2 59.36 0.096 6.66 2.42 9.19
5/24/2022 4:00:00 AM 15.16 59.288 0.096 6.66 2.47 9.2
5/24/2022 4:15:00 AM 15.12 59.216 0.096 6.66 2.49 9.2
5/24/2022 4:30:00 AM 15.08 59.144 0.096 6.66 2.43 9.21
5/24/2022 4:45:00 AM 15.05 59.09 0.096 6.66 2.45 9.22
5/24/2022 5:00:00 AM 15.01 59.018 0.096 6.66 2.45 9.23
5/24/2022 5:15:00 AM 14.97 58.946 0.091 6.67 3.58 9.23
5/24/2022 5:30:00 AM 14.93 58.874 0.096 6.67 2.5 9.24
5/24/2022 5:45:00 AM 14.9 58.82 0.096 6.68 2.33 9.25
5/24/2022 6:00:00 AM 14.87 58.766 0.096 6.68 2.39 9.28
5/24/2022 6:15:00 AM 14.85 58.73 0.096 6.67 2.37 9.32
5/24/2022 6:30:00 AM 14.83 58.694 0.096 6.69 2.24 9.37
5/24/2022 6:45:00 AM 14.82 58.676 0.095 6.71 2.24 9.46
5/24/2022 7:00:00 AM 14.8 58.64 0.095 6.73 2.29 9.54
5/24/2022 7:15:00 AM 14.8 58.64 0.095 6.75 2.24 9.62
5/24/2022 7:30:00 AM 14.8 58.64 0.095 6.77 2.23 9.68
5/24/2022 7:45:00 AM 14.8 58.64 0.095 6.77 2.22 9.73
5/24/2022 8:00:00 AM 14.78 58.604 0.095 6.78 2.21 9.75
5/24/2022 8:15:00 AM 14.76 58.568 0.095 6.79 2.25 9.76
5/24/2022 8:30:00 AM 14.76 58.568 0.095 6.81 2.24 9.82
5/24/2022 8:45:00 AM 14.77 58.586 0.095 6.82 2.17 9.9
5/24/2022 9:00:00 AM 14.78 58.604 0.095 6.84 2.16 9.96
5/24/2022 9:15:00 AM 14.8 58.64 0.095 6.86 2.12 10.05
5/24/2022 9:30:00 AM 14.84 58.712 0.094 6.89 2.11 10.1
5/24/2022 9:45:00 AM 14.87 58.766 0.094 6.92 2.23 10.16
5/24/2022 10:00:00 AM 14.92 58.856 0.094 6.94 2.24 10.21
5/24/2022 10:15:00 AM 14.98 58.964 0.094 6.99 2.11 10.29
5/24/2022 10:30:00 AM 15.06 59.108 0.094 6.99 2.18 10.33
5/24/2022 10:45:00 AM 15.14 59.252 0.094 7.04 2.21 10.38
5/24/2022 11:00:00 AM 15.24 59.432 0.094 7.08 2.08 10.44
5/24/2022 11:15:00 AM 15.31 59.558 0.094 7.1 2.16 10.46
5/24/2022 11:30:00 AM 15.36 59.648 0.094 7.14 2.12 10.47
5/24/2022 11:45:00 AM 15.39 59.702 0.094 7.14 2.15 10.46
5/24/2022 12:00:00 PM 15.45 59.81 0.094 7.17 2.12 10.49
5/24/2022 12:15:00 PM 15.53 59.954 0.094 7.18 2.16 10.53
5/24/2022 12:30:00 PM 15.6 60.08 0.094 7.23 2.1 10.55
5/24/2022 12:45:00 PM 15.68 60.224 0.094 7.25 2.21 10.56
5/24/2022 1:00:00 PM 15.72 60.296 0.094 7.26 2.08 10.56
5/24/2022 1:15:00 PM 15.78 60.404 0.094 7.28 2.11 10.57
5/24/2022 1:30:00 PM 15.85 60.53 0.094 7.29 2.2 10.58
5/24/2022 1:45:00 PM 15.9 60.62 0.094 7.3 2.17 10.57
5/24/2022 2:00:00 PM 15.89 60.602 0.094 7.3 2.19 10.53
5/24/2022 2:15:00 PM 15.87 60.566 0.094 7.28 2.09 10.5
5/24/2022 2:30:00 PM 15.84 60.512 0.094 7.25 2.15 10.46
5/24/2022 2:45:00 PM 15.78 60.404 0.094 7.22 2.14 10.36
5/24/2022 3:00:00 PM 15.73 60.314 0.095 7.15 2.15 10.25
5/24/2022 3:15:00 PM 15.69 60.242 0.095 7.13 2.13 10.19
5/24/2022 3:30:00 PM 15.66 60.188 0.095 7.1 2.07 10.15
5/24/2022 3:45:00 PM 15.63 60.134 0.095 7.08 2.13 10.14
5/24/2022 4:00:00 PM 15.62 60.116 0.095 7.08 2.08 10.13
5/24/2022 4:15:00 PM 15.59 60.062 0.095 7.02 2.09 10.06
5/24/2022 4:30:00 PM 15.58 60.044 0.095 7.03 2.08 10.05
5/24/2022 4:45:00 PM 15.58 60.044 0.095 7.03 2.08 10.09
5/24/2022 5:00:00 PM 15.58 60.044 0.095 7.05 2.07 10.09
5/24/2022 5:15:00 PM 15.54 59.972 0.096 7.04 2.11 10.06
5/24/2022 5:30:00 PM 15.47 59.846 0.096 7 2.09 9.98
5/24/2022 5:45:00 PM 15.4 59.72 0.096 6.96 2.14 9.95
5/24/2022 6:00:00 PM 15.32 59.576 0.096 6.96 2.13 10
5/24/2022 6:15:00 PM 15.24 59.432 0.096 6.97 2.06 10
5/24/2022 6:30:00 PM 15.14 59.252 0.097 6.94 2.17 9.97
5/24/2022 6:45:00 PM 15.05 59.09 0.097 6.9 2.1 9.9
5/24/2022 7:00:00 PM 14.97 58.946 0.097 6.88 2.19 9.85
5/24/2022 7:15:00 PM 14.9 58.82 0.097 6.84 2.2 9.79
5/24/2022 7:30:00 PM 14.83 58.694 0.098 6.83 2.12 9.73
5/24/2022 7:45:00 PM 14.76 58.568 0.098 6.8 2.2 9.69
5/24/2022 8:00:00 PM 14.71 58.478 0.098 6.78 2.14 9.66
5/24/2022 8:15:00 PM 14.65 58.37 0.098 6.76 2.13 9.61
5/24/2022 8:30:00 PM 14.6 58.28 0.098 6.75 2.21 9.57
5/24/2022 8:45:00 PM 14.56 58.208 0.098 6.75 2.25 9.54
5/24/2022 9:00:00 PM 14.53 58.154 0.098 6.73 2.26 9.51
5/24/2022 9:15:00 PM 14.5 58.1 0.098 6.72 2.42 9.49
5/24/2022 9:30:00 PM 14.48 58.064 0.099 6.72 2.35 9.47
5/24/2022 9:45:00 PM 14.47 58.046 0.099 6.72 2.39 9.46
5/24/2022 10:00:00 PM 14.46 58.028 0.099 6.7 2.46 9.44
5/24/2022 10:15:00 PM 14.45 58.01 0.099 6.73 2.41 9.44
5/24/2022 10:30:00 PM 14.45 58.01 0.098 6.72 2.41 9.43
5/24/2022 10:45:00 PM 14.44 57.992 0.098 6.71 2.42 9.42
5/24/2022 11:00:00 PM 14.44 57.992 0.098 6.72 2.33 9.42
5/24/2022 11:15:00 PM 14.44 57.992 0.098 6.72 2.43 9.41
5/24/2022 11:30:00 PM 14.44 57.992 0.098 6.71 2.52 9.41
5/24/2022 11:45:00 PM 14.44 57.992 0.098 6.72 2.41 9.41
5/25/2022 12:00:00 AM 14.45 58.01 0.098 6.72 2.44 9.41
5/25/2022 12:15:00 AM 14.46 58.028 0.098 6.71 2.42 9.41
5/25/2022 12:30:00 AM 14.46 58.028 0.098 6.71 2.42 9.4
5/25/2022 12:45:00 AM 14.44 57.992 0.098 6.72 2.5 9.41
5/25/2022 1:00:00 AM 14.43 57.974 0.098 6.72 2.54 9.41
5/25/2022 1:15:00 AM 14.4 57.92 0.098 6.72 2.34 9.42
5/25/2022 1:30:00 AM 14.37 57.866 0.098 6.7 2.41 9.43
5/25/2022 1:45:00 AM 14.34 57.812 0.099 6.71 2.36 9.43
5/25/2022 2:00:00 AM 14.32 57.776 0.099 6.69 2.39 9.44
5/25/2022 2:15:00 AM 14.29 57.722 0.099 6.71 2.34 9.44
5/25/2022 2:30:00 AM 14.26 57.668 0.098 6.69 2.47 9.45
5/25/2022 2:45:00 AM 14.23 57.614 0.098 6.7 2.49 9.46
5/25/2022 3:00:00 AM 14.2 57.56 0.098 6.7 2.37 9.46
5/25/2022 3:15:00 AM 14.18 57.524 0.098 6.69 2.48 9.47
5/25/2022 3:30:00 AM 14.16 57.488 0.098 6.68 2.43 9.47
5/25/2022 3:45:00 AM 14.14 57.452 0.098 6.68 2.39 9.48
5/25/2022 4:00:00 AM 14.12 57.416 0.099 6.67 2.54 9.49
5/25/2022 4:15:00 AM 14.1 57.38 0.099 6.68 2.36 9.5
5/25/2022 4:30:00 AM 14.08 57.344 0.099 6.69 2.38 9.5
5/25/2022 4:45:00 AM 14.06 57.308 0.099 6.7 2.36 9.51
5/25/2022 5:00:00 AM 14.04 57.272 0.099 6.69 2.54 9.51
5/25/2022 5:15:00 AM 14.03 57.254 0.099 6.69 2.41 9.51
5/25/2022 5:30:00 AM 14.02 57.236 0.099 6.7 2.4 9.52
5/25/2022 5:45:00 AM 14.02 57.236 0.099 6.69 2.26 9.53
5/25/2022 6:00:00 AM 14.01 57.218 0.099 6.7 2.35 9.53
5/25/2022 6:15:00 AM 14.01 57.218 0.099 6.69 2.24 9.53
5/25/2022 6:30:00 AM 14.01 57.218 0.099 6.7 2.24 9.56
5/25/2022 6:45:00 AM 14.01 57.218 0.099 6.69 3.65 9.59
5/25/2022 7:00:00 AM 14.01 57.218 0.099 6.72 2.22 9.66
5/25/2022 7:15:00 AM 14.03 57.254 0.099 6.75 2.26 9.76
5/25/2022 7:30:00 AM 14.06 57.308 0.099 6.76 2.22 9.85
5/25/2022 7:45:00 AM 14.08 57.344 0.099 6.78 2.23 9.92
5/25/2022 8:00:00 AM 14.11 57.398 0.099 6.8 2.26 9.99
5/25/2022 8:15:00 AM 14.14 57.452 0.098 6.83 2.09 10.04
5/25/2022 8:30:00 AM 14.18 57.524 0.099 6.84 2.21 10.13
5/25/2022 8:45:00 AM 14.22 57.596 0.098 6.86 2.12 10.2
5/25/2022 9:00:00 AM 14.27 57.686 0.099 6.89 2.08 10.27
5/25/2022 9:15:00 AM 14.33 57.794 0.098 6.92 2.09 10.34
5/25/2022 9:30:00 AM 14.46 58.028 0.098 6.96 2.18 10.43
5/25/2022 9:45:00 AM 14.57 58.226 0.098 7 1.98 10.49
5/25/2022 10:00:00 AM 14.62 58.316 0.098 7.01 3.15 10.52
5/25/2022 10:15:00 AM 14.71 58.478 0.098 7.03 2.13 10.56
5/25/2022 10:30:00 AM 14.81 58.658 0.098 7.07 2.07 10.61
5/25/2022 10:45:00 AM 14.9 58.82 0.098 7.11 2.08 10.64
5/25/2022 11:00:00 AM 15.01 59.018 0.098 7.12 2.03 10.66
5/25/2022 11:15:00 AM 15.14 59.252 0.098 7.13 2.1 10.68
5/25/2022 11:30:00 AM 15.32 59.576 0.097 7.19 2.09 10.68
5/25/2022 11:45:00 AM 15.49 59.882 0.097 7.19 2.05 10.68
5/25/2022 12:00:00 PM 15.68 60.224 0.098 7.24 1.99 10.68
5/25/2022 12:15:00 PM 15.84 60.512 0.097 7.26 2.06 10.67
5/25/2022 12:30:00 PM 15.94 60.692 0.097 7.27 2.11 10.66
5/25/2022 12:45:00 PM 16.05 60.89 0.098 7.26 2 10.66
5/25/2022 1:00:00 PM 16.12 61.016 0.098 7.27 2.1 10.64
5/25/2022 1:15:00 PM 16.24 61.232 0.098 7.28 2.02 10.64
5/25/2022 1:30:00 PM 16.44 61.592 0.098 7.31 2.06 10.62
5/25/2022 1:45:00 PM 16.59 61.862 0.098 7.31 1.99 10.6
5/25/2022 2:00:00 PM 16.75 62.15 0.099 7.32 1.99 10.59
5/25/2022 2:15:00 PM 16.88 62.384 0.099 7.35 2 10.57
5/25/2022 2:30:00 PM 16.94 62.492 0.099 7.31 2.11 10.54
5/25/2022 2:45:00 PM 17.02 62.636 0.099 7.35 2.15 10.54
5/25/2022 3:00:00 PM 17.07 62.726 0.1 7.36 2.02 10.52
5/25/2022 3:15:00 PM 17.09 62.762 0.1 7.34 2.1 10.5
5/25/2022 3:30:00 PM 17.15 62.87 0.1 7.36 2.06 10.48
5/25/2022 3:45:00 PM 17.18 62.924 0.1 7.34 2.04 10.45
5/25/2022 4:00:00 PM 17.08 62.744 0.101 7.32 2.05 10.42
5/25/2022 4:15:00 PM 16.9 62.42 0.101 7.31 2.11 10.38
5/25/2022 4:30:00 PM 16.92 62.456 0.101 7.29 2.17 10.37
5/25/2022 4:45:00 PM 16.89 62.402 0.101 7.28 2.05 10.33
5/25/2022 5:00:00 PM 16.74 62.132 0.101 7.26 2.1 10.28
5/25/2022 5:15:00 PM 16.52 61.736 0.101 7.19 2.09 10.21
5/25/2022 5:30:00 PM 16.23 61.214 0.102 7.15 2.14 10.12
5/25/2022 5:45:00 PM 15.99 60.782 0.102 7.11 2.05 10.05
5/25/2022 6:00:00 PM 15.82 60.476 0.102 7.05 2.1 10.01
5/25/2022 6:15:00 PM 15.66 60.188 0.102 7.03 2.05 9.98
5/25/2022 6:30:00 PM 15.57 60.026 0.102 6.98 2.07 9.99
5/25/2022 6:45:00 PM 15.52 59.936 0.102 6.96 2.05 10.02
5/25/2022 7:00:00 PM 15.44 59.792 0.102 6.95 2.04 9.98
5/25/2022 7:15:00 PM 15.36 59.648 0.102 6.91 2.01 9.94
5/25/2022 7:30:00 PM 15.27 59.486 0.102 6.89 1.96 9.87
5/25/2022 7:45:00 PM 15.18 59.324 0.102 6.86 2.04 9.81
5/25/2022 8:00:00 PM 15.07 59.126 0.102 6.83 2 9.73
5/25/2022 8:15:00 PM 14.97 58.946 0.103 6.79 3.19 9.67
5/25/2022 8:30:00 PM 14.88 58.784 0.103 6.78 2.15 9.61
5/25/2022 8:45:00 PM 14.81 58.658 0.103 6.76 2.08 9.56
5/25/2022 9:00:00 PM 14.76 58.568 0.103 6.75 2.17 9.51
5/25/2022 9:15:00 PM 14.72 58.496 0.103 6.75 2.21 9.48
5/25/2022 9:30:00 PM 14.68 58.424 0.103 6.75 2.41 9.45
5/25/2022 9:45:00 PM 14.66 58.388 0.103 6.74 2.38 9.42
5/25/2022 10:00:00 PM 14.63 58.334 0.103 6.74 2.43 9.41
5/25/2022 10:15:00 PM 14.61 58.298 0.103 6.76 2.35 9.39
5/25/2022 10:30:00 PM 14.59 58.262 0.103 6.75 2.32 9.38
5/25/2022 10:45:00 PM 14.58 58.244 0.103 6.76 2.41 9.36
5/25/2022 11:00:00 PM 14.58 58.244 0.103 6.75 3.46 9.36
5/25/2022 11:15:00 PM 14.59 58.262 0.103 6.76 2.27 9.35
5/25/2022 11:30:00 PM 14.59 58.262 0.103 6.75 2.38 9.33
5/25/2022 11:45:00 PM 14.6 58.28 0.103 6.77 2.36 9.32
5/26/2022 12:00:00 AM 14.61 58.298 0.103 6.77 2.35 9.32
5/26/2022 12:15:00 AM 14.63 58.334 0.103 6.74 2.44 9.31
5/26/2022 12:30:00 AM 14.64 58.352 0.103 6.75 2.33 9.3
5/26/2022 12:45:00 AM 14.65 58.37 0.103 6.75 2.32 9.3
5/26/2022 1:00:00 AM 14.66 58.388 0.103 6.74 2.32 9.29
5/26/2022 1:15:00 AM 14.68 58.424 0.102 6.76 2.29 9.28
5/26/2022 1:30:00 AM 14.7 58.46 0.102 6.74 2.27 9.27
5/26/2022 1:45:00 AM 14.72 58.496 0.102 6.75 2.32 9.27
5/26/2022 2:00:00 AM 14.75 58.55 0.102 6.75 2.32 9.26
5/26/2022 2:15:00 AM 14.76 58.568 0.102 6.75 2.26 9.25
5/26/2022 2:30:00 AM 14.78 58.604 0.102 6.75 2.39 9.24
5/26/2022 2:45:00 AM 14.8 58.64 0.102 6.75 2.37 9.23
5/26/2022 3:00:00 AM 14.82 58.676 0.102 6.76 2.39 9.23
5/26/2022 3:15:00 AM 14.84 58.712 0.102 6.75 2.33 9.23
5/26/2022 3:30:00 AM 14.85 58.73 0.102 6.73 2.26 9.22
5/26/2022 3:45:00 AM 14.85 58.73 0.102 6.75 2.34 9.22
5/26/2022 4:00:00 AM 14.86 58.748 0.102 6.74 2.29 9.22
5/26/2022 4:15:00 AM 14.86 58.748 0.101 6.74 2.3 9.22
5/26/2022 4:30:00 AM 14.87 58.766 0.101 6.75 2.37 9.21
5/26/2022 4:45:00 AM 14.87 58.766 0.101 6.73 2.35 9.22
5/26/2022 5:00:00 AM 14.85 58.73 0.101 6.75 2.3 9.22
5/26/2022 5:15:00 AM 14.84 58.712 0.101 6.73 2.43 9.21
5/26/2022 5:30:00 AM 14.84 58.712 0.101 6.73 2.31 9.21
5/26/2022 5:45:00 AM 14.85 58.73 0.101 6.73 2.29 9.22
5/26/2022 6:00:00 AM 14.85 58.73 0.101 6.72 2.28 9.23
5/26/2022 6:15:00 AM 14.86 58.748 0.101 6.72 2.29 9.26
5/26/2022 6:30:00 AM 14.88 58.784 0.101 6.74 2.24 9.3
5/26/2022 6:45:00 AM 14.9 58.82 0.101 6.74 2.22 9.34
5/26/2022 7:00:00 AM 14.89 58.802 0.101 6.76 2.18 9.39
5/26/2022 7:15:00 AM 14.9 58.82 0.101 6.76 2.19 9.43
5/26/2022 7:30:00 AM 14.9 58.82 0.101 6.78 2.16 9.48
5/26/2022 7:45:00 AM 14.93 58.874 0.101 6.79 2.12 9.56
5/26/2022 8:00:00 AM 14.95 58.91 0.101 6.81 2.12 9.64
5/26/2022 8:15:00 AM 14.98 58.964 0.101 6.83 2.13 9.71
5/26/2022 8:30:00 AM 15.01 59.018 0.101 6.83 2.15 9.79
5/26/2022 8:45:00 AM 15.05 59.09 0.1 6.87 2.1 9.85
5/26/2022 9:00:00 AM 15.09 59.162 0.1 6.87 2.08 9.91
5/26/2022 9:15:00 AM 15.13 59.234 0.1 6.89 2.06 9.95
5/26/2022 9:30:00 AM 15.14 59.252 0.1 6.91 1.99 9.98
5/26/2022 9:45:00 AM 15.19 59.342 0.1 6.92 1.99 10.01
5/26/2022 10:00:00 AM 15.28 59.504 0.1 6.93 1.98 10.04
5/26/2022 10:15:00 AM 15.39 59.702 0.1 6.96 1.94 10.04
5/26/2022 10:30:00 AM 15.48 59.864 0.1 6.97 2.02 10.06
5/26/2022 10:45:00 AM 15.62 60.116 0.1 7 2 10.08
5/26/2022 11:00:00 AM 15.79 60.422 0.1 7.02 1.98 10.1
5/26/2022 11:15:00 AM 16.01 60.818 0.1 7.05 1.96 10.15
5/26/2022 11:30:00 AM 16.21 61.178 0.1 7.08 2.03 10.18
5/26/2022 11:45:00 AM 16.33 61.394 0.1 7.1 2.09 10.19
5/26/2022 12:00:00 PM 16.47 61.646 0.1 7.11 2.17 10.19
5/26/2022 12:15:00 PM 16.66 61.988 0.1 7.13 2.04 10.2
5/26/2022 12:30:00 PM 16.91 62.438 0.101 7.16 1.97 10.18
5/26/2022 12:45:00 PM 17.28 63.104 0.101 7.19 1.95 10.19
5/26/2022 1:00:00 PM 17.65 63.77 0.101 7.23 2.01 10.16
5/26/2022 1:15:00 PM 17.99 64.382 0.101 7.23 2 10.12
5/26/2022 1:30:00 PM 18.31 64.958 0.102 7.25 1.96 10.08
5/26/2022 1:45:00 PM 18.48 65.264 0.102 7.27 1.95 10.05
5/26/2022 2:00:00 PM 18.67 65.606 0.102 7.28 2.03 10.02
5/26/2022 2:15:00 PM 18.83 65.894 0.102 7.28 1.97 10
5/26/2022 2:30:00 PM 18.98 66.164 0.102 7.29 1.97 9.98
5/26/2022 2:45:00 PM 19.09 66.362 0.103 7.3 1.99 9.96
5/26/2022 3:00:00 PM 19.1 66.38 0.103 7.3 2.03 9.93
5/26/2022 3:15:00 PM 19.1 66.38 0.103 7.31 2.05 9.93
5/26/2022 3:30:00 PM 19.02 66.236 0.103 7.3 2.04 9.91
5/26/2022 3:45:00 PM 18.85 65.93 0.103 7.29 1.99 9.89
5/26/2022 4:00:00 PM 18.84 65.912 0.104 7.29 2.12 9.89
5/26/2022 4:15:00 PM 18.53 65.354 0.104 7.25 2.03 9.83
5/26/2022 4:30:00 PM 18.3 64.94 0.104 7.21 2.05 9.77
5/26/2022 4:45:00 PM 18.11 64.598 0.105 7.15 2.11 9.69
5/26/2022 5:00:00 PM 17.96 64.328 0.105 7.1 2.03 9.59
5/26/2022 5:15:00 PM 17.8 64.04 0.105 7.04 2.07 9.54
5/26/2022 5:30:00 PM 17.65 63.77 0.106 7.01 2.04 9.49
5/26/2022 5:45:00 PM 17.51 63.518 0.106 6.98 2.12 9.47
5/26/2022 6:00:00 PM 17.38 63.284 0.106 6.96 2.14 9.44
5/26/2022 6:15:00 PM 17.24 63.032 0.106 6.91 2.03 9.37
5/26/2022 6:30:00 PM 17.14 62.852 0.106 6.89 2.01 9.34
5/26/2022 6:45:00 PM 17.06 62.708 0.106 6.86 2.05 9.3
5/26/2022 7:00:00 PM 16.99 62.582 0.106 6.83 2.03 9.24
5/26/2022 7:15:00 PM 16.93 62.474 0.106 6.82 2.24 9.18
5/26/2022 7:30:00 PM 16.86 62.348 0.106 6.8 2.06 9.13
5/26/2022 7:45:00 PM 16.79 62.222 0.106 6.79 2.12 9.07
5/26/2022 8:00:00 PM 16.72 62.096 0.107 6.78 2 9.02
5/26/2022 8:15:00 PM 16.67 62.006 0.107 6.78 2.08 8.99
5/26/2022 8:30:00 PM 16.61 61.898 0.107 6.76 2.04 8.95
5/26/2022 8:45:00 PM 16.56 61.808 0.107 6.76 2.14 8.92
5/26/2022 9:00:00 PM 16.52 61.736 0.107 6.76 2.14 8.9
5/26/2022 9:15:00 PM 16.48 61.664 0.108 6.75 2.2 8.88
5/26/2022 9:30:00 PM 16.45 61.61 0.108 6.75 2.27 8.86
5/26/2022 9:45:00 PM 16.42 61.556 0.108 6.74 2.34 8.85
5/26/2022 10:00:00 PM 16.39 61.502 0.108 6.75 2.39 8.84
5/26/2022 10:15:00 PM 16.36 61.448 0.108 6.75 2.31 8.84
5/26/2022 10:30:00 PM 16.33 61.394 0.108 6.73 2.34 8.84
5/26/2022 10:45:00 PM 16.3 61.34 0.108 6.75 2.33 8.84
5/26/2022 11:00:00 PM 16.27 61.286 0.108 6.74 2.24 8.84
5/26/2022 11:15:00 PM 16.25 61.25 0.108 6.72 2.32 8.84
5/26/2022 11:30:00 PM 16.23 61.214 0.108 6.74 2.27 8.84
5/26/2022 11:45:00 PM 16.23 61.214 0.108 6.72 2.35 8.83
5/27/2022 12:00:00 AM 16.24 61.232 0.108 6.73 2.38 8.83
5/27/2022 12:15:00 AM 16.26 61.268 0.108 6.73 2.28 8.82
5/27/2022 12:30:00 AM 16.29 61.322 0.108 6.73 2.29 8.81
5/27/2022 12:45:00 AM 16.31 61.358 0.108 6.75 2.25 8.81
5/27/2022 1:00:00 AM 16.34 61.412 0.108 6.75 2.31 8.79
5/27/2022 1:15:00 AM 16.37 61.466 0.108 6.73 2.34 8.79
5/27/2022 1:30:00 AM 16.39 61.502 0.108 6.76 2.24 8.78
5/27/2022 1:45:00 AM 16.41 61.538 0.108 6.75 2.23 8.77
5/27/2022 2:00:00 AM 16.43 61.574 0.107 6.74 2.29 8.77
5/27/2022 2:15:00 AM 16.44 61.592 0.107 6.73 2.3 8.76
5/27/2022 2:30:00 AM 16.45 61.61 0.107 6.73 2.31 8.76
5/27/2022 2:45:00 AM 16.46 61.628 0.107 6.74 2.4 8.75
5/27/2022 3:00:00 AM 16.48 61.664 0.107 6.75 2.28 8.76
5/27/2022 3:15:00 AM 16.48 61.664 0.107 6.73 2.31 8.75
5/27/2022 3:30:00 AM 16.48 61.664 0.107 6.73 2.3 8.75
5/27/2022 3:45:00 AM 16.49 61.682 0.107 6.69 2.31 8.75
5/27/2022 4:00:00 AM 16.5 61.7 0.107 6.73 2.15 8.75
5/27/2022 4:15:00 AM 16.5 61.7 0.107 6.73 2.35 8.74
5/27/2022 4:30:00 AM 16.51 61.718 0.107 6.7 2.2 8.74
5/27/2022 4:45:00 AM 16.52 61.736 0.107 6.71 2.28 8.73
5/27/2022 5:00:00 AM 16.53 61.754 0.107 6.73 2.28 8.73
5/27/2022 5:15:00 AM 16.53 61.754 0.108 6.71 2.3 8.72
5/27/2022 5:30:00 AM 16.54 61.772 0.108 6.69 2.39 8.71
5/27/2022 5:45:00 AM 16.55 61.79 0.108 6.69 2.31 8.72
5/27/2022 6:00:00 AM 16.56 61.808 0.108 6.71 2.15 8.73
5/27/2022 6:15:00 AM 16.58 61.844 0.108 6.71 2.28 8.73
5/27/2022 6:30:00 AM 16.59 61.862 0.108 6.72 2.12 8.76
5/27/2022 6:45:00 AM 16.61 61.898 0.107 6.72 2.19 8.79
5/27/2022 7:00:00 AM 16.64 61.952 0.107 6.74 2.2 8.87
5/27/2022 7:15:00 AM 16.65 61.97 0.107 6.75 2.2 8.9
5/27/2022 7:30:00 AM 16.67 62.006 0.107 6.76 2.12 8.93
5/27/2022 7:45:00 AM 16.68 62.024 0.107 6.75 2.12 8.95
5/27/2022 8:00:00 AM 16.68 62.024 0.107 6.76 2.12 8.93
5/27/2022 8:15:00 AM 16.69 62.042 0.107 6.77 2.1 8.91
5/27/2022 8:30:00 AM 16.7 62.06 0.107 6.76 2.14 8.96
5/27/2022 8:45:00 AM 16.72 62.096 0.107 6.76 2.06 9.01
5/27/2022 9:00:00 AM 16.74 62.132 0.107 6.77 2.04 9.07
5/27/2022 9:15:00 AM 16.77 62.186 0.107 6.8 2.02 9.13
5/27/2022 9:30:00 AM 16.83 62.294 0.107 6.81 2.11 9.25
5/27/2022 9:45:00 AM 16.86 62.348 0.107 6.82 2.1 9.27
5/27/2022 10:00:00 AM 16.89 62.402 0.107 6.85 2.04 9.31
5/27/2022 10:15:00 AM 16.93 62.474 0.107 6.85 2.17 9.38
5/27/2022 10:30:00 AM 16.98 62.564 0.107 6.9 2.17 9.41
5/27/2022 10:45:00 AM 17.04 62.672 0.107 6.9 2.01 9.46
5/27/2022 11:00:00 AM 17.09 62.762 0.107 6.91 2.36 9.47
5/27/2022 11:15:00 AM 17.16 62.888 0.107 6.92 2.04 9.52
5/27/2022 11:30:00 AM 17.25 63.05 0.107 6.97 2 9.6
5/27/2022 11:45:00 AM 17.27 63.086 0.108 6.95 2.08 9.51
5/27/2022 12:00:00 PM 17.27 63.086 0.108 6.95 2.08 9.47
5/27/2022 12:15:00 PM 17.31 63.158 0.108 6.96 1.99 9.5
5/27/2022 12:30:00 PM 17.32 63.176 0.109 6.93 2.12 9.41
5/27/2022 12:45:00 PM 17.29 63.122 0.108 6.92 2.4 9.32
5/27/2022 1:00:00 PM 17.27 63.086 0.108 6.9 2.61 9.2
5/27/2022 1:15:00 PM 17.72 63.896 0.104 7.2 51.04 9.05
5/27/2022 1:30:00 PM 17.36 63.248 0.104 7.09 9.07 9.15
5/27/2022 1:45:00 PM 17.19 62.942 0.109 7.06 10.48 9.17
5/27/2022 2:00:00 PM 17.19 62.942 0.109 7.05 13.14 9.21
5/27/2022 2:15:00 PM 17.25 63.05 0.109 7.02 10.78 9.35
5/27/2022 2:30:00 PM 17.28 63.104 0.108 7 5.19 9.43
5/27/2022 2:45:00 PM 17.29 63.122 0.108 7 4.28 9.46
5/27/2022 3:00:00 PM 17.32 63.176 0.108 7 3.35 9.51
5/27/2022 3:15:00 PM 17.33 63.194 0.108 7 3.24 9.53
5/27/2022 3:30:00 PM 17.31 63.158 0.109 6.98 3.28 9.5
5/27/2022 3:45:00 PM 17.36 63.248 0.109 6.99 3.33 9.56
5/27/2022 4:00:00 PM 17.56 63.608 0.109 7.02 2.73 9.65
5/27/2022 4:15:00 PM 17.59 63.662 0.11 7.05 2.61 9.67
5/27/2022 4:30:00 PM 17.55 63.59 0.11 7.04 2.53 9.64
5/27/2022 4:45:00 PM 17.64 63.752 0.11 7.06 3.04 9.67
5/27/2022 5:00:00 PM 17.64 63.752 0.11 7.06 2.72 9.65
5/27/2022 5:15:00 PM 17.63 63.734 0.111 7.06 2.58 9.64
5/27/2022 5:30:00 PM 17.61 63.698 0.111 7.06 2.62 9.63
5/27/2022 5:45:00 PM 17.62 63.716 0.111 7.06 2.61 9.62
5/27/2022 6:00:00 PM 17.6 63.68 0.112 7.05 2.49 9.61
5/27/2022 6:15:00 PM 17.51 63.518 0.112 7.06 2.41 9.55
5/27/2022 6:30:00 PM 17.5 63.5 0.112 7.05 2.3 9.53
5/27/2022 6:45:00 PM 17.46 63.428 0.113 7.02 2.34 9.44
5/27/2022 7:00:00 PM 17.39 63.302 0.113 6.98 2.37 9.32
5/27/2022 7:15:00 PM 17.34 63.212 0.113 6.95 2.32 9.21
5/27/2022 7:30:00 PM 17.27 63.086 0.114 6.93 2.27 9.12
5/27/2022 7:45:00 PM 17.21 62.978 0.114 6.9 2.51 9.06
5/27/2022 8:00:00 PM 17.14 62.852 0.114 6.87 2.25 9
5/27/2022 8:15:00 PM 17.06 62.708 0.114 6.86 2.18 8.95
5/27/2022 8:30:00 PM 16.99 62.582 0.115 6.83 2.29 8.91
5/27/2022 8:45:00 PM 16.93 62.474 0.115 6.82 2.34 8.86
5/27/2022 9:00:00 PM 16.86 62.348 0.115 6.8 2.53 8.82
5/27/2022 9:15:00 PM 16.81 62.258 0.115 6.78 2.82 8.8
5/27/2022 9:30:00 PM 16.76 62.168 0.116 6.76 4.83 8.76
5/27/2022 9:45:00 PM 16.67 62.006 0.116 6.8 3.61 8.75
5/27/2022 10:00:00 PM 16.56 61.808 0.116 6.76 2.97 8.76
5/27/2022 10:15:00 PM 16.48 61.664 0.116 6.74 3.02 8.76
5/27/2022 10:30:00 PM 16.44 61.592 0.116 6.74 3.11 8.76
5/27/2022 10:45:00 PM 16.41 61.538 0.116 6.73 2.89 8.75
5/27/2022 11:00:00 PM 16.41 61.538 0.115 6.73 2.79 8.75
5/27/2022 11:15:00 PM 16.42 61.556 0.115 6.73 2.76 8.73
5/27/2022 11:30:00 PM 16.45 61.61 0.115 6.73 2.78 8.72
5/27/2022 11:45:00 PM 16.49 61.682 0.115 6.72 2.64 8.71
5/28/2022 12:00:00 AM 16.54 61.772 0.114 6.72 2.73 8.69
5/28/2022 12:15:00 AM 16.59 61.862 0.114 6.73 2.68 8.69
5/28/2022 12:30:00 AM 16.63 61.934 0.114 6.75 2.55 8.67
5/28/2022 12:45:00 AM 16.66 61.988 0.114 6.76 2.71 8.67
5/28/2022 1:00:00 AM 16.68 62.024 0.114 6.72 2.7 8.66
5/28/2022 1:15:00 AM 16.7 62.06 0.114 6.74 2.74 8.67
5/28/2022 1:30:00 AM 16.7 62.06 0.114 6.75 2.68 8.67
5/28/2022 1:45:00 AM 16.7 62.06 0.114 6.74 2.69 8.67
5/28/2022 2:00:00 AM 16.69 62.042 0.114 6.75 2.68 8.68
5/28/2022 2:15:00 AM 16.67 62.006 0.114 6.74 2.74 8.67
5/28/2022 2:30:00 AM 16.65 61.97 0.114 6.75 2.67 8.68
5/28/2022 2:45:00 AM 16.63 61.934 0.114 6.72 2.68 8.68
5/28/2022 3:00:00 AM 16.59 61.862 0.114 6.73 2.76 8.69
5/28/2022 3:15:00 AM 16.57 61.826 0.114 6.72 2.7 8.69
5/28/2022 3:30:00 AM 16.55 61.79 0.114 6.72 2.66 8.7
5/28/2022 3:45:00 AM 16.53 61.754 0.114 6.71 2.72 8.71
5/28/2022 4:00:00 AM 16.51 61.718 0.114 6.72 2.76 8.71
5/28/2022 4:15:00 AM 16.5 61.7 0.114 6.73 2.77 8.72
5/28/2022 4:30:00 AM 16.48 61.664 0.114 6.72 2.71 8.73
5/28/2022 4:45:00 AM 16.47 61.646 0.114 6.7 2.77 8.72
5/28/2022 5:00:00 AM 16.45 61.61 0.114 6.71 2.78 8.73
5/28/2022 5:15:00 AM 16.43 61.574 0.114 6.71 2.83 8.74
5/28/2022 5:30:00 AM 16.42 61.556 0.114 6.71 2.65 8.74
5/28/2022 5:45:00 AM 16.41 61.538 0.114 6.69 2.64 8.75
5/28/2022 6:00:00 AM 16.41 61.538 0.114 6.7 2.64 8.76
5/28/2022 6:15:00 AM 16.39 61.502 0.114 6.71 2.54 8.8
5/28/2022 6:30:00 AM 16.38 61.484 0.114 6.71 2.55 8.84
5/28/2022 6:45:00 AM 16.37 61.466 0.114 6.71 2.75 8.89
5/28/2022 7:00:00 AM 16.37 61.466 0.114 6.74 2.59 8.93
5/28/2022 7:15:00 AM 16.37 61.466 0.114 6.75 2.59 9
5/28/2022 7:30:00 AM 16.39 61.502 0.114 6.76 2.63 9.09
5/28/2022 7:45:00 AM 16.39 61.502 0.114 6.77 2.57 9.12
5/28/2022 8:00:00 AM 16.38 61.484 0.114 6.78 2.53 9.13
5/28/2022 8:15:00 AM 16.37 61.466 0.114 6.81 2.5 9.14
5/28/2022 8:30:00 AM 16.38 61.484 0.114 6.82 2.43 9.2
5/28/2022 8:45:00 AM 16.39 61.502 0.114 6.81 2.5 9.28
5/28/2022 9:00:00 AM 16.4 61.52 0.114 6.81 2.47 9.32
5/28/2022 9:15:00 AM 16.42 61.556 0.114 6.84 2.42 9.39
5/28/2022 9:30:00 AM 16.43 61.574 0.114 6.87 2.51 9.44
5/28/2022 9:45:00 AM 16.44 61.592 0.114 6.88 2.54 9.46
5/28/2022 10:00:00 AM 16.49 61.682 0.114 6.89 2.45 9.54
5/28/2022 10:15:00 AM 16.54 61.772 0.113 6.89 2.53 9.61
5/28/2022 10:30:00 AM 16.59 61.862 0.113 6.92 2.5 9.66
5/28/2022 10:45:00 AM 16.6 61.88 0.113 6.94 2.35 9.65
5/28/2022 11:00:00 AM 16.61 61.898 0.113 6.93 2.42 9.63
5/28/2022 11:15:00 AM 16.66 61.988 0.113 6.97 2.33 9.69
5/28/2022 11:30:00 AM 16.7 62.06 0.113 6.99 2.36 9.72
5/28/2022 11:45:00 AM 16.76 62.168 0.113 7 2.48 9.76
5/28/2022 12:00:00 PM 16.84 62.312 0.113 7.05 2.36 9.8
5/28/2022 12:15:00 PM 16.92 62.456 0.113 7.05 2.53 9.81
5/28/2022 12:30:00 PM 16.97 62.546 0.113 7.04 2.36 9.8
5/28/2022 12:45:00 PM 17.02 62.636 0.113 7.06 2.37 9.8
5/28/2022 1:00:00 PM 17.28 63.104 0.112 7.06 2.56 9.85
5/28/2022 1:15:00 PM 17.56 63.608 0.113 7.13 2.7 9.86
5/28/2022 1:30:00 PM 17.7 63.86 0.113 7.12 2.59 9.85
5/28/2022 1:45:00 PM 17.74 63.932 0.113 7.11 2.63 9.8
5/28/2022 2:00:00 PM 17.96 64.328 0.113 7.12 2.68 9.79
5/28/2022 2:15:00 PM 18 64.4 0.113 7.13 2.8 9.76
5/28/2022 2:30:00 PM 18 64.4 0.113 7.12 2.41 9.72
5/28/2022 2:45:00 PM 18.06 64.508 0.113 7.11 2.38 9.7
5/28/2022 3:00:00 PM 17.98 64.364 0.113 7.11 2.89 9.59
5/28/2022 3:15:00 PM 18.28 64.904 0.113 7.12 2.4 9.65
5/28/2022 3:30:00 PM 18.26 64.868 0.113 7.13 2.54 9.57
5/28/2022 3:45:00 PM 18.31 64.958 0.113 7.09 2.46 9.55
5/28/2022 4:00:00 PM 18.32 64.976 0.113 7.12 2.29 9.53
5/28/2022 4:15:00 PM 18.37 65.066 0.113 7.11 2.39 9.54
5/28/2022 4:30:00 PM 18.42 65.156 0.113 7.12 2.32 9.55
5/28/2022 4:45:00 PM 18.36 65.048 0.113 7.11 2.3 9.47
5/28/2022 5:00:00 PM 18.43 65.174 0.113 7.1 2.33 9.48
5/28/2022 5:15:00 PM 18.42 65.156 0.113 7.09 2.36 9.39
5/28/2022 5:30:00 PM 18.36 65.048 0.113 7.07 2.39 9.31
5/28/2022 5:45:00 PM 18.35 65.03 0.113 7.05 2.33 9.26
5/28/2022 6:00:00 PM 18.44 65.192 0.113 7.03 2.27 9.2
5/28/2022 6:15:00 PM 18.54 65.372 0.113 7.03 2.46 9.16
5/28/2022 6:30:00 PM 18.65 65.57 0.113 7 2.32 9.09
5/28/2022 6:45:00 PM 18.72 65.696 0.113 6.99 2.34 8.98
5/28/2022 7:00:00 PM 18.76 65.768 0.113 6.97 2.43 8.87
5/28/2022 7:15:00 PM 18.77 65.786 0.113 6.96 2.74 8.78
5/28/2022 7:30:00 PM 18.74 65.732 0.113 6.94 2.38 8.73
5/28/2022 7:45:00 PM 18.69 65.642 0.113 6.92 2.5 8.67
5/28/2022 8:00:00 PM 18.63 65.534 0.114 6.91 2.45 8.62
5/28/2022 8:15:00 PM 18.57 65.426 0.114 6.87 2.32 8.58
5/28/2022 8:30:00 PM 18.5 65.3 0.114 6.84 2.37 8.55
5/28/2022 8:45:00 PM 18.42 65.156 0.114 6.85 2.29 8.51
5/28/2022 9:00:00 PM 18.35 65.03 0.114 6.83 2.43 8.48
5/28/2022 9:15:00 PM 18.26 64.868 0.114 6.81 2.54 8.47
5/28/2022 9:30:00 PM 18.18 64.724 0.114 6.82 2.59 8.46
5/28/2022 9:45:00 PM 18.11 64.598 0.114 6.79 2.81 8.45
5/28/2022 10:00:00 PM 18.03 64.454 0.115 6.79 2.67 8.46
5/28/2022 10:15:00 PM 17.94 64.292 0.115 6.78 2.73 8.46
5/28/2022 10:30:00 PM 17.85 64.13 0.115 6.77 2.82 8.47
5/28/2022 10:45:00 PM 17.76 63.968 0.115 6.75 2.77 8.48
5/28/2022 11:00:00 PM 17.66 63.788 0.115 6.74 2.76 8.5
5/28/2022 11:15:00 PM 17.57 63.626 0.115 6.74 2.84 8.52
5/28/2022 11:30:00 PM 17.49 63.482 0.115 6.73 2.79 8.53
5/28/2022 11:45:00 PM 17.41 63.338 0.115 6.72 2.75 8.55
5/29/2022 12:00:00 AM 17.33 63.194 0.115 6.71 2.86 8.56
5/29/2022 12:15:00 AM 17.25 63.05 0.115 6.72 2.76 8.58
5/29/2022 12:30:00 AM 17.17 62.906 0.115 6.7 2.8 8.6
5/29/2022 12:45:00 AM 17.09 62.762 0.115 6.7 2.85 8.62
5/29/2022 1:00:00 AM 17.03 62.654 0.115 6.7 2.85 8.64
5/29/2022 1:15:00 AM 16.96 62.528 0.115 6.69 2.89 8.66
5/29/2022 1:30:00 AM 16.88 62.384 0.115 6.7 2.83 8.67
5/29/2022 1:45:00 AM 16.82 62.276 0.115 6.69 2.81 8.69
5/29/2022 2:00:00 AM 16.74 62.132 0.115 6.69 2.9 8.71
5/29/2022 2:15:00 AM 16.67 62.006 0.115 6.69 2.84 8.73
5/29/2022 2:30:00 AM 16.6 61.88 0.115 6.69 2.84 8.75
5/29/2022 2:45:00 AM 16.54 61.772 0.115 6.69 2.7 8.76
5/29/2022 3:00:00 AM 16.48 61.664 0.115 6.7 2.76 8.78
5/29/2022 3:15:00 AM 16.43 61.574 0.115 6.69 2.79 8.79
5/29/2022 3:30:00 AM 16.4 61.52 0.115 6.69 2.77 8.8
5/29/2022 3:45:00 AM 16.39 61.502 0.115 6.69 2.83 8.81
5/29/2022 4:00:00 AM 16.39 61.502 0.114 6.7 2.88 8.8
5/29/2022 4:15:00 AM 16.39 61.502 0.114 6.71 2.74 8.8
5/29/2022 4:30:00 AM 16.4 61.52 0.114 6.74 2.8 8.79
5/29/2022 4:45:00 AM 16.41 61.538 0.114 6.74 2.84 8.8
5/29/2022 5:00:00 AM 16.41 61.538 0.114 6.73 2.73 8.8
5/29/2022 5:15:00 AM 16.41 61.538 0.114 6.73 2.8 8.8
5/29/2022 5:30:00 AM 16.4 61.52 0.114 6.74 2.8 8.8
5/29/2022 5:45:00 AM 16.39 61.502 0.114 6.72 2.68 8.81
5/29/2022 6:00:00 AM 16.38 61.484 0.114 6.74 2.67 8.83
5/29/2022 6:15:00 AM 16.37 61.466 0.114 6.73 2.68 8.86
5/29/2022 6:30:00 AM 16.35 61.43 0.114 6.74 2.7 8.91
5/29/2022 6:45:00 AM 16.33 61.394 0.114 6.73 2.7 8.94
5/29/2022 7:00:00 AM 16.32 61.376 0.114 6.75 2.64 9
5/29/2022 7:15:00 AM 16.32 61.376 0.114 6.77 2.55 9.08
5/29/2022 7:30:00 AM 16.33 61.394 0.114 6.78 2.56 9.14
5/29/2022 7:45:00 AM 16.34 61.412 0.114 6.8 2.39 9.22
5/29/2022 8:00:00 AM 16.36 61.448 0.113 6.81 2.5 9.28
5/29/2022 8:15:00 AM 16.38 61.484 0.113 6.83 2.54 9.34
5/29/2022 8:30:00 AM 16.43 61.574 0.113 6.86 2.46 9.44
5/29/2022 8:45:00 AM 16.53 61.754 0.113 6.88 2.46 9.54
5/29/2022 9:00:00 AM 16.5 61.7 0.113 6.89 2.46 9.52
5/29/2022 9:15:00 AM 16.52 61.736 0.113 6.9 2.72 9.55
5/29/2022 9:30:00 AM 16.55 61.79 0.113 6.91 2.52 9.58
5/29/2022 9:45:00 AM 16.59 61.862 0.113 6.92 2.46 9.61
5/29/2022 10:00:00 AM 16.66 61.988 0.112 6.94 2.49 9.66
5/29/2022 10:15:00 AM 16.72 62.096 0.112 6.97 2.51 9.72
5/29/2022 10:30:00 AM 16.78 62.204 0.112 6.99 2.31 9.74
5/29/2022 10:45:00 AM 16.92 62.456 0.112 7 2.32 9.79
5/29/2022 11:00:00 AM 17.05 62.69 0.112 7.03 2.27 9.8
5/29/2022 11:15:00 AM 17.19 62.942 0.112 7.07 2.29 9.83
5/29/2022 11:30:00 AM 17.36 63.248 0.112 7.06 2.35 9.83
5/29/2022 11:45:00 AM 17.56 63.608 0.112 7.11 2.25 9.82
5/29/2022 12:00:00 PM 17.73 63.914 0.112 7.09 2.51 9.8
5/29/2022 12:15:00 PM 17.96 64.328 0.112 7.1 2.68 9.79
5/29/2022 12:30:00 PM 18.26 64.868 0.112 7.12 2.66 9.75
5/29/2022 12:45:00 PM 18.48 65.264 0.112 7.14 2.43 9.71
5/29/2022 1:00:00 PM 18.73 65.714 0.112 7.13 2.42 9.69
5/29/2022 1:15:00 PM 19.03 66.254 0.112 7.14 2.96 9.66
5/29/2022 1:30:00 PM 19.36 66.848 0.112 7.17 2.35 9.65
5/29/2022 1:45:00 PM 19.65 67.37 0.112 7.16 2.26 9.63
5/29/2022 2:00:00 PM 19.91 67.838 0.112 7.2 2.37 9.62
5/29/2022 2:15:00 PM 20.18 68.324 0.112 7.23 2.7 9.61
5/29/2022 2:30:00 PM 20.42 68.756 0.112 7.23 2.31 9.58
5/29/2022 2:45:00 PM 20.63 69.134 0.112 7.24 2.47 9.55
5/29/2022 3:00:00 PM 20.81 69.458 0.112 7.25 2.21 9.53
5/29/2022 3:15:00 PM 20.94 69.692 0.112 7.26 2.06 9.5
5/29/2022 3:30:00 PM 21.02 69.836 0.112 7.25 2.28 9.46
5/29/2022 3:45:00 PM 21.04 69.872 0.112 7.26 2.19 9.43
5/29/2022 4:00:00 PM 21.01 69.818 0.112 7.25 2.13 9.4
5/29/2022 4:15:00 PM 20.92 69.656 0.112 7.24 2.31 9.37
5/29/2022 4:30:00 PM 20.8 69.44 0.113 7.21 2.2 9.33
5/29/2022 4:45:00 PM 20.64 69.152 0.113 7.19 2.21 9.3
5/29/2022 5:00:00 PM 20.41 68.738 0.113 7.17 2.16 9.24
5/29/2022 5:15:00 PM 20.16 68.288 0.113 7.14 2.54 9.17
5/29/2022 5:30:00 PM 19.92 67.856 0.113 7.12 2.51 9.12
5/29/2022 5:45:00 PM 19.61 67.298 0.113 7.06 2.28 9.02
5/29/2022 6:00:00 PM 19.38 66.884 0.114 7.01 2.23 8.98
5/29/2022 6:15:00 PM 19.18 66.524 0.114 6.98 2.96 8.95
5/29/2022 6:30:00 PM 19.01 66.218 0.114 6.96 2.18 8.93
5/29/2022 6:45:00 PM 18.85 65.93 0.114 6.91 2.24 8.89
5/29/2022 7:00:00 PM 18.67 65.606 0.114 6.88 2.27 8.87
5/29/2022 7:15:00 PM 18.5 65.3 0.114 6.85 2.26 8.85
5/29/2022 7:30:00 PM 18.33 64.994 0.114 6.83 2.22 8.84
5/29/2022 7:45:00 PM 18.16 64.688 0.114 6.78 2.16 8.82
5/29/2022 8:00:00 PM 18.01 64.418 0.114 6.76 2.19 8.81
5/29/2022 8:15:00 PM 17.86 64.148 0.114 6.73 2.16 8.78
5/29/2022 8:30:00 PM 17.71 63.878 0.115 6.73 2.26 8.75
5/29/2022 8:45:00 PM 17.57 63.626 0.115 6.71 2.28 8.73
5/29/2022 9:00:00 PM 17.45 63.41 0.115 6.7 2.47 8.71
5/29/2022 9:15:00 PM 17.34 63.212 0.115 6.7 2.45 8.7
5/29/2022 9:30:00 PM 17.24 63.032 0.115 6.7 2.57 8.69
5/29/2022 9:45:00 PM 17.15 62.87 0.115 6.71 2.87 8.69
5/29/2022 10:00:00 PM 17.07 62.726 0.115 6.72 2.57 8.69
5/29/2022 10:15:00 PM 17.01 62.618 0.115 6.73 2.51 8.69
5/29/2022 10:30:00 PM 16.95 62.51 0.115 6.73 2.55 8.69
5/29/2022 10:45:00 PM 16.9 62.42 0.115 6.73 2.68 8.7
5/29/2022 11:00:00 PM 16.85 62.33 0.119 6.74 2.54 8.7
5/29/2022 11:15:00 PM 16.82 62.276 0.115 6.74 2.61 8.69
5/29/2022 11:30:00 PM 16.79 62.222 0.115 6.74 2.61 8.69
5/29/2022 11:45:00 PM 16.78 62.204 0.115 6.75 2.62 8.7
5/30/2022 12:00:00 AM 16.77 62.186 0.115 6.75 2.51 8.69
5/30/2022 12:15:00 AM 16.77 62.186 0.115 6.73 2.59 8.69
5/30/2022 12:30:00 AM 16.79 62.222 0.115 6.75 2.68 8.67
5/30/2022 12:45:00 AM 16.81 62.258 0.115 6.75 2.5 8.67
5/30/2022 1:00:00 AM 16.85 62.33 0.115 6.75 2.55 8.65
5/30/2022 1:15:00 AM 16.87 62.366 0.115 6.75 2.56 8.65
5/30/2022 1:30:00 AM 16.91 62.438 0.115 6.74 2.74 8.63
5/30/2022 1:45:00 AM 16.95 62.51 0.115 6.75 2.52 8.62
5/30/2022 2:00:00 AM 16.99 62.582 0.115 6.75 3.01 8.61
5/30/2022 2:15:00 AM 17.03 62.654 0.115 6.76 2.91 8.6
5/30/2022 2:30:00 AM 17.06 62.708 0.115 6.76 2.79 8.59
5/30/2022 2:45:00 AM 17.08 62.744 0.115 6.75 2.74 8.59
5/30/2022 3:00:00 AM 17.1 62.78 0.115 6.76 3.07 8.58
5/30/2022 3:15:00 AM 17.1 62.78 0.115 6.75 2.6 8.58
5/30/2022 3:30:00 AM 17.11 62.798 0.115 6.74 2.72 8.58
5/30/2022 3:45:00 AM 17.1 62.78 0.115 6.73 2.74 8.58
5/30/2022 4:00:00 AM 17.1 62.78 0.115 6.75 2.66 8.58
5/30/2022 4:15:00 AM 17.09 62.762 0.114 6.76 2.72 8.58
5/30/2022 4:30:00 AM 17.09 62.762 0.115 6.75 2.76 8.58
5/30/2022 4:45:00 AM 17.08 62.744 0.115 6.75 3.05 8.59
5/30/2022 5:00:00 AM 17.07 62.726 0.115 6.76 2.94 8.59
5/30/2022 5:15:00 AM 17.07 62.726 0.115 6.75 2.99 8.59
5/30/2022 5:30:00 AM 17.07 62.726 0.115 6.75 2.93 8.59
5/30/2022 5:45:00 AM 17.06 62.708 0.114 6.74 2.88 8.6
5/30/2022 6:00:00 AM 17.06 62.708 0.115 6.74 2.83 8.62
5/30/2022 6:15:00 AM 17.05 62.69 0.115 6.76 2.8 8.65
5/30/2022 6:30:00 AM 17.05 62.69 0.115 6.77 2.41 8.69
5/30/2022 6:45:00 AM 17.05 62.69 0.114 6.76 3.01 8.74
5/30/2022 7:00:00 AM 17.03 62.654 0.114 6.75 2.74 8.79
5/30/2022 7:15:00 AM 17.05 62.69 0.114 6.79 2.74 8.87
5/30/2022 7:30:00 AM 17.05 62.69 0.114 6.79 2.66 8.92
5/30/2022 7:45:00 AM 17.07 62.726 0.114 6.82 2.68 9
5/30/2022 8:00:00 AM 17.09 62.762 0.114 6.83 2.58 9.04
5/30/2022 8:15:00 AM 17.1 62.78 0.114 6.83 2.64 9.07
5/30/2022 8:30:00 AM 17.14 62.852 0.114 6.85 2.65 9.11
5/30/2022 8:45:00 AM 17.19 62.942 0.114 6.86 2.64 9.15
5/30/2022 9:00:00 AM 17.24 63.032 0.114 6.86 2.59 9.2
5/30/2022 9:15:00 AM 17.3 63.14 0.113 6.87 2.56 9.24
5/30/2022 9:30:00 AM 17.36 63.248 0.113 6.9 2.61 9.27
5/30/2022 9:45:00 AM 17.43 63.374 0.113 6.89 2.52 9.3
5/30/2022 10:00:00 AM 17.53 63.554 0.113 6.91 2.57 9.34
5/30/2022 10:15:00 AM 17.64 63.752 0.113 6.94 2.56 9.38
5/30/2022 10:30:00 AM 17.75 63.95 0.113 6.94 2.9 9.41
5/30/2022 10:45:00 AM 17.87 64.166 0.113 6.95 2.54 9.42
5/30/2022 11:00:00 AM 18.04 64.472 0.113 6.99 2.54 9.44
5/30/2022 11:15:00 AM 18.24 64.832 0.113 7.02 2.45 9.45
5/30/2022 11:30:00 AM 18.46 65.228 0.113 7.02 2.5 9.47
5/30/2022 11:45:00 AM 18.71 65.67799 0.112 7.06 2.42 9.46
5/30/2022 12:00:00 PM 18.99 66.182 0.112 7.08 2.82 9.46
5/30/2022 12:15:00 PM 19.3 66.74 0.113 7.07 2.72 9.46
5/30/2022 12:30:00 PM 19.62 67.316 0.112 7.1 2.3 9.45
5/30/2022 12:45:00 PM 19.96 67.92799 0.112 7.11 2.24 9.44
5/30/2022 1:00:00 PM 20.31 68.558 0.112 7.14 2.31 9.42
5/30/2022 1:15:00 PM 20.68 69.224 0.112 7.18 2.24 9.42
5/30/2022 1:30:00 PM 21.04 69.872 0.112 7.2 2.28 9.4
5/30/2022 1:45:00 PM 21.4 70.52 0.112 7.22 2.36 9.37
5/30/2022 2:00:00 PM 21.73 71.114 0.112 7.23 2.31 9.35
5/30/2022 2:15:00 PM 22.05 71.69 0.113 7.24 2.21 9.33
5/30/2022 2:30:00 PM 22.33 72.194 0.112 7.27 3.19 9.3
5/30/2022 2:45:00 PM 22.57 72.626 0.113 7.28 2.71 9.28
5/30/2022 3:00:00 PM 22.76 72.968 0.112 7.29 2.33 9.25
5/30/2022 3:15:00 PM 22.91 73.238 0.113 7.29 2.24 9.23
5/30/2022 3:30:00 PM 22.99 73.382 0.113 7.29 2.15 9.19
5/30/2022 3:45:00 PM 22.91 73.238 0.113 7.29 2.16 9.14
5/30/2022 4:00:00 PM 22.83 73.094 0.113 7.28 3.01 9.1
5/30/2022 4:15:00 PM 22.71 72.878 0.113 7.26 2.25 9.07
5/30/2022 4:30:00 PM 22.66 72.788 0.114 7.25 2.57 9.08
5/30/2022 4:45:00 PM 22.51 72.518 0.114 7.22 2.58 9.05
5/30/2022 5:00:00 PM 22.27 72.086 0.114 7.19 2.71 9
5/30/2022 5:15:00 PM 21.97 71.546 0.114 7.15 2.67 8.95
5/30/2022 5:30:00 PM 21.63 70.934 0.114 7.13 2.66 8.86
5/30/2022 5:45:00 PM 21.28 70.304 0.115 7.07 2.74 8.75
5/30/2022 6:00:00 PM 21.02 69.836 0.115 7.02 2.72 8.67
5/30/2022 6:15:00 PM 20.79 69.422 0.115 6.98 2.73 8.62
5/30/2022 6:30:00 PM 20.63 69.134 0.115 6.96 2.16 8.58
5/30/2022 6:45:00 PM 20.47 68.846 0.116 6.93 2.28 8.56
5/30/2022 7:00:00 PM 20.32 68.576 0.116 6.87 2.22 8.53
5/30/2022 7:15:00 PM 20.16 68.288 0.116 6.86 2.13 8.48
5/30/2022 7:30:00 PM 20 68 0.116 6.82 2.15 8.46
5/30/2022 7:45:00 PM 19.84 67.712 0.117 6.8 2.11 8.44
5/30/2022 8:00:00 PM 19.68 67.424 0.117 6.76 2.18 8.43
5/30/2022 8:15:00 PM 19.52 67.136 0.117 6.75 2.26 8.4
5/30/2022 8:30:00 PM 19.36 66.848 0.117 6.74 2.21 8.37
5/30/2022 8:45:00 PM 19.21 66.578 0.117 6.72 2.26 8.34
5/30/2022 9:00:00 PM 19.05 66.29 0.118 6.71 2.19 8.33
5/30/2022 9:15:00 PM 18.91 66.038 0.118 6.71 2.61 8.32
5/30/2022 9:30:00 PM 18.79 65.82201 0.118 6.69 2.56 8.32
5/30/2022 9:45:00 PM 18.69 65.642 0.118 6.71 2.55 8.31
5/30/2022 10:00:00 PM 18.61 65.498 0.118 6.71 2.61 8.31
5/30/2022 10:15:00 PM 18.55 65.39 0.118 6.72 2.48 8.3
5/30/2022 10:30:00 PM 18.5 65.3 0.118 6.72 2.47 8.31
5/30/2022 10:45:00 PM 18.46 65.228 0.118 6.72 2.58 8.31
5/30/2022 11:00:00 PM 18.41 65.138 0.118 6.73 2.48 8.31
5/30/2022 11:15:00 PM 18.36 65.048 0.118 6.73 2.53 8.32
5/30/2022 11:30:00 PM 18.31 64.958 0.118 6.73 2.48 8.32
5/30/2022 11:45:00 PM 18.26 64.868 0.118 6.73 2.47 8.33
5/31/2022 12:00:00 AM 18.22 64.796 0.118 6.73 2.5 8.33
5/31/2022 12:15:00 AM 18.18 64.724 0.118 6.73 2.5 8.34
5/31/2022 12:30:00 AM 18.14 64.652 0.118 6.72 2.51 8.34
5/31/2022 12:45:00 AM 18.12 64.616 0.118 6.74 2.55 8.34
5/31/2022 1:00:00 AM 18.11 64.598 0.118 6.73 2.57 8.34
5/31/2022 1:15:00 AM 18.11 64.598 0.118 6.74 2.37 8.34
5/31/2022 1:30:00 AM 18.12 64.616 0.118 6.74 2.41 8.34
5/31/2022 1:45:00 AM 18.13 64.634 0.118 6.73 2.49 8.33
5/31/2022 2:00:00 AM 18.15 64.67 0.118 6.75 2.51 8.32
5/31/2022 2:15:00 AM 18.17 64.706 0.118 6.76 2.68 8.32
5/31/2022 2:30:00 AM 18.18 64.724 0.118 6.77 2.42 8.31
5/31/2022 2:45:00 AM 18.2 64.76 0.118 6.77 2.46 8.31
5/31/2022 3:00:00 AM 18.21 64.778 0.118 6.77 2.47 8.3
5/31/2022 3:15:00 AM 18.23 64.814 0.118 6.76 2.57 8.29
5/31/2022 3:30:00 AM 18.26 64.868 0.118 6.76 2.49 8.28
5/31/2022 3:45:00 AM 18.28 64.904 0.118 6.77 2.52 8.28
5/31/2022 4:00:00 AM 18.3 64.94 0.118 6.76 2.62 8.27
5/31/2022 4:15:00 AM 18.33 64.994 0.118 6.75 2.45 8.26
5/31/2022 4:30:00 AM 18.35 65.03 0.118 6.77 2.65 8.26
5/31/2022 4:45:00 AM 18.37 65.066 0.118 6.76 2.51 8.25
5/31/2022 5:00:00 AM 18.38 65.084 0.118 6.76 2.47 8.25
5/31/2022 5:15:00 AM 18.4 65.12 0.118 6.77 2.6 8.25
5/31/2022 5:30:00 AM 18.41 65.138 0.117 6.78 2.53 8.25
5/31/2022 5:45:00 AM 18.42 65.156 0.117 6.77 2.45 8.25
5/31/2022 6:00:00 AM 18.42 65.156 0.118 6.77 2.31 8.27
5/31/2022 6:15:00 AM 18.42 65.156 0.118 6.78 2.39 8.3
5/31/2022 6:30:00 AM 18.42 65.156 0.118 6.78 2.26 8.34
5/31/2022 6:45:00 AM 18.42 65.156 0.118 6.79 2.35 8.38
5/31/2022 7:00:00 AM 18.41 65.138 0.118 6.8 2.33 8.43
5/31/2022 7:15:00 AM 18.41 65.138 0.118 6.8 2.41 8.48
5/31/2022 7:30:00 AM 18.41 65.138 0.118 6.81 2.3 8.53
5/31/2022 7:45:00 AM 18.42 65.156 0.118 6.82 2.37 8.6
5/31/2022 8:00:00 AM 18.44 65.192 0.118 6.83 2.27 8.65
5/31/2022 8:15:00 AM 18.48 65.264 0.117 6.85 2.26 8.71
5/31/2022 8:30:00 AM 18.54 65.372 0.117 6.85 2.2 8.76
5/31/2022 8:45:00 AM 18.6 65.48 0.117 6.88 2.17 8.81
5/31/2022 9:00:00 AM 18.67 65.606 0.117 6.88 2.17 8.84
5/31/2022 9:15:00 AM 18.74 65.732 0.117 6.9 2.11 8.87
5/31/2022 9:30:00 AM 18.82 65.876 0.117 6.9 2.11 8.9
5/31/2022 9:45:00 AM 18.9 66.02 0.117 6.92 2.21 8.93
5/31/2022 10:00:00 AM 18.98 66.164 0.117 6.94 2.15 8.96
5/31/2022 10:15:00 AM 19.08 66.344 0.117 6.94 2.05 8.99
5/31/2022 10:30:00 AM 19.2 66.56 0.117 6.96 2.06 9.02
5/31/2022 10:45:00 AM 19.34 66.812 0.117 6.98 2.17 9.05
5/31/2022 11:00:00 AM 19.51 67.118 0.117 6.99 2.17 9.08
5/31/2022 11:15:00 AM 19.7 67.46 0.117 7.01 2.16 9.12
5/31/2022 11:30:00 AM 19.92 67.856 0.117 7.06 2.33 9.16
5/31/2022 11:45:00 AM 20.11 68.198 0.117 7.06 2.31 9.18
5/31/2022 12:00:00 PM 20.32 68.576 0.116 7.06 2.2 9.18
5/31/2022 12:15:00 PM 20.63 69.134 0.116 7.11 2.08 9.23
5/31/2022 12:30:00 PM 21.01 69.818 0.116 7.12 2.27 9.22
5/31/2022 12:45:00 PM 21.3 70.34 0.116 7.15 2.1 9.21
5/31/2022 1:00:00 PM 21.6 70.88 0.116 7.17 1.98 9.19
5/31/2022 1:15:00 PM 21.94 71.492 0.116 7.2 2.04 9.18
5/31/2022 1:30:00 PM 22.23 72.014 0.116 7.22 1.99 9.15
5/31/2022 1:45:00 PM 22.29 72.122 0.116 7.21 2.06 9.08
5/31/2022 2:00:00 PM 22.34 72.212 0.117 7.23 2.13 9.08
5/31/2022 2:15:00 PM 22.58 72.644 0.117 7.24 2.07 9.08
5/31/2022 2:30:00 PM 22.66 72.788 0.117 7.24 1.98 9.03
5/31/2022 2:45:00 PM 22.85 73.13 0.117 7.27 2.07 9.06
5/31/2022 3:00:00 PM 23.09 73.562 0.117 7.29 1.95 9.09
5/31/2022 3:15:00 PM 23.29 73.922 0.117 7.33 2.04 9.12
5/31/2022 3:30:00 PM 23.55 74.39 0.117 7.34 2.1 9.12
5/31/2022 3:45:00 PM 23.63 74.534 0.118 7.35 2.21 9.08
5/31/2022 4:00:00 PM 23.54 74.372 0.118 7.34 1.95 9.03
5/31/2022 4:15:00 PM 23.49 74.282 0.118 7.33 1.99 9.01
5/31/2022 4:30:00 PM 23.53 74.354 0.118 7.33 2.03 9.01
5/31/2022 4:45:00 PM 23.46 74.228 0.119 7.32 2.12 8.99
5/31/2022 5:00:00 PM 23.27 73.886 0.119 7.31 2.01 8.92
5/31/2022 5:15:00 PM 23.04 73.472 0.119 7.28 2.09 8.84
5/31/2022 5:30:00 PM 22.75 72.95 0.12 7.22 2.16 8.73
5/31/2022 5:45:00 PM 22.45 72.41 0.12 7.18 1.95 8.56
5/31/2022 6:00:00 PM 22.27 72.086 0.12 7.11 2.05 8.43
5/31/2022 6:15:00 PM 22.2 71.96 0.12 7.06 1.98 8.34
5/31/2022 6:30:00 PM 22.19 71.942 0.12 7.06 2 8.27
5/31/2022 6:45:00 PM 22.19 71.942 0.12 7.04 1.96 8.21
5/31/2022 7:00:00 PM 22.2 71.96 0.12 7.01 2.08 8.16
5/31/2022 7:15:00 PM 22.17 71.906 0.12 6.98 2.02 8.08
5/31/2022 7:30:00 PM 22.11 71.798 0.12 6.96 2.07 8.02
5/31/2022 7:45:00 PM 22 71.6 0.12 6.95 2 7.98
5/31/2022 8:00:00 PM 21.88 71.384 0.12 6.92 1.99 7.94
5/31/2022 8:15:00 PM 21.74 71.132 0.121 6.89 1.98 7.89
5/31/2022 8:30:00 PM 21.6 70.88 0.121 6.88 2.08 7.85
5/31/2022 8:45:00 PM 21.46 70.628 0.121 6.86 2.25 7.81
5/31/2022 9:00:00 PM 21.33 70.394 0.121 6.84 2.31 7.78
5/31/2022 9:15:00 PM 21.2 70.16 0.121 6.82 2.4 7.76
5/31/2022 9:30:00 PM 21.08 69.944 0.121 6.8 2.6 7.75
5/31/2022 9:45:00 PM 20.97 69.746 0.121 6.78 2.59 7.75
5/31/2022 10:00:00 PM 20.86 69.548 0.121 6.77 2.47 7.76
5/31/2022 10:15:00 PM 20.76 69.368 0.122 6.76 2.39 7.76
5/31/2022 10:30:00 PM 20.66 69.188 0.122 6.75 2.9 7.78
5/31/2022 10:45:00 PM 20.55 68.99 0.122 6.75 2.71 7.78
5/31/2022 11:00:00 PM 20.45 68.81 0.122 6.74 2.49 7.8
5/31/2022 11:15:00 PM 20.35 68.63 0.122 6.73 2.46 7.82
5/31/2022 11:30:00 PM 20.25 68.45 0.122 6.72 2.69 7.84
5/31/2022 11:45:00 PM 20.15 68.27 0.122 6.74 2.8 7.85
6/1/2022 12:00:00 AM 20.05 68.09 0.122 6.73 2.78 7.86
6/1/2022 12:15:00 AM 19.96 67.92799 0.122 6.73 2.69 7.89
6/1/2022 12:30:00 AM 19.86 67.748 0.122 6.72 3 7.91
6/1/2022 12:45:00 AM 19.77 67.586 0.122 6.73 2.68 7.93
6/1/2022 1:00:00 AM 19.68 67.424 0.122 6.73 2.7 7.94
6/1/2022 1:15:00 AM 19.59 67.262 0.122 6.73 2.76 7.96
6/1/2022 1:30:00 AM 19.52 67.136 0.122 6.72 2.91 7.97
6/1/2022 1:45:00 AM 19.45 67.01 0.122 6.72 2.71 7.99
6/1/2022 2:00:00 AM 19.38 66.884 0.122 6.72 2.82 8.01
6/1/2022 2:15:00 AM 19.33 66.794 0.122 6.72 2.81 8.02
6/1/2022 2:30:00 AM 19.28 66.704 0.122 6.73 2.82 8.03
6/1/2022 2:45:00 AM 19.24 66.632 0.122 6.73 2.56 8.04
6/1/2022 3:00:00 AM 19.2 66.56 0.122 6.74 2.6 8.04
6/1/2022 3:15:00 AM 19.17 66.506 0.122 6.73 2.71 8.05
6/1/2022 3:30:00 AM 19.14 66.452 0.122 6.74 2.63 8.05
6/1/2022 3:45:00 AM 19.13 66.434 0.122 6.74 2.79 8.06
6/1/2022 4:00:00 AM 19.1 66.38 0.122 6.74 2.63 8.05
6/1/2022 4:15:00 AM 19.09 66.362 0.122 6.74 2.72 8.05
6/1/2022 4:30:00 AM 19.07 66.326 0.122 6.76 2.7 8.05
6/1/2022 4:45:00 AM 19.05 66.29 0.123 6.75 2.88 8.06
6/1/2022 5:00:00 AM 19.03 66.254 0.123 6.76 2.79 8.07
6/1/2022 5:15:00 AM 19.01 66.218 0.123 6.75 2.9 8.08
6/1/2022 5:30:00 AM 18.99 66.182 0.123 6.75 2.56 8.07
6/1/2022 5:45:00 AM 18.97 66.146 0.123 6.76 2.48 8.09
6/1/2022 6:00:00 AM 18.95 66.11 0.123 6.76 2.59 8.11
6/1/2022 6:15:00 AM 18.94 66.092 0.123 6.76 2.99 8.14
6/1/2022 6:30:00 AM 18.94 66.092 0.123 6.78 3.16 8.18
6/1/2022 6:45:00 AM 18.93 66.074 0.123 6.79 2.56 8.23
6/1/2022 7:00:00 AM 18.93 66.074 0.123 6.8 2.73 8.27
6/1/2022 7:15:00 AM 18.92 66.056 0.123 6.81 2.62 8.31
6/1/2022 7:30:00 AM 18.93 66.074 0.122 6.82 2.81 8.36
6/1/2022 7:45:00 AM 18.98 66.164 0.122 6.85 2.31 8.43
6/1/2022 8:00:00 AM 19.03 66.254 0.122 6.85 2.45 8.49
6/1/2022 8:15:00 AM 19.09 66.362 0.122 6.87 2.23 8.56
6/1/2022 8:30:00 AM 19.17 66.506 0.122 6.88 2.41 8.61
6/1/2022 8:45:00 AM 19.26 66.668 0.122 6.9 2.56 8.65
6/1/2022 9:00:00 AM 19.34 66.812 0.122 6.92 2.31 8.7
6/1/2022 9:15:00 AM 19.43 66.974 0.122 6.94 2.61 8.73
6/1/2022 9:30:00 AM 19.53 67.154 0.122 6.95 2.39 8.77
6/1/2022 9:45:00 AM 19.62 67.316 0.122 6.97 2.46 8.81
6/1/2022 10:00:00 AM 19.72 67.496 0.122 6.99 2.25 8.85
6/1/2022 10:15:00 AM 19.82 67.676 0.122 7.01 2.29 8.91
6/1/2022 10:30:00 AM 19.93 67.874 0.122 7.01 2.21 8.96
6/1/2022 10:45:00 AM 20.08 68.144 0.121 7.06 2.1 9.04
6/1/2022 11:00:00 AM 20.24 68.432 0.121 7.09 2.12 9.11
6/1/2022 11:15:00 AM 20.41 68.738 0.121 7.11 2.2 9.17
6/1/2022 11:30:00 AM 20.56 69.008 0.121 7.14 2.15 9.19
6/1/2022 11:45:00 AM 20.78 69.404 0.121 7.17 2.46 9.2
6/1/2022 12:00:00 PM 21.04 69.872 0.121 7.18 2.26 9.22
6/1/2022 12:15:00 PM 21.33 70.394 0.121 7.22 2.07 9.23
6/1/2022 12:30:00 PM 21.59 70.862 0.121 7.23 2.09 9.23
6/1/2022 12:45:00 PM 21.79 71.222 0.121 7.24 2.47 9.21
6/1/2022 1:00:00 PM 22.09 71.762 0.121 7.26 2.11 9.21
6/1/2022 1:15:00 PM 22.37 72.266 0.121 7.27 2.02 9.2
6/1/2022 1:30:00 PM 22.5 72.5 0.121 7.3 2.02 9.17
6/1/2022 1:45:00 PM 22.77 72.986 0.121 7.34 2.07 9.19
6/1/2022 2:00:00 PM 22.79 73.022 0.121 7.33 2.05 9.09
6/1/2022 2:15:00 PM 23.13 73.634 0.121 7.35 2 9.13
6/1/2022 2:30:00 PM 23.43 74.174 0.122 7.37 1.95 9.1
6/1/2022 2:45:00 PM 23.5 74.3 0.121 7.37 2.2 9.01
6/1/2022 3:00:00 PM 23.71 74.67799 0.122 7.39 1.99 9.03
6/1/2022 3:15:00 PM 23.89 75.002 0.121 7.41 2.13 9.02
6/1/2022 3:30:00 PM 23.8 74.84 0.122 7.4 1.95 8.97
6/1/2022 3:45:00 PM 23.71 74.67799 0.122 7.39 2.01 8.92
6/1/2022 4:00:00 PM 23.78 74.804 0.122 7.4 2.02 8.97
6/1/2022 4:15:00 PM 23.7 74.66 0.123 7.4 2.05 8.96
6/1/2022 4:30:00 PM 23.59 74.462 0.122 7.41 2.08 8.96
6/1/2022 4:45:00 PM 23.51 74.318 0.122 7.41 2 8.96
6/1/2022 5:00:00 PM 23.31 73.958 0.123 7.38 2.32 8.91
6/1/2022 5:15:00 PM 23.05 73.49 0.123 7.34 2.04 8.83
6/1/2022 5:30:00 PM 22.78 73.004 0.124 7.28 2.16 8.73
6/1/2022 5:45:00 PM 22.55 72.59 0.125 7.2 2.1 8.51
6/1/2022 6:00:00 PM 22.38 72.284 0.125 7.14 2.49 8.36
6/1/2022 6:15:00 PM 22.26 72.068 0.124 7.11 2.39 8.4
6/1/2022 6:30:00 PM 22.16 71.888 0.124 7.11 2.28 8.45
6/1/2022 6:45:00 PM 22.03 71.654 0.124 7.11 2.13 8.45
6/1/2022 7:00:00 PM 21.88 71.384 0.124 7.06 2.31 8.35
6/1/2022 7:15:00 PM 21.73 71.114 0.124 7.05 2.14 8.28
6/1/2022 7:30:00 PM 21.58 70.844 0.124 7.01 2.15 8.19
6/1/2022 7:45:00 PM 21.45 70.61 0.124 6.98 2.33 8.08
6/1/2022 8:00:00 PM 21.33 70.394 0.125 6.94 2.28 8.01
6/1/2022 8:15:00 PM 21.22 70.196 0.125 6.92 2.37 7.93
6/1/2022 8:30:00 PM 21.13 70.034 0.125 6.9 2.18 7.88
6/1/2022 8:45:00 PM 21.03 69.854 0.125 6.88 2.27 7.83
6/1/2022 9:00:00 PM 20.94 69.692 0.125 6.85 2.48 7.8
6/1/2022 9:15:00 PM 20.84 69.512 0.125 6.84 2.45 7.77
6/1/2022 9:30:00 PM 20.74 69.332 0.125 6.81 2.46 7.76
6/1/2022 9:45:00 PM 20.64 69.152 0.125 6.79 2.61 7.75
6/1/2022 10:00:00 PM 20.55 68.99 0.125 6.78 2.59 7.75
6/1/2022 10:15:00 PM 20.47 68.846 0.125 6.78 2.73 7.75
6/1/2022 10:30:00 PM 20.41 68.738 0.125 6.77 2.63 7.76
6/1/2022 10:45:00 PM 20.35 68.63 0.126 6.77 2.49 7.76
6/1/2022 11:00:00 PM 20.3 68.54 0.126 6.76 2.57 7.76
6/1/2022 11:15:00 PM 20.26 68.468 0.126 6.76 2.77 7.77
6/1/2022 11:30:00 PM 20.22 68.396 0.126 6.76 2.74 7.77
6/1/2022 11:45:00 PM 20.18 68.324 0.126 6.75 2.61 7.77
6/2/2022 12:00:00 AM 20.14 68.252 0.126 6.75 2.71 7.77
6/2/2022 12:15:00 AM 20.1 68.18 0.126 6.75 2.59 7.78
6/2/2022 12:30:00 AM 20.04 68.07201 0.126 6.77 2.72 7.78
6/2/2022 12:45:00 AM 19.99 67.982 0.127 6.76 2.64 7.79
6/2/2022 1:00:00 AM 19.93 67.874 0.127 6.77 2.81 7.8
6/2/2022 1:15:00 AM 19.88 67.784 0.127 6.77 2.57 7.8
6/2/2022 1:30:00 AM 19.84 67.712 0.127 6.76 2.6 7.81
6/2/2022 1:45:00 AM 19.8 67.64 0.127 6.77 2.59 7.82
6/2/2022 2:00:00 AM 19.76 67.568 0.127 6.77 2.47 7.83
6/2/2022 2:15:00 AM 19.74 67.532 0.127 6.76 2.59 7.84
6/2/2022 2:30:00 AM 19.72 67.496 0.127 6.77 2.5 7.84
6/2/2022 2:45:00 AM 19.71 67.478 0.127 6.76 2.53 7.84
6/2/2022 3:00:00 AM 19.71 67.478 0.127 6.76 2.47 7.84
6/2/2022 3:15:00 AM 19.71 67.478 0.127 6.76 2.47 7.84
6/2/2022 3:30:00 AM 19.71 67.478 0.127 6.77 2.53 7.84
6/2/2022 3:45:00 AM 19.73 67.514 0.127 6.76 2.65 7.84
6/2/2022 4:00:00 AM 19.74 67.532 0.127 6.77 2.59 7.83
6/2/2022 4:15:00 AM 19.76 67.568 0.127 6.76 2.96 7.79
6/2/2022 4:30:00 AM 19.77 67.586 0.127 6.76 2.88 7.78
6/2/2022 4:45:00 AM 19.79 67.622 0.127 6.76 2.76 7.78
6/2/2022 5:00:00 AM 19.81 67.658 0.127 6.75 2.81 7.77
6/2/2022 5:15:00 AM 19.83 67.694 0.128 6.76 2.69 7.77
6/2/2022 5:30:00 AM 19.84 67.712 0.128 6.76 2.54 7.77
6/2/2022 5:45:00 AM 19.85 67.73 0.128 6.76 2.48 7.77
6/2/2022 6:00:00 AM 19.86 67.748 0.128 6.76 2.51 7.78
6/2/2022 6:15:00 AM 19.87 67.766 0.128 6.77 2.41 7.8
6/2/2022 6:30:00 AM 19.88 67.784 0.128 6.78 2.33 7.84
6/2/2022 6:45:00 AM 19.89 67.802 0.127 6.77 2.43 7.9
6/2/2022 7:00:00 AM 19.9 67.82 0.127 6.8 2.33 7.93
6/2/2022 7:15:00 AM 19.92 67.856 0.127 6.81 2.33 8.02
6/2/2022 7:30:00 AM 19.93 67.874 0.127 6.82 2.29 8.08
6/2/2022 7:45:00 AM 19.95 67.91 0.127 6.84 2.28 8.16
6/2/2022 8:00:00 AM 19.97 67.946 0.127 6.83 2.4 8.25
6/2/2022 8:15:00 AM 19.99 67.982 0.126 6.86 2.41 8.35
6/2/2022 8:30:00 AM 20.02 68.036 0.126 6.88 2.32 8.47
6/2/2022 8:45:00 AM 20.06 68.108 0.126 6.91 2.33 8.6
6/2/2022 9:00:00 AM 20.09 68.162 0.126 6.93 2.81 8.67
6/2/2022 9:15:00 AM 20.11 68.198 0.126 6.95 2.26 8.74
6/2/2022 9:30:00 AM 20.14 68.252 0.126 6.98 2.25 8.83
6/2/2022 9:45:00 AM 20.18 68.324 0.126 7 2.33 8.92
6/2/2022 10:00:00 AM 20.22 68.396 0.126 7.03 2.26 8.97
6/2/2022 10:15:00 AM 20.23 68.414 0.126 7.04 2.41 8.99
6/2/2022 10:30:00 AM 20.25 68.45 0.126 7.05 2.34 9.03
6/2/2022 10:45:00 AM 20.29 68.522 0.126 7.07 2.31 9.09
6/2/2022 11:00:00 AM 20.33 68.594 0.126 7.1 2.33 9.14
6/2/2022 11:15:00 AM 20.41 68.738 0.126 7.12 2.3 9.2
6/2/2022 11:30:00 AM 20.45 68.81 0.126 7.15 2.33 9.2
6/2/2022 11:45:00 AM 20.49 68.882 0.126 7.16 2.32 9.2
6/2/2022 12:00:00 PM 20.48 68.864 0.126 7.16 2.18 9.13
6/2/2022 12:15:00 PM 20.42 68.756 0.126 7.1 2.16 8.92
6/2/2022 12:30:00 PM 20.38 68.684 0.126 7.07 2.18 8.79
6/2/2022 12:45:00 PM 20.44 68.792 0.126 7.08 2.27 8.89
6/2/2022 1:00:00 PM 20.59 69.062 0.126 7.14 2.32 9.06
6/2/2022 1:15:00 PM 20.69 69.242 0.126 7.17 2.21 9.12
6/2/2022 1:30:00 PM 20.71 69.278 0.126 7.17 2.17 9.05
6/2/2022 1:45:00 PM 20.7 69.26 0.126 7.14 2.11 8.96
6/2/2022 2:00:00 PM 20.79 69.422 0.125 7.18 2.24 9.02
6/2/2022 2:15:00 PM 20.93 69.674 0.125 7.2 2.21 9.11
6/2/2022 2:30:00 PM 21.11 69.998 0.125 7.24 2.27 9.17
6/2/2022 2:45:00 PM 21.12 70.016 0.125 7.22 2.18 9.08
6/2/2022 3:00:00 PM 21.14 70.052 0.125 7.23 2.24 9.08
6/2/2022 3:15:00 PM 21.33 70.394 0.125 7.27 2.35 9.17
6/2/2022 3:30:00 PM 21.42 70.556 0.125 7.31 2.12 9.19
6/2/2022 3:45:00 PM 21.41 70.538 0.125 7.32 2.14 9.18
6/2/2022 4:00:00 PM 21.49 70.682 0.125 7.33 2.22 9.19
6/2/2022 4:15:00 PM 21.83 71.294 0.125 7.36 2.12 9.23
6/2/2022 4:30:00 PM 21.92 71.456 0.125 7.36 2.08 9.2
6/2/2022 4:45:00 PM 21.87 71.366 0.125 7.35 2.18 9.14
6/2/2022 5:00:00 PM 21.89 71.402 0.126 7.35 2.04 9.12
6/2/2022 5:15:00 PM 21.9 71.42 0.126 7.33 2.2 9.07
6/2/2022 5:30:00 PM 21.72 71.096 0.126 7.29 2.15 8.95
6/2/2022 5:45:00 PM 21.45 70.61 0.127 7.23 2.14 8.78
6/2/2022 6:00:00 PM 21.22 70.196 0.127 7.19 2.13 8.7
6/2/2022 6:15:00 PM 21.11 69.998 0.127 7.16 2.08 8.67
6/2/2022 6:30:00 PM 21.02 69.836 0.127 7.14 2.1 8.6
6/2/2022 6:45:00 PM 20.96 69.728 0.127 7.12 2.11 8.56
6/2/2022 7:00:00 PM 20.91 69.638 0.127 7.09 2.13 8.5
6/2/2022 7:15:00 PM 20.86 69.548 0.127 7.07 2.12 8.46
6/2/2022 7:30:00 PM 20.8 69.44 0.127 7.04 2.09 8.39
6/2/2022 7:45:00 PM 20.74 69.332 0.128 7.02 2.17 8.28
6/2/2022 8:00:00 PM 20.68 69.224 0.128 6.98 2.13 8.2
6/2/2022 8:15:00 PM 20.62 69.116 0.128 6.97 2.13 8.1
6/2/2022 8:30:00 PM 20.58 69.044 0.128 6.93 2.17 8.02
6/2/2022 8:45:00 PM 20.55 68.99 0.128 6.91 2.22 7.94
6/2/2022 9:00:00 PM 20.55 68.99 0.128 6.9 2.6 7.89
6/2/2022 9:15:00 PM 20.56 69.008 0.128 6.88 2.44 7.83
6/2/2022 9:30:00 PM 20.57 69.026 0.128 6.87 2.68 7.78
6/2/2022 9:45:00 PM 20.57 69.026 0.128 6.84 2.68 7.74
6/2/2022 10:00:00 PM 20.57 69.026 0.129 6.84 2.58 7.72
6/2/2022 10:15:00 PM 20.56 69.008 0.129 6.84 2.56 7.71
6/2/2022 10:30:00 PM 20.51 68.918 0.129 6.85 2.7 7.68
6/2/2022 10:45:00 PM 20.47 68.846 0.129 6.84 2.53 7.69
6/2/2022 11:00:00 PM 20.4 68.72 0.129 6.84 2.37 7.7
6/2/2022 11:15:00 PM 20.33 68.594 0.129 6.82 2.68 7.7
6/2/2022 11:30:00 PM 20.25 68.45 0.13 6.82 2.58 7.72
6/2/2022 11:45:00 PM 20.15 68.27 0.13 6.81 2.53 7.74
6/3/2022 12:00:00 AM 20.03 68.054 0.13 6.8 2.47 7.77
6/3/2022 12:15:00 AM 19.92 67.856 0.13 6.8 2.57 7.8
6/3/2022 12:30:00 AM 19.8 67.64 0.13 6.82 2.48 7.81
6/3/2022 12:45:00 AM 19.69 67.442 0.13 6.81 2.52 7.85
6/3/2022 1:00:00 AM 19.59 67.262 0.13 6.81 2.43 7.87
6/3/2022 1:15:00 AM 19.52 67.136 0.13 6.79 2.52 7.89
6/3/2022 1:30:00 AM 19.44 66.992 0.13 6.78 2.51 7.9
6/3/2022 1:45:00 AM 19.36 66.848 0.13 6.78 2.53 7.92
6/3/2022 2:00:00 AM 19.28 66.704 0.13 6.78 2.6 7.95
6/3/2022 2:15:00 AM 19.2 66.56 0.13 6.78 2.58 7.96
6/3/2022 2:30:00 AM 19.13 66.434 0.13 6.76 2.43 7.97
6/3/2022 2:45:00 AM 19.07 66.326 0.13 6.76 2.5 7.99
6/3/2022 3:00:00 AM 19.01 66.218 0.13 6.75 2.54 7.99
6/3/2022 3:15:00 AM 18.96 66.128 0.13 6.77 2.44 8.02
6/3/2022 3:30:00 AM 18.92 66.056 0.13 6.77 2.53 8.03
6/3/2022 3:45:00 AM 18.89 66.002 0.13 6.76 2.41 8.03
6/3/2022 4:00:00 AM 18.84 65.912 0.13 6.76 2.33 8.04
6/3/2022 4:15:00 AM 18.79 65.82201 0.131 6.76 2.33 8.04
6/3/2022 4:30:00 AM 18.75 65.75 0.131 6.78 2.33 8.05
6/3/2022 4:45:00 AM 18.72 65.696 0.131 6.78 2.51 8.05
6/3/2022 5:00:00 AM 18.68 65.624 0.131 6.79 2.71 8.07
6/3/2022 5:15:00 AM 18.63 65.534 0.131 6.79 2.39 8.08
6/3/2022 5:30:00 AM 18.59 65.462 0.131 6.79 2.4 8.1
6/3/2022 5:45:00 AM 18.53 65.354 0.131 6.8 2.36 8.11
6/3/2022 6:00:00 AM 18.47 65.246 0.131 6.79 2.24 8.15
6/3/2022 6:15:00 AM 18.41 65.138 0.131 6.81 2.26 8.19
6/3/2022 6:30:00 AM 18.35 65.03 0.13 6.82 2.23 8.23
6/3/2022 6:45:00 AM 18.3 64.94 0.13 6.81 2.29 8.28
6/3/2022 7:00:00 AM 18.24 64.832 0.13 6.83 2.22 8.32
6/3/2022 7:15:00 AM 18.18 64.724 0.13 6.83 2.53 8.37
6/3/2022 7:30:00 AM 18.15 64.67 0.13 6.84 2.14 8.42
6/3/2022 7:45:00 AM 18.15 64.67 0.13 6.87 2.19 8.5
6/3/2022 8:00:00 AM 18.15 64.67 0.13 6.86 2.24 8.57
6/3/2022 8:15:00 AM 18.15 64.67 0.13 6.89 2.29 8.64
6/3/2022 8:30:00 AM 18.18 64.724 0.13 6.91 2.18 8.7
6/3/2022 8:45:00 AM 18.22 64.796 0.13 6.93 2.29 8.75
6/3/2022 9:00:00 AM 18.23 64.814 0.13 6.94 2.17 8.8
6/3/2022 9:15:00 AM 18.26 64.868 0.13 6.96 2.24 8.85
6/3/2022 9:30:00 AM 18.29 64.922 0.13 6.97 2.26 8.88
6/3/2022 9:45:00 AM 18.31 64.958 0.13 6.98 2.27 8.92
6/3/2022 10:00:00 AM 18.34 65.012 0.13 6.99 2.38 8.96
6/3/2022 10:15:00 AM 18.39 65.102 0.129 7.01 2.21 9
6/3/2022 10:30:00 AM 18.45 65.21 0.129 7.03 2.19 9.03
6/3/2022 10:45:00 AM 18.51 65.318 0.129 7.04 2.24 9.07
6/3/2022 11:00:00 AM 18.64 65.552 0.129 7.07 2.19 9.11
6/3/2022 11:15:00 AM 18.78 65.804 0.129 7.08 2.21 9.14
6/3/2022 11:30:00 AM 18.98 66.164 0.129 7.1 2.19 9.16
6/3/2022 11:45:00 AM 19.21 66.578 0.129 7.12 2.28 9.18
6/3/2022 12:00:00 PM 19.5 67.1 0.128 7.15 2.17 9.19
6/3/2022 12:15:00 PM 19.82 67.676 0.128 7.17 2.15 9.21
6/3/2022 12:30:00 PM 20.18 68.324 0.128 7.19 2.11 9.23
6/3/2022 12:45:00 PM 20.56 69.008 0.128 7.22 2.24 9.24
6/3/2022 1:00:00 PM 20.98 69.764 0.128 7.27 2.14 9.26
6/3/2022 1:15:00 PM 21.3 70.34 0.128 7.3 2.15 9.25
6/3/2022 1:30:00 PM 21.46 70.628 0.128 7.3 2.25 9.19
6/3/2022 1:45:00 PM 21.75 71.15 0.128 7.31 2.08 9.2
6/3/2022 2:00:00 PM 21.95 71.51 0.128 7.33 2.17 9.18
6/3/2022 2:15:00 PM 22.38 72.284 0.128 7.36 2.12 9.19
6/3/2022 2:30:00 PM 22.36 72.248 0.128 7.34 2.08 9.08
6/3/2022 2:45:00 PM 22.36 72.248 0.128 7.33 2.22 9
6/3/2022 3:00:00 PM 22.32 72.176 0.128 7.33 2.08 8.98
6/3/2022 3:15:00 PM 22.32 72.176 0.128 7.33 1.99 8.93
6/3/2022 3:30:00 PM 22.39 72.302 0.128 7.31 2 8.84
6/3/2022 3:45:00 PM 22.43 72.374 0.128 7.27 1.99 8.78
6/3/2022 4:00:00 PM 22.67 72.806 0.127 7.3 2.04 8.79
6/3/2022 4:15:00 PM 22.74 72.932 0.127 7.31 2.06 8.78
6/3/2022 4:30:00 PM 22.89 73.202 0.127 7.32 1.97 8.77
6/3/2022 4:45:00 PM 22.89 73.202 0.127 7.29 2.15 8.7
6/3/2022 5:00:00 PM 23.13 73.634 0.127 7.3 1.95 8.75
6/3/2022 5:15:00 PM 23 73.4 0.128 7.31 1.81 8.67
6/3/2022 5:30:00 PM 22.86 73.148 0.128 7.27 1.9 8.6
6/3/2022 5:45:00 PM 22.55 72.59 0.128 7.23 1.83 8.49
6/3/2022 6:00:00 PM 22.33 72.194 0.128 7.18 1.9 8.39
6/3/2022 6:15:00 PM 22.19 71.942 0.128 7.14 1.84 8.31
6/3/2022 6:30:00 PM 22.08 71.744 0.128 7.1 1.89 8.23
6/3/2022 6:45:00 PM 21.99 71.582 0.128 7.07 1.86 8.16
6/3/2022 7:00:00 PM 21.9 71.42 0.129 7.05 1.85 8.09
6/3/2022 7:15:00 PM 21.78 71.204 0.129 7.02 1.92 8.02
6/3/2022 7:30:00 PM 21.64 70.952 0.129 7 1.84 7.97
6/3/2022 7:45:00 PM 21.49 70.682 0.129 7 1.94 7.94
6/3/2022 8:00:00 PM 21.34 70.412 0.13 6.96 1.94 7.91
6/3/2022 8:15:00 PM 21.2 70.16 0.13 6.95 1.82 7.88
6/3/2022 8:30:00 PM 21.07 69.926 0.13 6.93 1.99 7.84
6/3/2022 8:45:00 PM 20.93 69.674 0.13 6.9 1.92 7.81
6/3/2022 9:00:00 PM 20.79 69.422 0.13 6.9 2.15 7.79
6/3/2022 9:15:00 PM 20.65 69.17 0.131 6.87 2.1 7.78
6/3/2022 9:30:00 PM 20.52 68.936 0.131 6.85 2.09 7.77
6/3/2022 9:45:00 PM 20.38 68.684 0.131 6.83 2.33 7.78
6/3/2022 10:00:00 PM 20.26 68.468 0.131 6.83 2.25 7.78
6/3/2022 10:15:00 PM 20.12 68.216 0.131 6.81 2.24 7.8
6/3/2022 10:30:00 PM 19.98 67.964 0.131 6.79 2.21 7.82
6/3/2022 10:45:00 PM 19.84 67.712 0.131 6.78 2.44 7.84
6/3/2022 11:00:00 PM 19.69 67.442 0.131 6.78 2.4 7.87
6/3/2022 11:15:00 PM 19.54 67.172 0.131 6.77 2.6 7.9
6/3/2022 11:30:00 PM 19.38 66.884 0.131 6.77 2.27 7.93
6/3/2022 11:45:00 PM 19.23 66.614 0.132 6.76 2.42 7.97
6/4/2022 12:00:00 AM 19.09 66.362 0.132 6.75 2.31 7.99
6/4/2022 12:15:00 AM 18.94 66.092 0.132 6.75 2.32 8.03
6/4/2022 12:30:00 AM 18.8 65.84 0.132 6.75 2.22 8.05
6/4/2022 12:45:00 AM 18.67 65.606 0.132 6.75 2.41 8.08
6/4/2022 1:00:00 AM 18.54 65.372 0.132 6.75 2.3 8.11
6/4/2022 1:15:00 AM 18.41 65.138 0.132 6.75 2.35 8.15
6/4/2022 1:30:00 AM 18.29 64.922 0.132 6.75 2.38 8.17
6/4/2022 1:45:00 AM 18.18 64.724 0.132 6.75 2.38 8.2
6/4/2022 2:00:00 AM 18.08 64.544 0.132 6.76 2.34 8.22
6/4/2022 2:15:00 AM 17.97 64.346 0.132 6.77 2.35 8.25
6/4/2022 2:30:00 AM 17.88 64.184 0.132 6.77 2.42 8.27
6/4/2022 2:45:00 AM 17.79 64.022 0.132 6.77 2.49 8.28
6/4/2022 3:00:00 AM 17.71 63.878 0.132 6.78 2.39 8.3
6/4/2022 3:15:00 AM 17.65 63.77 0.132 6.78 2.39 8.32
6/4/2022 3:30:00 AM 17.59 63.662 0.132 6.79 2.43 8.32
6/4/2022 3:45:00 AM 17.52 63.536 0.132 6.78 2.42 8.34
6/4/2022 4:00:00 AM 17.47 63.446 0.132 6.79 2.37 8.35
6/4/2022 4:15:00 AM 17.42 63.356 0.132 6.8 2.43 8.37
6/4/2022 4:30:00 AM 17.36 63.248 0.132 6.79 2.4 8.37
6/4/2022 4:45:00 AM 17.32 63.176 0.132 6.79 2.3 8.38
6/4/2022 5:00:00 AM 17.27 63.086 0.132 6.79 2.33 8.39
6/4/2022 5:15:00 AM 17.22 62.996 0.132 6.8 2.42 8.4
6/4/2022 5:30:00 AM 17.18 62.924 0.131 6.8 2.63 8.41
6/4/2022 5:45:00 AM 17.13 62.834 0.131 6.79 2.31 8.43
6/4/2022 6:00:00 AM 17.09 62.762 0.131 6.81 2.3 8.46
6/4/2022 6:15:00 AM 17.06 62.708 0.131 6.81 2.32 8.5
6/4/2022 6:30:00 AM 17.02 62.636 0.131 6.81 2.11 8.54
6/4/2022 6:45:00 AM 16.99 62.582 0.131 6.83 2.19 8.59
6/4/2022 7:00:00 AM 16.97 62.546 0.131 6.84 2.13 8.63
6/4/2022 7:15:00 AM 16.95 62.51 0.131 6.84 2.22 8.68
6/4/2022 7:30:00 AM 16.93 62.474 0.131 6.86 2.12 8.72
6/4/2022 7:45:00 AM 16.96 62.528 0.131 6.88 2.11 8.81
6/4/2022 8:00:00 AM 16.99 62.582 0.13 6.87 2.16 8.87
6/4/2022 8:15:00 AM 17.04 62.672 0.13 6.89 2.08 8.93
6/4/2022 8:30:00 AM 17.11 62.798 0.13 6.91 2.06 8.99
6/4/2022 8:45:00 AM 17.19 62.942 0.13 6.93 2.13 9.04
6/4/2022 9:00:00 AM 17.26 63.068 0.13 6.96 2.06 9.07
6/4/2022 9:15:00 AM 17.34 63.212 0.13 6.98 2.15 9.11
6/4/2022 9:30:00 AM 17.41 63.338 0.13 6.98 2.09 9.13
6/4/2022 9:45:00 AM 17.52 63.536 0.129 7 2.03 9.15
6/4/2022 10:00:00 AM 17.63 63.734 0.129 7.01 2.02 9.17
6/4/2022 10:15:00 AM 17.75 63.95 0.129 7.03 2.04 9.19
6/4/2022 10:30:00 AM 17.85 64.13 0.129 7.05 1.99 9.22
6/4/2022 10:45:00 AM 17.99 64.382 0.129 7.06 2.84 9.25
6/4/2022 11:00:00 AM 18.13 64.634 0.129 7.06 2.47 9.27
6/4/2022 11:15:00 AM 18.31 64.958 0.129 7.1 2.47 9.3
6/4/2022 11:30:00 AM 18.5 65.3 0.129 7.11 2.45 9.32
6/4/2022 11:45:00 AM 18.71 65.67799 0.129 7.13 2.43 9.35
6/4/2022 12:00:00 PM 18.96 66.128 0.128 7.17 2.36 9.36
6/4/2022 12:15:00 PM 19.29 66.722 0.128 7.19 2.63 9.38
6/4/2022 12:30:00 PM 19.64 67.352 0.128 7.21 2.39 9.36
6/4/2022 12:45:00 PM 20.03 68.054 0.128 7.23 3.1 9.36
6/4/2022 1:00:00 PM 20.43 68.774 0.128 7.24 2.4 9.36
6/4/2022 1:15:00 PM 20.87 69.566 0.128 7.26 2.33 9.35
6/4/2022 1:30:00 PM 21.3 70.34 0.128 7.28 2.29 9.34
6/4/2022 1:45:00 PM 21.73 71.114 0.128 7.31 2.47 9.31
6/4/2022 2:00:00 PM 22.15 71.87 0.128 7.34 2.36 9.29
6/4/2022 2:15:00 PM 22.52 72.536 0.128 7.37 2.31 9.25
6/4/2022 2:30:00 PM 22.88 73.184 0.128 7.39 2.3 9.24
6/4/2022 2:45:00 PM 23.19 73.742 0.128 7.4 2.21 9.18
6/4/2022 3:00:00 PM 23.5 74.3 0.128 7.42 2.24 9.15
6/4/2022 3:15:00 PM 23.68 74.624 0.128 7.43 2.32 9.11
6/4/2022 3:30:00 PM 23.78 74.804 0.128 7.44 2.26 9.07
6/4/2022 3:45:00 PM 23.85 74.93 0.128 7.43 2.25 9.01
6/4/2022 4:00:00 PM 23.88 74.984 0.129 7.43 2.3 8.98
6/4/2022 4:15:00 PM 23.77 74.786 0.129 7.41 1.92 8.92
6/4/2022 4:30:00 PM 23.68 74.624 0.131 7.4 1.86 8.87
6/4/2022 4:45:00 PM 23.53 74.354 0.132 7.37 1.87 8.82
6/4/2022 5:00:00 PM 23.33 73.994 0.131 7.34 1.88 8.76
6/4/2022 5:15:00 PM 23.12 73.616 0.131 7.32 2.01 8.68
6/4/2022 5:30:00 PM 22.8 73.04 0.131 7.28 1.86 8.6
6/4/2022 5:45:00 PM 22.39 72.302 0.132 7.22 1.87 8.4
6/4/2022 6:00:00 PM 22.05 71.69 0.132 7.15 1.91 8.25
6/4/2022 6:15:00 PM 21.79 71.222 0.133 7.11 1.85 8.16
6/4/2022 6:30:00 PM 21.64 70.952 0.132 7.07 1.86 8.11
6/4/2022 6:45:00 PM 21.49 70.682 0.133 7.04 1.88 8.07
6/4/2022 7:00:00 PM 21.32 70.376 0.133 7.02 1.94 8.04
6/4/2022 7:15:00 PM 21.13 70.034 0.134 6.99 1.82 8.01
6/4/2022 7:30:00 PM 20.95 69.71 0.134 6.97 1.89 7.98
6/4/2022 7:45:00 PM 20.79 69.422 0.134 6.95 1.94 7.98
6/4/2022 8:00:00 PM 20.62 69.116 0.134 6.94 2.03 7.96
6/4/2022 8:15:00 PM 20.45 68.81 0.135 6.91 1.94 7.96
6/4/2022 8:30:00 PM 20.28 68.504 0.135 6.89 1.98 7.94
6/4/2022 8:45:00 PM 20.11 68.198 0.135 6.87 1.88 7.92
6/4/2022 9:00:00 PM 19.94 67.892 0.135 6.85 2.1 7.91
6/4/2022 9:15:00 PM 19.78 67.604 0.134 6.83 2.13 7.9
6/4/2022 9:30:00 PM 19.62 67.316 0.133 6.8 2.19 7.91
6/4/2022 9:45:00 PM 19.46 67.028 0.133 6.78 2.18 7.92
6/4/2022 10:00:00 PM 19.32 66.776 0.134 6.78 2.4 7.93
6/4/2022 10:15:00 PM 19.17 66.506 0.134 6.76 2.56 7.93
6/4/2022 10:30:00 PM 19.04 66.272 0.134 6.76 2.4 7.97
6/4/2022 10:45:00 PM 18.9 66.02 0.134 6.76 2.29 8
6/4/2022 11:00:00 PM 18.77 65.786 0.134 6.76 2.4 8.02
6/4/2022 11:15:00 PM 18.65 65.57 0.134 6.77 2.66 8.04
6/4/2022 11:30:00 PM 18.54 65.372 0.134 6.77 2.21 8.06
6/4/2022 11:45:00 PM 18.45 65.21 0.134 6.78 2.27 8.09
6/5/2022 12:00:00 AM 18.34 65.012 0.134 6.79 2.52 8.1
6/5/2022 12:15:00 AM 18.23 64.814 0.134 6.78 2.27 8.13
6/5/2022 12:30:00 AM 18.13 64.634 0.134 6.79 2.21 8.14
6/5/2022 12:45:00 AM 18.04 64.472 0.134 6.79 2.24 8.17
6/5/2022 1:00:00 AM 17.95 64.31 0.134 6.8 2.32 8.2
6/5/2022 1:15:00 AM 17.87 64.166 0.133 6.79 2.13 8.21
6/5/2022 1:30:00 AM 17.76 63.968 0.133 6.79 2.29 8.24
6/5/2022 1:45:00 AM 17.67 63.806 0.133 6.8 2.32 8.26
6/5/2022 2:00:00 AM 17.57 63.626 0.133 6.79 2.38 8.29
6/5/2022 2:15:00 AM 17.47 63.446 0.133 6.8 2.29 8.31
6/5/2022 2:30:00 AM 17.37 63.266 0.133 6.81 2.49 8.34
6/5/2022 2:45:00 AM 17.27 63.086 0.133 6.8 2.22 8.36
6/5/2022 3:00:00 AM 17.18 62.924 0.133 6.8 2.2 8.38
6/5/2022 3:15:00 AM 17.09 62.762 0.134 6.79 2.32 8.4
6/5/2022 3:30:00 AM 17 62.6 0.134 6.81 2.26 8.43
6/5/2022 3:45:00 AM 16.93 62.474 0.134 6.8 2.54 8.44
6/5/2022 4:00:00 AM 16.88 62.384 0.134 6.8 2.77 8.46
6/5/2022 4:15:00 AM 16.82 62.276 0.134 6.81 2.48 8.47
6/5/2022 4:30:00 AM 16.77 62.186 0.134 6.79 2.28 8.47
6/5/2022 4:45:00 AM 16.71 62.078 0.134 6.81 2.42 8.5
6/5/2022 5:00:00 AM 16.64 61.952 0.134 6.81 2.3 8.51
6/5/2022 5:15:00 AM 16.57 61.826 0.134 6.81 2.13 8.53
6/5/2022 5:30:00 AM 16.49 61.682 0.134 6.81 2.22 8.55
6/5/2022 5:45:00 AM 16.43 61.574 0.134 6.81 2.18 8.58
6/5/2022 6:00:00 AM 16.37 61.466 0.134 6.81 2.2 8.6
6/5/2022 6:15:00 AM 16.32 61.376 0.134 6.82 2.07 8.66
6/5/2022 6:30:00 AM 16.26 61.268 0.134 6.82 2.06 8.71
6/5/2022 6:45:00 AM 16.21 61.178 0.133 6.83 2.12 8.77
6/5/2022 7:00:00 AM 16.16 61.088 0.133 6.85 2.18 8.83
6/5/2022 7:15:00 AM 16.13 61.034 0.133 6.86 2.19 8.88
6/5/2022 7:30:00 AM 16.1 60.98 0.133 6.87 2.12 8.96
6/5/2022 7:45:00 AM 16.11 60.998 0.133 6.88 2.2 9.04
6/5/2022 8:00:00 AM 16.12 61.016 0.133 6.9 2.12 9.13
6/5/2022 8:15:00 AM 16.15 61.07 0.133 6.92 2.18 9.21
6/5/2022 8:30:00 AM 16.22 61.196 0.132 6.94 2.23 9.31
6/5/2022 8:45:00 AM 16.3 61.34 0.132 6.97 2.13 9.4
6/5/2022 9:00:00 AM 16.39 61.502 0.132 7 2.25 9.51
6/5/2022 9:15:00 AM 16.45 61.61 0.132 7.04 2.16 9.58
6/5/2022 9:30:00 AM 16.54 61.772 0.131 7.05 2.13 9.68
6/5/2022 9:45:00 AM 16.66 61.988 0.131 7.1 2.09 9.76
6/5/2022 10:00:00 AM 16.78 62.204 0.131 7.13 2.13 9.83
6/5/2022 10:15:00 AM 16.86 62.348 0.131 7.17 2.32 9.86
6/5/2022 10:30:00 AM 17.01 62.618 0.131 7.21 1.85 9.92
6/5/2022 10:45:00 AM 17.13 62.834 0.13 7.22 1.81 9.93
6/5/2022 11:00:00 AM 17.29 63.122 0.13 7.26 1.91 9.93
6/5/2022 11:15:00 AM 17.52 63.536 0.13 7.27 1.84 9.97
6/5/2022 11:30:00 AM 17.73 63.914 0.13 7.32 1.95 9.98
6/5/2022 11:45:00 AM 17.93 64.274 0.13 7.35 1.82 9.98
6/5/2022 12:00:00 PM 18.14 64.652 0.13 7.37 1.81 9.99
6/5/2022 12:15:00 PM 18.31 64.958 0.13 7.41 1.85 9.98
6/5/2022 12:30:00 PM 18.49 65.282 0.13 7.44 1.83 9.98
6/5/2022 12:45:00 PM 18.7 65.66 0.129 7.46 1.76 9.95
6/5/2022 1:00:00 PM 18.98 66.164 0.129 7.49 1.76 9.94
6/5/2022 1:15:00 PM 19.23 66.614 0.129 7.5 1.76 9.92
6/5/2022 1:30:00 PM 19.56 67.208 0.129 7.53 1.81 9.9
6/5/2022 1:45:00 PM 19.85 67.73 0.129 7.55 1.77 9.86
6/5/2022 2:00:00 PM 20.13 68.234 0.129 7.57 1.73 9.81
6/5/2022 2:15:00 PM 20.45 68.81 0.129 7.58 1.73 9.78
6/5/2022 2:30:00 PM 20.67 69.206 0.129 7.59 1.87 9.73
6/5/2022 2:45:00 PM 20.89 69.602 0.129 7.6 1.69 9.69
6/5/2022 3:00:00 PM 21.14 70.052 0.129 7.61 1.78 9.64
6/5/2022 3:15:00 PM 21.48 70.664 0.129 7.61 1.76 9.59
6/5/2022 3:30:00 PM 21.78 71.204 0.129 7.61 1.78 9.52
6/5/2022 3:45:00 PM 22 71.6 0.129 7.6 1.75 9.44
6/5/2022 4:00:00 PM 22.05 71.69 0.129 7.59 1.72 9.38
6/5/2022 4:15:00 PM 22.05 71.69 0.129 7.56 1.66 9.31
6/5/2022 4:30:00 PM 22.03 71.654 0.13 7.54 1.83 9.25
6/5/2022 4:45:00 PM 22.05 71.69 0.13 7.52 1.73 9.2
6/5/2022 5:00:00 PM 22.07 71.726 0.13 7.5 1.75 9.15
6/5/2022 5:15:00 PM 21.94 71.492 0.13 7.47 1.75 9.07
6/5/2022 5:30:00 PM 21.69 71.042 0.13 7.41 1.77 8.97
6/5/2022 5:45:00 PM 21.3 70.34 0.131 7.34 1.84 8.78
6/5/2022 6:00:00 PM 20.89 69.602 0.131 7.27 1.87 8.6
6/5/2022 6:15:00 PM 20.65 69.17 0.132 7.22 1.7 8.59
6/5/2022 6:30:00 PM 20.57 69.026 0.132 7.21 1.81 8.61
6/5/2022 6:45:00 PM 20.39 68.702 0.132 7.16 1.77 8.51
6/5/2022 7:00:00 PM 20.19 68.342 0.133 7.14 1.85 8.45
6/5/2022 7:15:00 PM 19.98 67.964 0.133 7.1 1.81 8.4
6/5/2022 7:30:00 PM 19.79 67.622 0.134 7.08 1.84 8.35
6/5/2022 7:45:00 PM 19.64 67.352 0.134 7.05 1.8 8.34
6/5/2022 8:00:00 PM 19.5 67.1 0.135 7.04 1.81 8.3
6/5/2022 8:15:00 PM 19.37 66.866 0.135 7.01 1.81 8.28
6/5/2022 8:30:00 PM 19.24 66.632 0.135 6.99 1.94 8.24
6/5/2022 8:45:00 PM 19.11 66.398 0.135 6.97 1.99 8.21
6/5/2022 9:00:00 PM 18.98 66.164 0.136 6.96 2.03 8.18
6/5/2022 9:15:00 PM 18.85 65.93 0.136 6.92 2.02 8.16
6/5/2022 9:30:00 PM 18.71 65.67799 0.136 6.89 2.15 8.16
6/5/2022 9:45:00 PM 18.58 65.444 0.136 6.9 2.1 8.16
6/5/2022 10:00:00 PM 18.45 65.21 0.136 6.87 2.21 8.17
6/5/2022 10:15:00 PM 18.32 64.976 0.136 6.87 2.11 8.18
6/5/2022 10:30:00 PM 18.19 64.742 0.136 6.84 2.16 8.2
6/5/2022 10:45:00 PM 18.06 64.508 0.136 6.84 2.11 8.22
6/5/2022 11:00:00 PM 17.94 64.292 0.136 6.82 2.16 8.24
6/5/2022 11:15:00 PM 17.82 64.076 0.136 6.81 2.11 8.26
6/5/2022 11:30:00 PM 17.71 63.878 0.136 6.82 2.14 8.27
6/5/2022 11:45:00 PM 17.6 63.68 0.136 6.81 2.34 8.28
6/6/2022 12:00:00 AM 17.5 63.5 0.137 6.81 2.31 8.31
6/6/2022 12:15:00 AM 17.4 63.32 0.137 6.82 2.32 8.33
6/6/2022 12:30:00 AM 17.31 63.158 0.137 6.81 2.3 8.34
6/6/2022 12:45:00 AM 17.22 62.996 0.137 6.81 2.21 8.36
6/6/2022 1:00:00 AM 17.14 62.852 0.137 6.82 2.24 8.38
6/6/2022 1:15:00 AM 17.06 62.708 0.137 6.81 2.26 8.4
6/6/2022 1:30:00 AM 16.99 62.582 0.137 6.81 2.32 8.41
6/6/2022 1:45:00 AM 16.92 62.456 0.137 6.82 2.21 8.43
6/6/2022 2:00:00 AM 16.85 62.33 0.137 6.83 2.17 8.44
6/6/2022 2:15:00 AM 16.79 62.222 0.137 6.83 2.28 8.46
6/6/2022 2:30:00 AM 16.72 62.096 0.137 6.82 2.25 8.48
6/6/2022 2:45:00 AM 16.67 62.006 0.137 6.81 2.25 8.49
6/6/2022 3:00:00 AM 16.61 61.898 0.137 6.81 2.27 8.5
6/6/2022 3:15:00 AM 16.56 61.808 0.137 6.81 2.3 8.52
6/6/2022 3:30:00 AM 16.51 61.718 0.137 6.81 2.38 8.53
6/6/2022 3:45:00 AM 16.46 61.628 0.137 6.8 2.26 8.54
6/6/2022 4:00:00 AM 16.41 61.538 0.137 6.81 2.25 8.55
6/6/2022 4:15:00 AM 16.36 61.448 0.137 6.81 2.29 8.56
6/6/2022 4:30:00 AM 16.32 61.376 0.137 6.81 2.27 8.58
6/6/2022 4:45:00 AM 16.28 61.304 0.136 6.82 2.33 8.59
6/6/2022 5:00:00 AM 16.23 61.214 0.136 6.82 2.36 8.6
6/6/2022 5:15:00 AM 16.19 61.142 0.136 6.81 2.26 8.61
6/6/2022 5:30:00 AM 16.15 61.07 0.136 6.81 2.27 8.63
6/6/2022 5:45:00 AM 16.1 60.98 0.136 6.82 2.3 8.65
6/6/2022 6:00:00 AM 16.07 60.926 0.136 6.82 2.14 8.69
6/6/2022 6:15:00 AM 16.04 60.872 0.136 6.81 2.2 8.74
6/6/2022 6:30:00 AM 16.01 60.818 0.136 6.83 2.17 8.79
6/6/2022 6:45:00 AM 15.99 60.782 0.136 6.84 2.08 8.85
6/6/2022 7:00:00 AM 15.96 60.728 0.136 6.86 2.07 8.91
6/6/2022 7:15:00 AM 15.94 60.692 0.136 6.86 2.16 8.95
6/6/2022 7:30:00 AM 15.93 60.674 0.136 6.87 2.09 9
6/6/2022 7:45:00 AM 15.97 60.746 0.135 6.89 2.33 9.11
6/6/2022 8:00:00 AM 16.02 60.836 0.135 6.91 2.06 9.2
6/6/2022 8:15:00 AM 16.11 60.998 0.135 6.94 21.39 9.32
6/6/2022 8:30:00 AM 16.19 61.142 0.135 6.98 1.85 9.38
6/6/2022 8:45:00 AM 16.26 61.268 0.135 7 1.82 9.43
6/6/2022 9:00:00 AM 16.35 61.43 0.134 7.02 1.77 9.46
6/6/2022 9:15:00 AM 16.47 61.646 0.134 7.04 1.73 9.49
6/6/2022 9:30:00 AM 16.58 61.844 0.134 7.05 1.83 9.52
6/6/2022 9:45:00 AM 16.73 62.114 0.134 7.09 1.8 9.63
6/6/2022 10:00:00 AM 16.87 62.366 0.134 7.13 1.78 9.7
6/6/2022 10:15:00 AM 16.96 62.528 0.133 7.15 1.87 9.71
6/6/2022 10:30:00 AM 17.04 62.672 0.133 7.17 1.85 9.73
6/6/2022 10:45:00 AM 17.23 63.014 0.133 7.19 1.74 9.77
6/6/2022 11:00:00 AM 17.47 63.446 0.133 7.22 1.75 9.8
6/6/2022 11:15:00 AM 17.72 63.896 0.133 7.24 1.73 9.79
6/6/2022 11:30:00 AM 18 64.4 0.133 7.27 1.92 9.8
6/6/2022 11:45:00 AM 18.33 64.994 0.132 7.31 1.76 9.83
6/6/2022 12:00:00 PM 18.6 65.48 0.132 7.35 1.8 9.87
6/6/2022 12:15:00 PM 18.88 65.984 0.132 7.39 1.72 9.86
6/6/2022 12:30:00 PM 19.15 66.47 0.132 7.4 1.77 9.82
6/6/2022 12:45:00 PM 19.51 67.118 0.132 7.41 1.8 9.76
6/6/2022 1:00:00 PM 19.97 67.946 0.132 7.43 1.79 9.71
6/6/2022 1:15:00 PM 20.41 68.738 0.132 7.44 1.7 9.7
6/6/2022 1:30:00 PM 20.87 69.566 0.132 7.47 1.81 9.66
6/6/2022 1:45:00 PM 21.31 70.358 0.132 7.49 1.77 9.61
6/6/2022 2:00:00 PM 21.69 71.042 0.132 7.53 1.65 9.59
6/6/2022 2:15:00 PM 22.01 71.618 0.132 7.56 1.77 9.57
6/6/2022 2:30:00 PM 22.37 72.266 0.132 7.59 1.75 9.52
6/6/2022 2:45:00 PM 22.67 72.806 0.132 7.6 1.68 9.47
6/6/2022 3:00:00 PM 22.78 73.004 0.132 7.64 1.69 9.39
6/6/2022 3:15:00 PM 22.76 72.968 0.132 7.63 1.69 9.36
6/6/2022 3:30:00 PM 23.08 73.544 0.132 7.66 1.7 9.33
6/6/2022 3:45:00 PM 23.34 74.012 0.132 7.66 1.65 9.29
6/6/2022 4:00:00 PM 23.25 73.85 0.132 7.64 1.65 9.21
6/6/2022 4:15:00 PM 23.22 73.796 0.132 7.62 1.76 9.16
6/6/2022 4:30:00 PM 23.17 73.706 0.132 7.6 1.7 9.12
6/6/2022 4:45:00 PM 23.05 73.49 0.133 7.59 1.71 9.08
6/6/2022 5:00:00 PM 22.96 73.328 0.133 7.58 1.68 9.04
6/6/2022 5:15:00 PM 22.81 73.058 0.133 7.55 1.73 8.99
6/6/2022 5:30:00 PM 22.66 72.788 0.133 7.51 1.69 8.95
6/6/2022 5:45:00 PM 22.49 72.482 0.133 7.47 1.78 8.89
6/6/2022 6:00:00 PM 22.22 71.996 0.133 7.43 1.76 8.81
6/6/2022 6:15:00 PM 21.97 71.546 0.133 7.37 1.85 8.71
6/6/2022 6:30:00 PM 21.78 71.204 0.132 7.33 1.77 8.66
6/6/2022 6:45:00 PM 21.59 70.862 0.132 7.28 1.83 8.58
6/6/2022 7:00:00 PM 21.41 70.538 0.132 7.24 1.84 8.5
6/6/2022 7:15:00 PM 21.25 70.25 0.132 7.2 1.88 8.46
6/6/2022 7:30:00 PM 21.04 69.872 0.132 7.17 2.17 8.39
6/6/2022 7:45:00 PM 20.85 69.53 0.133 7.15 1.93 8.31
6/6/2022 8:00:00 PM 20.66 69.188 0.133 7.11 1.97 8.19
6/6/2022 8:15:00 PM 20.47 68.846 0.134 7.07 1.93 8.1
6/6/2022 8:30:00 PM 20.29 68.522 0.134 7.05 1.88 8.05
6/6/2022 8:45:00 PM 20.14 68.252 0.135 7.02 1.99 8
6/6/2022 9:00:00 PM 19.98 67.964 0.136 7 2.07 7.97
6/6/2022 9:15:00 PM 19.83 67.694 0.136 6.97 2.14 7.94
6/6/2022 9:30:00 PM 19.7 67.46 0.137 6.95 2.3 7.93
6/6/2022 9:45:00 PM 19.56 67.208 0.137 6.93 2.53 7.93
6/6/2022 10:00:00 PM 19.43 66.974 0.138 6.92 2.28 7.93
6/6/2022 10:15:00 PM 19.31 66.758 0.138 6.9 2.35 7.94
6/6/2022 10:30:00 PM 19.19 66.542 0.138 6.88 2.3 7.95
6/6/2022 10:45:00 PM 19.07 66.326 0.138 6.88 2.41 7.96
6/6/2022 11:00:00 PM 18.97 66.146 0.138 6.86 2.28 7.97
6/6/2022 11:15:00 PM 18.86 65.948 0.138 6.84 2.36 8
6/6/2022 11:30:00 PM 18.74 65.732 0.139 6.83 2.42 8.02
6/6/2022 11:45:00 PM 18.63 65.534 0.139 6.82 2.35 8.03
6/7/2022 12:00:00 AM 18.53 65.354 0.139 6.83 2.28 8.05
6/7/2022 12:15:00 AM 18.44 65.192 0.139 6.82 2.25 8.07
6/7/2022 12:30:00 AM 18.36 65.048 0.139 6.81 2.33 8.07
6/7/2022 12:45:00 AM 18.3 64.94 0.139 6.8 2.27 8.1
6/7/2022 1:00:00 AM 18.26 64.868 0.14 6.79 2.27 8.1
6/7/2022 1:15:00 AM 18.2 64.76 0.14 6.8 2.33 8.12
6/7/2022 1:30:00 AM 18.16 64.688 0.14 6.8 2.27 8.12
6/7/2022 1:45:00 AM 18.1 64.58 0.14 6.81 2.35 8.11
6/7/2022 2:00:00 AM 18.04 64.472 0.14 6.81 2.31 8.13
6/7/2022 2:15:00 AM 18 64.4 0.14 6.83 2.23 8.14
6/7/2022 2:30:00 AM 17.99 64.382 0.14 6.83 2.54 8.13
6/7/2022 2:45:00 AM 17.97 64.346 0.14 6.83 2.31 8.15
6/7/2022 3:00:00 AM 17.94 64.292 0.14 6.85 2.29 8.15
6/7/2022 3:15:00 AM 17.91 64.238 0.14 6.83 2.33 8.14
6/7/2022 3:30:00 AM 17.88 64.184 0.14 6.84 2.21 8.16
6/7/2022 3:45:00 AM 17.86 64.148 0.14 6.83 2.14 8.15
6/7/2022 4:00:00 AM 17.84 64.112 0.14 6.83 2.07 8.17
6/7/2022 4:15:00 AM 17.82 64.076 0.14 6.83 2.16 8.18
6/7/2022 4:30:00 AM 17.78 64.004 0.14 6.84 2.69 8.17
6/7/2022 4:45:00 AM 17.75 63.95 0.14 6.83 2.34 8.18
6/7/2022 5:00:00 AM 17.71 63.878 0.14 6.83 2.39 8.19
6/7/2022 5:15:00 AM 17.67 63.806 0.14 6.83 2.4 8.19
6/7/2022 5:30:00 AM 17.64 63.752 0.14 6.84 2.1 8.22
6/7/2022 5:45:00 AM 17.61 63.698 0.14 6.83 2.08 8.23
6/7/2022 6:00:00 AM 17.6 63.68 0.14 6.84 1.93 8.27
6/7/2022 6:15:00 AM 17.57 63.626 0.14 6.84 1.97 8.32
6/7/2022 6:30:00 AM 17.57 63.626 0.14 6.85 1.96 8.38
6/7/2022 6:45:00 AM 17.57 63.626 0.14 6.86 2.12 8.45
6/7/2022 7:00:00 AM 17.58 63.644 0.139 6.88 1.92 8.52
6/7/2022 7:15:00 AM 17.59 63.662 0.139 6.88 1.94 8.58
6/7/2022 7:30:00 AM 17.61 63.698 0.139 6.9 1.98 8.64
6/7/2022 7:45:00 AM 17.65 63.77 0.139 6.93 1.88 8.73
6/7/2022 8:00:00 AM 17.68 63.824 0.139 6.97 1.83 8.88
6/7/2022 8:15:00 AM 17.72 63.896 0.138 6.99 1.87 9.02
6/7/2022 8:30:00 AM 17.79 64.022 0.138 7.02 1.92 9.16
6/7/2022 8:45:00 AM 17.87 64.166 0.138 7.05 1.88 9.26
6/7/2022 9:00:00 AM 17.92 64.256 0.138 7.08 1.83 9.33
6/7/2022 9:15:00 AM 17.96 64.328 0.137 7.11 1.84 9.34
6/7/2022 9:30:00 AM 18 64.4 0.137 7.11 1.84 9.37
6/7/2022 9:45:00 AM 18.05 64.49 0.137 7.13 1.78 9.36
6/7/2022 10:00:00 AM 18.09 64.562 0.137 7.14 1.79 9.37
6/7/2022 10:15:00 AM 18.18 64.724 0.137 7.17 1.77 9.45
6/7/2022 10:30:00 AM 18.23 64.814 0.137 7.19 1.89 9.48
6/7/2022 10:45:00 AM 18.28 64.904 0.137 7.19 1.83 9.5
6/7/2022 11:00:00 AM 18.37 65.066 0.137 7.24 1.86 9.54
6/7/2022 11:15:00 AM 18.48 65.264 0.136 7.27 1.76 9.58
6/7/2022 11:30:00 AM 18.55 65.39 0.136 7.27 1.79 9.6
6/7/2022 11:45:00 AM 18.68 65.624 0.136 7.31 1.8 9.67
6/7/2022 12:00:00 PM 18.68 65.624 0.136 7.3 1.76 9.54
6/7/2022 12:15:00 PM 18.66 65.588 0.136 7.27 1.76 9.42
6/7/2022 12:30:00 PM 18.72 65.696 0.136 7.29 1.81 9.47
6/7/2022 12:45:00 PM 18.75 65.75 0.136 7.28 1.82 9.44
6/7/2022 1:00:00 PM 18.81 65.858 0.136 7.3 1.85 9.47
6/7/2022 1:15:00 PM 18.81 65.858 0.136 7.28 1.86 9.33
6/7/2022 1:30:00 PM 18.8 65.84 0.137 7.26 2 9.23
6/7/2022 1:45:00 PM 18.8 65.84 0.137 7.24 1.89 9.2
6/7/2022 2:00:00 PM 18.87 65.966 0.138 7.24 2.12 9.26
6/7/2022 2:15:00 PM 18.95 66.11 0.14 7.28 2.37 9.32
6/7/2022 2:30:00 PM 18.96 66.128 0.14 7.27 1.86 9.28
6/7/2022 2:45:00 PM 18.97 66.146 0.14 7.27 1.96 9.22
6/7/2022 3:00:00 PM 18.97 66.146 0.139 7.24 2.22 9.19
6/7/2022 3:15:00 PM 18.99 66.182 0.139 7.24 3.13 9.1
6/7/2022 3:30:00 PM 18.99 66.182 0.138 7.21 2.87 9.06
6/7/2022 3:45:00 PM 18.98 66.164 0.138 7.19 2.47 8.95
6/7/2022 4:00:00 PM 18.93 66.074 0.139 7.14 2.04 8.83
6/7/2022 4:15:00 PM 18.9 66.02 0.139 7.09 2.1 8.71
6/7/2022 4:30:00 PM 18.88 65.984 0.139 7.08 1.98 8.65
6/7/2022 4:45:00 PM 18.86 65.948 0.138 7.07 2.09 8.55
6/7/2022 5:00:00 PM 18.84 65.912 0.137 7.03 2.11 8.53
6/7/2022 5:15:00 PM 18.82 65.876 0.137 7 2.04 8.45
6/7/2022 5:30:00 PM 18.81 65.858 0.137 6.99 1.94 8.46
6/7/2022 5:45:00 PM 18.8 65.84 0.137 7 1.92 8.48
6/7/2022 6:00:00 PM 18.79 65.82201 0.137 6.98 1.82 8.51
6/7/2022 6:15:00 PM 18.78 65.804 0.137 6.98 1.81 8.49
6/7/2022 6:30:00 PM 18.8 65.84 0.137 7 1.88 8.58
6/7/2022 6:45:00 PM 18.78 65.804 0.137 6.99 1.9 8.61
6/7/2022 7:00:00 PM 18.77 65.786 0.138 7.01 1.88 8.67
6/7/2022 7:15:00 PM 18.74 65.732 0.138 6.99 1.87 8.6
6/7/2022 7:30:00 PM 18.69 65.642 0.138 6.99 2.06 8.53
6/7/2022 7:45:00 PM 18.65 65.57 0.138 6.96 1.89 8.43
6/7/2022 8:00:00 PM 18.6 65.48 0.139 6.95 2.08 8.36
6/7/2022 8:15:00 PM 18.56 65.408 0.139 6.93 2.1 8.29
6/7/2022 8:30:00 PM 18.53 65.354 0.139 6.93 2.13 8.25
6/7/2022 8:45:00 PM 18.49 65.282 0.14 6.94 2.57 8.21
6/7/2022 9:00:00 PM 18.45 65.21 0.14 6.93 2.32 8.16
6/7/2022 9:15:00 PM 18.43 65.174 0.14 6.93 2.45 8.13
6/7/2022 9:30:00 PM 18.4 65.12 0.14 6.93 2.3 8.11
6/7/2022 9:45:00 PM 18.38 65.084 0.14 6.91 2.39 8.09
6/7/2022 10:00:00 PM 18.37 65.066 0.141 6.85 2.48 8.09
6/7/2022 10:15:00 PM 18.36 65.048 0.141 6.87 2.49 8.08
6/7/2022 10:30:00 PM 18.35 65.03 0.141 6.86 2.42 8.07
6/7/2022 10:45:00 PM 18.34 65.012 0.141 6.84 2.47 8.08
6/7/2022 11:00:00 PM 18.33 64.994 0.141 6.83 2.44 8.07
6/7/2022 11:15:00 PM 18.32 64.976 0.141 6.83 2.45 8.06
6/7/2022 11:30:00 PM 18.31 64.958 0.141 6.82 2.5 8.06
6/7/2022 11:45:00 PM 18.29 64.922 0.141 6.84 2.4 8.07
6/8/2022 12:00:00 AM 18.28 64.904 0.141 6.81 2.47 8.07
6/8/2022 12:15:00 AM 18.26 64.868 0.141 6.8 2.68 8.07
6/8/2022 12:30:00 AM 18.25 64.85 0.141 6.8 2.47 8.05
6/8/2022 12:45:00 AM 18.22 64.796 0.141 6.8 2.18 8.08
6/8/2022 1:00:00 AM 18.2 64.76 0.141 6.79 46.82 8.09
6/8/2022 1:15:00 AM 18.19 64.742 0.141 6.8 2.16 8.1
6/8/2022 1:30:00 AM 18.17 64.706 0.141 6.8 2.25 8.11
6/8/2022 1:45:00 AM 18.15 64.67 0.141 6.78 2.31 8.12
6/8/2022 2:00:00 AM 18.15 64.67 0.141 6.79 3.73 8.12
6/8/2022 2:15:00 AM 18.14 64.652 0.141 6.81 2.24 8.12
6/8/2022 2:30:00 AM 18.14 64.652 0.141 6.81 2.35 8.12
6/8/2022 2:45:00 AM 18.14 64.652 0.141 6.82 2.3 8.11
6/8/2022 3:00:00 AM 18.13 64.634 0.141 6.82 2.39 8.13
6/8/2022 3:15:00 AM 18.1 64.58 0.141 6.82 2.3 8.13
6/8/2022 3:30:00 AM 18.09 64.562 0.141 6.82 2.33 8.14
6/8/2022 3:45:00 AM 18.07 64.526 0.141 6.81 2.31 8.15
6/8/2022 4:00:00 AM 18.04 64.472 0.141 6.82 2.47 8.16
6/8/2022 4:15:00 AM 17.99 64.382 0.141 6.82 2.69 8.17
6/8/2022 4:30:00 AM 17.94 64.292 0.141 6.83 2.42 8.18
6/8/2022 4:45:00 AM 17.88 64.184 0.141 6.84 2.58 8.18
6/8/2022 5:00:00 AM 17.83 64.094 0.141 6.84 2.34 8.21
6/8/2022 5:15:00 AM 17.77 63.986 0.141 6.82 2.4 8.22
6/8/2022 5:30:00 AM 17.72 63.896 0.141 6.82 2.29 8.25
6/8/2022 5:45:00 AM 17.66 63.788 0.141 6.82 2.29 8.25
6/8/2022 6:00:00 AM 17.61 63.698 0.141 6.84 2.25 8.3
6/8/2022 6:15:00 AM 17.58 63.644 0.141 6.84 2.25 8.35
6/8/2022 6:30:00 AM 17.55 63.59 0.141 6.86 2.31 8.41
6/8/2022 6:45:00 AM 17.54 63.572 0.141 6.86 2.23 8.48
6/8/2022 7:00:00 AM 17.5 63.5 0.141 6.86 2.18 8.56
6/8/2022 7:15:00 AM 17.46 63.428 0.141 6.86 2.22 8.63
6/8/2022 7:30:00 AM 17.44 63.392 0.14 6.89 2.52 8.71
6/8/2022 7:45:00 AM 17.44 63.392 0.14 6.9 2.26 8.79
6/8/2022 8:00:00 AM 17.44 63.392 0.14 6.93 2.27 8.86
6/8/2022 8:15:00 AM 17.46 63.428 0.14 6.94 2.18 8.94
6/8/2022 8:30:00 AM 17.49 63.482 0.14 6.96 2.18 9
6/8/2022 8:45:00 AM 17.52 63.536 0.14 6.96 2.21 9.06
6/8/2022 9:00:00 AM 17.56 63.608 0.14 6.98 2.37 9.13
6/8/2022 9:15:00 AM 17.61 63.698 0.14 7 2.21 9.18
6/8/2022 9:30:00 AM 17.66 63.788 0.14 7.03 2.25 9.24
6/8/2022 9:45:00 AM 17.73 63.914 0.14 7.05 2.34 9.31
6/8/2022 10:00:00 AM 17.76 63.968 0.14 7.06 2.13 9.36
6/8/2022 10:15:00 AM 17.75 63.95 0.14 7.09 2.26 9.39
6/8/2022 10:30:00 AM 17.79 64.022 0.14 7.09 2.25 9.45
6/8/2022 10:45:00 AM 17.79 64.022 0.14 7.13 2.23 9.5
6/8/2022 11:00:00 AM 17.85 64.13 0.139 7.15 2.36 9.54
6/8/2022 11:15:00 AM 18.01 64.418 0.139 7.18 2.24 9.6
6/8/2022 11:30:00 AM 18.2 64.76 0.139 7.19 2.27 9.64
6/8/2022 11:45:00 AM 18.45 65.21 0.139 7.23 2.31 9.66
6/8/2022 12:00:00 PM 18.81 65.858 0.139 7.25 2.34 9.64
6/8/2022 12:15:00 PM 19.11 66.398 0.139 7.29 2.48 9.63
6/8/2022 12:30:00 PM 19.45 67.01 0.139 7.31 2.45 9.61
6/8/2022 12:45:00 PM 19.76 67.568 0.138 7.33 2.35 9.59
6/8/2022 1:00:00 PM 20.07 68.126 0.138 7.36 2.57 9.58
6/8/2022 1:15:00 PM 20.49 68.882 0.138 7.4 2.49 9.57
6/8/2022 1:30:00 PM 20.95 69.71 0.138 7.42 2.43 9.54
6/8/2022 1:45:00 PM 21.46 70.628 0.138 7.45 2.45 9.51
6/8/2022 2:00:00 PM 21.84 71.312 0.138 7.47 2.56 9.45
6/8/2022 2:15:00 PM 22.15 71.87 0.139 7.47 2.54 9.4
6/8/2022 2:30:00 PM 22.38 72.284 0.139 7.48 2.54 9.35
6/8/2022 2:45:00 PM 22.62 72.716 0.139 7.5 2.47 9.31
6/8/2022 3:00:00 PM 22.98 73.364 0.139 7.51 2.33 9.27
6/8/2022 3:15:00 PM 23.26 73.868 0.139 7.53 2.2 9.22
6/8/2022 3:30:00 PM 23.5 74.3 0.139 7.53 2.34 9.17
6/8/2022 3:45:00 PM 23.67 74.606 0.139 7.53 2.39 9.1
6/8/2022 4:00:00 PM 23.76 74.768 0.14 7.53 2.48 9.03
6/8/2022 4:15:00 PM 23.77 74.786 0.14 7.51 2.27 8.98
6/8/2022 4:30:00 PM 23.73 74.714 0.14 7.49 2.16 8.91
6/8/2022 4:45:00 PM 23.62 74.516 0.14 7.47 2.09 8.84
6/8/2022 5:00:00 PM 23.53 74.354 0.14 7.44 2.02 8.78
6/8/2022 5:15:00 PM 23.37 74.066 0.14 7.4 2.14 8.7
6/8/2022 5:30:00 PM 23.13 73.634 0.141 7.37 2.56 8.61
6/8/2022 5:45:00 PM 22.76 72.968 0.141 7.3 2.07 8.44
6/8/2022 6:00:00 PM 22.41 72.338 0.141 7.24 2.04 8.28
6/8/2022 6:15:00 PM 22.15 71.87 0.141 7.19 2.19 8.17
6/8/2022 6:30:00 PM 21.93 71.474 0.142 7.15 2.25 8.08
6/8/2022 6:45:00 PM 21.77 71.186 0.142 7.13 2.26 8.11
6/8/2022 7:00:00 PM 21.67 71.006 0.142 7.12 2.18 8.13
6/8/2022 7:15:00 PM 21.57 70.826 0.142 7.11 2.41 8.14
6/8/2022 7:30:00 PM 21.46 70.628 0.142 7.09 2.26 8.1
6/8/2022 7:45:00 PM 21.35 70.43 0.142 7.08 2.17 8.06
6/8/2022 8:00:00 PM 21.22 70.196 0.142 7.05 2.19 7.99
6/8/2022 8:15:00 PM 21.1 69.98 0.143 7.03 2.18 7.92
6/8/2022 8:30:00 PM 20.97 69.746 0.143 6.99 2.26 7.87
6/8/2022 8:45:00 PM 20.83 69.494 0.143 6.99 2.25 7.8
6/8/2022 9:00:00 PM 20.7 69.26 0.143 6.97 2.29 7.77
6/8/2022 9:15:00 PM 20.58 69.044 0.143 6.95 2.49 7.73
6/8/2022 9:30:00 PM 20.46 68.828 0.143 6.92 2.59 7.72
6/8/2022 9:45:00 PM 20.33 68.594 0.144 6.91 2.55 7.72
6/8/2022 10:00:00 PM 20.21 68.378 0.144 6.9 2.68 7.72
6/8/2022 10:15:00 PM 20.09 68.162 0.144 6.9 2.59 7.73
6/8/2022 10:30:00 PM 19.97 67.946 0.144 6.89 2.6 7.74
6/8/2022 10:45:00 PM 19.85 67.73 0.144 6.88 2.57 7.74
6/8/2022 11:00:00 PM 19.72 67.496 0.144 6.88 2.61 7.77
6/8/2022 11:15:00 PM 19.61 67.298 0.144 6.87 2.58 7.77
6/8/2022 11:30:00 PM 19.5 67.1 0.144 6.87 2.75 7.81
6/8/2022 11:45:00 PM 19.37 66.866 0.144 6.84 2.61 7.83
6/9/2022 12:00:00 AM 19.24 66.632 0.144 6.83 2.75 7.84
6/9/2022 12:15:00 AM 19.07 66.326 0.142 6.83 3.27 7.88
6/9/2022 12:30:00 AM 19.03 66.254 0.139 6.94 14.44 7.92
6/9/2022 12:45:00 AM 18.93 66.074 0.136 6.98 9.89 7.94
6/9/2022 1:00:00 AM 18.76 65.768 0.137 6.94 5.48 7.92
6/9/2022 1:15:00 AM 18.61 65.498 0.137 6.87 4.84 7.93
6/9/2022 1:30:00 AM 18.5 65.3 0.139 6.88 10.57 7.91
6/9/2022 1:45:00 AM 18.39 65.102 0.138 6.86 10.29 7.94
6/9/2022 2:00:00 AM 18.36 65.048 0.137 6.86 8.09 7.94
6/9/2022 2:15:00 AM 18.28 64.904 0.138 6.84 6.39 7.92
6/9/2022 2:30:00 AM 18.24 64.832 0.138 6.8 6.84 7.91
6/9/2022 2:45:00 AM 18.22 64.796 0.138 6.78 4.52 7.92
6/9/2022 3:00:00 AM 18.21 64.778 0.138 6.8 4.08 7.92
6/9/2022 3:15:00 AM 18.2 64.76 0.138 6.78 3.99 7.91
6/9/2022 3:30:00 AM 18.19 64.742 0.138 6.79 3.41 7.91
6/9/2022 3:45:00 AM 18.18 64.724 0.138 6.8 3.21 7.93
6/9/2022 4:00:00 AM 18.18 64.724 0.138 6.8 3.05 7.92
6/9/2022 4:15:00 AM 18.18 64.724 0.137 6.78 2.81 7.92
6/9/2022 4:30:00 AM 18.18 64.724 0.137 6.8 2.82 7.92
6/9/2022 4:45:00 AM 18.18 64.724 0.137 6.8 2.89 7.91
6/9/2022 5:00:00 AM 18.19 64.742 0.137 6.81 2.88 7.92
6/9/2022 5:15:00 AM 18.2 64.76 0.137 6.81 2.7 7.93
6/9/2022 5:30:00 AM 18.21 64.778 0.137 6.81 2.77 7.93
6/9/2022 5:45:00 AM 18.22 64.796 0.137 6.8 2.6 7.94
6/9/2022 6:00:00 AM 18.24 64.832 0.137 6.83 2.59 7.95
6/9/2022 6:15:00 AM 18.26 64.868 0.138 6.83 2.48 7.98
6/9/2022 6:30:00 AM 18.27 64.886 0.138 6.83 2.63 7.99
6/9/2022 6:45:00 AM 18.29 64.922 0.138 6.85 3.52 8.02
6/9/2022 7:00:00 AM 18.31 64.958 0.138 6.83 2.6 8.04
6/9/2022 7:15:00 AM 18.34 65.012 0.139 6.84 2.16 8.1
6/9/2022 7:30:00 AM 18.37 65.066 0.139 6.87 2.19 8.19
6/9/2022 7:45:00 AM 18.41 65.138 0.139 6.88 2.31 8.24
6/9/2022 8:00:00 AM 18.47 65.246 0.139 6.91 2.14 8.29
6/9/2022 8:15:00 AM 18.52 65.336 0.138 6.92 2.15 8.39
6/9/2022 8:30:00 AM 18.61 65.498 0.138 6.93 2.07 8.52
6/9/2022 8:45:00 AM 18.71 65.67799 0.138 6.97 2.31 8.65
6/9/2022 9:00:00 AM 18.79 65.82201 0.138 6.99 2.09 8.73
6/9/2022 9:15:00 AM 18.87 65.966 0.138 7.02 2.09 8.78
6/9/2022 9:30:00 AM 18.93 66.074 0.138 7.03 2.12 8.83
6/9/2022 9:45:00 AM 18.99 66.182 0.138 7.05 2.03 8.88
6/9/2022 10:00:00 AM 19.06 66.308 0.138 7.08 2.08 8.96
6/9/2022 10:15:00 AM 19.18 66.524 0.138 7.12 2.09 9.06
6/9/2022 10:30:00 AM 19.33 66.794 0.138 7.14 1.89 9.15
6/9/2022 10:45:00 AM 19.41 66.938 0.138 7.19 2 9.16
6/9/2022 11:00:00 AM 19.45 67.01 0.138 7.2 2.58 9.2
6/9/2022 11:15:00 AM 19.58 67.244 0.138 7.21 1.93 9.22
6/9/2022 11:30:00 AM 19.72 67.496 0.138 7.26 1.98 9.28
6/9/2022 11:45:00 AM 19.82 67.676 0.138 7.29 1.92 9.3
6/9/2022 12:00:00 PM 19.94 67.892 0.138 7.3 1.95 9.31
6/9/2022 12:15:00 PM 19.97 67.946 0.138 7.31 1.91 9.25
6/9/2022 12:30:00 PM 19.93 67.874 0.139 7.29 1.95 9.21
6/9/2022 12:45:00 PM 20.12 68.216 0.139 7.32 1.95 9.29
6/9/2022 1:00:00 PM 20.34 68.612 0.139 7.35 1.9 9.34
6/9/2022 1:15:00 PM 20.4 68.72 0.139 7.35 1.91 9.32
6/9/2022 1:30:00 PM 20.52 68.936 0.139 7.36 1.9 9.29
6/9/2022 1:45:00 PM 20.47 68.846 0.14 7.33 1.95 9.21
6/9/2022 2:00:00 PM 20.41 68.738 0.14 7.33 2.16 9.19
6/9/2022 2:15:00 PM 20.35 68.63 0.141 7.33 2.35 9.23
6/9/2022 2:30:00 PM 20.46 68.828 0.141 7.37 1.95 9.29
6/9/2022 2:45:00 PM 20.44 68.792 0.141 7.39 1.88 9.32
6/9/2022 3:00:00 PM 20.52 68.936 0.142 7.42 1.99 9.35
6/9/2022 3:15:00 PM 20.66 69.188 0.142 7.41 2.12 9.32
6/9/2022 3:30:00 PM 20.47 68.846 0.142 7.37 1.93 9.17
6/9/2022 3:45:00 PM 20.33 68.594 0.143 7.33 2.14 9.12
6/9/2022 4:00:00 PM 20.4 68.72 0.143 7.37 1.93 9.21
6/9/2022 4:15:00 PM 20.51 68.918 0.143 7.38 2.03 9.21
6/9/2022 4:30:00 PM 20.42 68.756 0.143 7.38 2.08 9.15
6/9/2022 4:45:00 PM 20.38 68.684 0.143 7.39 2.18 9.16
6/9/2022 5:00:00 PM 20.36 68.648 0.143 7.38 2.1 9.13
6/9/2022 5:15:00 PM 20.36 68.648 0.143 7.37 2.06 9.05
6/9/2022 5:30:00 PM 20.28 68.504 0.143 7.29 2.07 8.84
6/9/2022 5:45:00 PM 20.21 68.378 0.143 7.23 2.16 8.69
6/9/2022 6:00:00 PM 20.22 68.396 0.143 7.23 1.98 8.7
6/9/2022 6:15:00 PM 20.24 68.432 0.143 7.22 1.97 8.78
6/9/2022 6:30:00 PM 20.28 68.504 0.143 7.23 2.02 8.8
6/9/2022 6:45:00 PM 20.24 68.432 0.143 7.23 2.14 8.78
6/9/2022 7:00:00 PM 20.21 68.378 0.144 7.21 2.28 8.74
6/9/2022 7:15:00 PM 20.1 68.18 0.144 7.18 2.25 8.63
6/9/2022 7:30:00 PM 20 68 0.144 7.14 2.19 8.52
6/9/2022 7:45:00 PM 19.89 67.802 0.145 7.11 2.3 8.43
6/9/2022 8:00:00 PM 19.77 67.586 0.145 7.09 2.44 8.36
6/9/2022 8:15:00 PM 19.65 67.37 0.145 7.07 2.05 8.3
6/9/2022 8:30:00 PM 19.52 67.136 0.146 7.05 2.19 8.26
6/9/2022 8:45:00 PM 19.4 66.92 0.146 7.02 2.41 8.22
6/9/2022 9:00:00 PM 19.27 66.686 0.146 7 2.28 8.2
6/9/2022 9:15:00 PM 19.13 66.434 0.146 6.98 2.54 8.17
6/9/2022 9:30:00 PM 19.02 66.236 0.146 6.99 2.5 8.16
6/9/2022 9:45:00 PM 18.93 66.074 0.146 6.98 2.72 8.15
6/9/2022 10:00:00 PM 18.86 65.948 0.146 6.97 2.52 8.14
6/9/2022 10:15:00 PM 18.8 65.84 0.146 6.94 2.49 8.14
6/9/2022 10:30:00 PM 18.75 65.75 0.146 6.93 2.52 8.13
6/9/2022 10:45:00 PM 18.7 65.66 0.147 6.91 2.62 8.13
6/9/2022 11:00:00 PM 18.65 65.57 0.147 6.9 2.65 8.13
6/9/2022 11:15:00 PM 18.6 65.48 0.147 6.9 2.58 8.13
6/9/2022 11:30:00 PM 18.54 65.372 0.147 6.9 2.44 8.14
6/9/2022 11:45:00 PM 18.48 65.264 0.147 6.88 2.56 8.15
6/10/2022 12:00:00 AM 18.41 65.138 0.147 6.88 2.62 8.16
6/10/2022 12:15:00 AM 18.34 65.012 0.147 6.88 2.61 8.18
6/10/2022 12:30:00 AM 18.26 64.868 0.147 6.88 2.5 8.2
6/10/2022 12:45:00 AM 18.17 64.706 0.147 6.87 2.66 8.22
6/10/2022 1:00:00 AM 18.09 64.562 0.147 6.87 2.74 8.24
6/10/2022 1:15:00 AM 18 64.4 0.147 6.87 2.63 8.26
6/10/2022 1:30:00 AM 17.92 64.256 0.147 6.87 2.64 8.28
6/10/2022 1:45:00 AM 17.83 64.094 0.147 6.87 2.63 8.31
6/10/2022 2:00:00 AM 17.74 63.932 0.147 6.87 2.82 8.33
6/10/2022 2:15:00 AM 17.66 63.788 0.147 6.87 2.8 8.34
6/10/2022 2:30:00 AM 17.58 63.644 0.147 6.87 2.73 8.37
6/10/2022 2:45:00 AM 17.5 63.5 0.148 6.87 2.67 8.38
6/10/2022 3:00:00 AM 17.44 63.392 0.148 6.88 2.61 8.4
6/10/2022 3:15:00 AM 17.39 63.302 0.148 6.88 2.64 8.41
6/10/2022 3:30:00 AM 17.36 63.248 0.148 6.88 2.57 8.42
6/10/2022 3:45:00 AM 17.32 63.176 0.149 6.87 2.65 8.43
6/10/2022 4:00:00 AM 17.28 63.104 0.149 6.86 2.56 8.44
6/10/2022 4:15:00 AM 17.22 62.996 0.15 6.86 2.51 8.45
6/10/2022 4:30:00 AM 17.2 62.96 0.15 6.86 2.56 8.47
6/10/2022 4:45:00 AM 17.16 62.888 0.151 6.86 2.54 8.47
6/10/2022 5:00:00 AM 17.15 62.87 0.151 6.86 2.61 8.47
6/10/2022 5:15:00 AM 17.13 62.834 0.151 6.85 2.76 8.48
6/10/2022 5:30:00 AM 17.11 62.798 0.151 6.86 2.49 8.49
6/10/2022 5:45:00 AM 17.1 62.78 0.151 6.86 2.58 8.5
6/10/2022 6:00:00 AM 17.08 62.744 0.151 6.87 2.37 8.52
6/10/2022 6:15:00 AM 17.06 62.708 0.151 6.88 2.38 8.54
6/10/2022 6:30:00 AM 17.03 62.654 0.151 6.89 2.38 8.58
6/10/2022 6:45:00 AM 17 62.6 0.151 6.9 2.33 8.62
6/10/2022 7:00:00 AM 17 62.6 0.151 6.9 2.47 8.66
6/10/2022 7:15:00 AM 16.99 62.582 0.151 6.92 2.46 8.73
6/10/2022 7:30:00 AM 17.01 62.618 0.151 6.9 2.54 8.82
6/10/2022 7:45:00 AM 17.04 62.672 0.15 6.94 2.59 8.94
6/10/2022 8:00:00 AM 17.09 62.762 0.15 6.96 2.3 9.01
6/10/2022 8:15:00 AM 17.14 62.852 0.15 6.97 2.33 9.05
6/10/2022 8:30:00 AM 17.18 62.924 0.15 7 2.32 9.07
6/10/2022 8:45:00 AM 17.23 63.014 0.15 7 2.24 9.09
6/10/2022 9:00:00 AM 17.29 63.122 0.15 7.01 2.3 9.09
6/10/2022 9:15:00 AM 17.36 63.248 0.15 7.04 2.31 9.1
6/10/2022 9:30:00 AM 17.42 63.356 0.15 7.05 2.14 9.12
6/10/2022 9:45:00 AM 17.5 63.5 0.15 7.05 2.25 9.15
6/10/2022 10:00:00 AM 17.57 63.626 0.15 7.08 2.33 9.18
6/10/2022 10:15:00 AM 17.64 63.752 0.15 7.09 2.19 9.22
6/10/2022 10:30:00 AM 17.72 63.896 0.15 7.11 2.39 9.27
6/10/2022 10:4